Time,TemperatureF,DewpointF,PressureIn,WindDirection,WindDirectionDegrees,WindSpeedMPH,WindSpeedGustMPH,Humidity,HourlyPrecipIn,Conditions,Clouds,dailyrainin,SoftwareType,DateUTC
2013-04-26 00:00:00,42.0,26.6,30.33,SE,135,3.5,6.0,54,0.00,,,0.00,VWS V14.01,2013-04-26 05:00:00,
2013-04-26 00:01:00,42.0,26.6,30.33,SE,135,3.5,3.5,54,0.00,,,0.00,VWS V14.01,2013-04-26 05:01:00,
2013-04-26 00:02:00,41.7,26.7,30.33,SE,135,4.0,4.0,55,0.00,,,0.00,VWS V14.01,2013-04-26 05:02:00,
2013-04-26 00:03:00,41.7,26.7,30.33,SE,135,4.0,4.0,55,0.00,,,0.00,VWS V14.01,2013-04-26 05:03:00,
2013-04-26 00:04:00,41.7,26.7,30.33,SE,135,2.4,4.0,55,0.00,,,0.00,VWS V14.01,2013-04-26 05:04:00,
2013-04-26 00:05:00,41.7,26.7,30.33,SE,135,2.4,2.4,55,0.00,,,0.00,VWS V14.01,2013-04-26 05:05:00,
2013-04-26 00:06:00,41.7,26.7,30.33,SE,135,6.0,6.0,55,0.00,,,0.00,VWS V14.01,2013-04-26 05:06:00,
2013-04-26 00:07:00,41.7,26.7,30.34,SE,135,6.0,6.0,55,0.00,,,0.00,VWS V14.01,2013-04-26 05:07:00,
2013-04-26 00:08:00,41.7,26.7,30.34,SE,135,6.0,6.0,55,0.00,,,0.00,VWS V14.01,2013-04-26 05:08:00,
2013-04-26 00:09:00,42.0,27.0,30.34,SE,135,6.7,6.7,55,0.00,,,0.00,VWS V14.01,2013-04-26 05:09:00,
2013-04-26 00:10:00,42.0,27.0,30.34,SE,135,6.7,6.7,55,0.00,,,0.00,VWS V14.01,2013-04-26 05:10:00,
2013-04-26 00:11:00,42.2,26.8,30.33,SE,135,5.3,6.7,54,0.00,,,0.00,VWS V14.01,2013-04-26 05:11:00,
2013-04-26 00:12:00,42.2,26.8,30.33,SE,135,5.3,5.3,54,0.00,,,0.00,VWS V14.01,2013-04-26 05:12:00,
2013-04-26 00:13:00,41.9,26.9,30.33,SE,135,2.2,5.3,55,0.00,,,0.00,VWS V14.01,2013-04-26 05:13:00,
2013-04-26 00:14:00,41.9,26.9,30.33,SE,135,2.2,2.2,55,0.00,,,0.00,VWS V14.01,2013-04-26 05:14:00,
2013-04-26 00:15:00,41.7,26.7,30.33,SE,135,6.4,6.4,55,0.00,,,0.00,VWS V14.01,2013-04-26 05:15:00,
2013-04-26 00:16:00,41.7,26.7,30.33,SE,135,6.4,6.4,55,0.00,,,0.00,VWS V14.01,2013-04-26 05:16:00,
2013-04-26 00:17:00,42.0,27.0,30.34,SE,135,5.8,6.4,55,0.00,,,0.00,VWS V14.01,2013-04-26 05:17:00,
2013-04-26 00:18:00,42.0,27.0,30.34,SE,135,5.8,5.8,55,0.00,,,0.00,VWS V14.01,2013-04-26 05:18:00,
2013-04-26 00:19:00,42.0,27.0,30.34,SE,135,5.8,5.8,55,0.00,,,0.00,VWS V14.01,2013-04-26 05:19:00,
2013-04-26 00:20:00,42.4,27.4,30.34,SE,135,7.3,7.3,55,0.00,,,0.00,VWS V14.01,2013-04-26 05:20:00,
2013-04-26 00:21:00,42.4,27.4,30.33,SSE,158,6.4,7.3,55,0.00,,,0.00,VWS V14.01,2013-04-26 05:21:00,
2013-04-26 00:22:00,42.4,27.4,30.33,SSE,158,6.4,6.4,55,0.00,,,0.00,VWS V14.01,2013-04-26 05:22:00,
2013-04-26 00:23:00,42.4,27.4,30.33,SSE,158,6.4,6.4,55,0.00,,,0.00,VWS V14.01,2013-04-26 05:23:00,
2013-04-26 00:24:00,42.2,27.2,30.33,SE,135,2.2,6.4,55,0.00,,,0.00,VWS V14.01,2013-04-26 05:24:00,
2013-04-26 00:25:00,42.2,27.2,30.33,SE,135,2.2,2.2,55,0.00,,,0.00,VWS V14.01,2013-04-26 05:25:00,
2013-04-26 00:26:00,42.0,27.0,30.33,SE,135,7.1,7.1,55,0.00,,,0.00,VWS V14.01,2013-04-26 05:26:00,
2013-04-26 00:27:00,42.0,27.0,30.33,SE,135,7.1,7.1,55,0.00,,,0.00,VWS V14.01,2013-04-26 05:27:00,
2013-04-26 00:28:00,42.0,27.5,30.33,SSE,158,9.6,9.6,56,0.00,,,0.00,VWS V14.01,2013-04-26 05:28:00,
2013-04-26 00:29:00,42.0,27.5,30.33,SSE,158,9.6,9.6,56,0.00,,,0.00,VWS V14.01,2013-04-26 05:29:00,
2013-04-26 00:30:00,42.4,27.8,30.33,SE,135,5.5,9.6,56,0.00,,,0.00,VWS V14.01,2013-04-26 05:30:00,
2013-04-26 00:31:00,42.4,27.8,30.33,SE,135,5.5,5.5,56,0.00,,,0.00,VWS V14.01,2013-04-26 05:31:00,
2013-04-26 00:32:00,42.4,27.8,30.33,SE,135,6.0,6.0,56,0.00,,,0.00,VWS V14.01,2013-04-26 05:32:00,
2013-04-26 00:33:00,42.4,27.8,30.34,SE,135,6.0,6.0,56,0.00,,,0.00,VWS V14.01,2013-04-26 05:33:00,
2013-04-26 00:34:00,42.4,27.8,30.33,SE,135,4.4,6.0,56,0.00,,,0.00,VWS V14.01,2013-04-26 05:34:00,
2013-04-26 00:35:00,42.4,27.8,30.33,SE,135,4.4,4.4,56,0.00,,,0.00,VWS V14.01,2013-04-26 05:35:00,
2013-04-26 00:36:00,42.0,27.5,30.33,SE,135,4.4,4.4,56,0.00,,,0.00,VWS V14.01,2013-04-26 05:36:00,
2013-04-26 00:37:00,42.0,27.5,30.33,SE,135,5.1,5.1,56,0.00,,,0.00,VWS V14.01,2013-04-26 05:37:00,
2013-04-26 00:38:00,42.0,27.5,30.33,SE,135,5.1,5.1,56,0.00,,,0.00,VWS V14.01,2013-04-26 05:38:00,
2013-04-26 00:39:00,42.0,27.9,30.33,SE,135,5.1,5.1,57,0.00,,,0.00,VWS V14.01,2013-04-26 05:39:00,
2013-04-26 00:40:00,42.0,27.9,30.33,SE,135,5.1,5.1,57,0.00,,,0.00,VWS V14.01,2013-04-26 05:40:00,
2013-04-26 00:41:00,42.0,27.9,30.33,SE,135,3.8,5.1,57,0.00,,,0.00,VWS V14.01,2013-04-26 05:41:00,
2013-04-26 00:42:00,42.0,27.9,30.33,SE,135,3.8,3.8,57,0.00,,,0.00,VWS V14.01,2013-04-26 05:42:00,
2013-04-26 00:43:00,42.0,27.9,30.33,SE,135,5.3,5.3,57,0.00,,,0.00,VWS V14.01,2013-04-26 05:43:00,
2013-04-26 00:44:00,42.0,27.9,30.33,SE,135,5.3,5.3,57,0.00,,,0.00,VWS V14.01,2013-04-26 05:44:00,
2013-04-26 00:45:00,42.0,28.3,30.33,SSE,158,6.9,6.9,58,0.00,,,0.00,VWS V14.01,2013-04-26 05:45:00,
2013-04-26 00:46:00,42.0,28.3,30.33,SSE,158,6.9,6.9,58,0.00,,,0.00,VWS V14.01,2013-04-26 05:46:00,
2013-04-26 00:47:00,42.0,27.9,30.33,SE,135,6.7,6.9,57,0.00,,,0.00,VWS V14.01,2013-04-26 05:47:00,
2013-04-26 00:48:00,42.0,27.9,30.33,SE,135,6.7,6.7,57,0.00,,,0.00,VWS V14.01,2013-04-26 05:48:00,
2013-04-26 00:49:00,42.0,27.9,30.33,SE,135,8.0,8.0,57,0.00,,,0.00,VWS V14.01,2013-04-26 05:49:00,
2013-04-26 00:50:00,42.0,27.9,30.33,SE,135,8.0,8.0,57,0.00,,,0.00,VWS V14.01,2013-04-26 05:50:00,
2013-04-26 00:51:00,42.2,28.1,30.33,SE,135,6.2,8.0,57,0.00,,,0.00,VWS V14.01,2013-04-26 05:51:00,
2013-04-26 00:52:00,42.2,28.5,30.33,SE,135,6.2,6.2,58,0.00,,,0.00,VWS V14.01,2013-04-26 05:52:00,
2013-04-26 00:53:00,42.2,28.5,30.33,SE,135,6.2,6.2,58,0.00,,,0.00,VWS V14.01,2013-04-26 05:53:00,
2013-04-26 00:54:00,42.4,28.7,30.33,SE,135,7.6,7.6,58,0.00,,,0.00,VWS V14.01,2013-04-26 05:54:00,
2013-04-26 00:55:00,42.4,28.7,30.33,SE,135,7.6,7.6,58,0.00,,,0.00,VWS V14.01,2013-04-26 05:55:00,
2013-04-26 00:56:00,42.4,28.7,30.33,SE,135,8.0,8.0,58,0.00,,,0.00,VWS V14.01,2013-04-26 05:56:00,
2013-04-26 00:57:00,42.4,28.7,30.33,SE,135,8.0,8.0,58,0.00,,,0.00,VWS V14.01,2013-04-26 05:57:00,
2013-04-26 00:58:00,42.0,28.3,30.33,SSE,158,7.3,8.0,58,0.00,,,0.00,VWS V14.01,2013-04-26 05:58:00,
2013-04-26 00:59:00,42.0,28.3,30.33,SSE,158,7.3,7.3,58,0.00,,,0.00,VWS V14.01,2013-04-26 05:59:00,
2013-04-26 01:00:00,42.0,28.3,30.33,SSE,158,7.3,7.3,58,0.00,,,0.00,VWS V14.01,2013-04-26 06:00:00,
2013-04-26 01:01:00,42.0,28.3,30.33,SSE,158,7.3,7.3,58,0.00,,,0.00,VWS V14.01,2013-04-26 06:01:00,
2013-04-26 01:02:00,42.0,28.7,30.33,SE,135,6.4,7.3,59,0.00,,,0.00,VWS V14.01,2013-04-26 06:02:00,
2013-04-26 01:03:00,42.0,28.7,30.33,SE,135,6.4,6.4,59,0.00,,,0.00,VWS V14.01,2013-04-26 06:03:00,
2013-04-26 01:04:00,41.7,28.4,30.33,SE,135,5.8,6.4,59,0.00,,,0.00,VWS V14.01,2013-04-26 06:04:00,
2013-04-26 01:05:00,41.7,28.4,30.33,SE,135,5.8,5.8,59,0.00,,,0.00,VWS V14.01,2013-04-26 06:05:00,
2013-04-26 01:06:00,41.5,28.3,30.33,SE,135,6.7,6.7,59,0.00,,,0.00,VWS V14.01,2013-04-26 06:06:00,
2013-04-26 01:07:00,41.5,28.7,30.33,SE,135,6.7,6.7,60,0.00,,,0.00,VWS V14.01,2013-04-26 06:07:00,
2013-04-26 01:08:00,41.5,28.7,30.33,SE,135,6.7,6.7,60,0.00,,,0.00,VWS V14.01,2013-04-26 06:08:00,
2013-04-26 01:09:00,41.5,29.1,30.33,SE,135,6.0,6.7,61,0.00,,,0.00,VWS V14.01,2013-04-26 06:09:00,
2013-04-26 01:10:00,41.5,29.1,30.33,SE,135,6.0,6.0,61,0.00,,,0.00,VWS V14.01,2013-04-26 06:10:00,
2013-04-26 01:11:00,41.5,29.1,30.32,SE,135,6.2,6.2,61,0.00,,,0.00,VWS V14.01,2013-04-26 06:11:00,
2013-04-26 01:12:00,41.5,29.1,30.33,SE,135,6.2,6.2,61,0.00,,,0.00,VWS V14.01,2013-04-26 06:12:00,
2013-04-26 01:13:00,41.3,28.9,30.32,SE,135,4.9,6.2,61,0.00,,,0.00,VWS V14.01,2013-04-26 06:13:00,
2013-04-26 01:14:00,41.3,28.9,30.33,SE,135,4.9,4.9,61,0.00,,,0.00,VWS V14.01,2013-04-26 06:14:00,
2013-04-26 01:15:00,41.1,28.7,30.33,SE,135,4.2,4.9,61,0.00,,,0.00,VWS V14.01,2013-04-26 06:15:00,
2013-04-26 01:16:00,41.1,28.7,30.33,SE,135,4.2,4.2,61,0.00,,,0.00,VWS V14.01,2013-04-26 06:16:00,
2013-04-26 01:17:00,40.8,28.8,30.33,SE,135,5.3,5.3,62,0.00,,,0.00,VWS V14.01,2013-04-26 06:17:00,
2013-04-26 01:18:00,40.8,28.8,30.33,SE,135,5.3,5.3,62,0.00,,,0.00,VWS V14.01,2013-04-26 06:18:00,
2013-04-26 01:19:00,40.4,28.8,30.32,SE,135,3.3,5.3,63,0.00,,,0.00,VWS V14.01,2013-04-26 06:19:00,
2013-04-26 01:20:00,40.4,28.8,30.32,SE,135,3.3,3.3,63,0.00,,,0.00,VWS V14.01,2013-04-26 06:20:00,
2013-04-26 01:21:00,40.4,29.2,30.32,SE,135,3.8,3.8,64,0.00,,,0.00,VWS V14.01,2013-04-26 06:21:00,
2013-04-26 01:22:00,40.4,29.2,30.32,SE,135,3.8,3.8,64,0.00,,,0.00,VWS V14.01,2013-04-26 06:22:00,
2013-04-26 01:23:00,40.4,29.2,30.32,SE,135,3.8,3.8,64,0.00,,,0.00,VWS V14.01,2013-04-26 06:23:00,
2013-04-26 01:24:00,40.2,29.0,30.32,SE,135,2.2,3.8,64,0.00,,,0.00,VWS V14.01,2013-04-26 06:24:00,
2013-04-26 01:25:00,40.2,29.0,30.32,SE,135,2.2,2.2,64,0.00,,,0.00,VWS V14.01,2013-04-26 06:25:00,
2013-04-26 01:26:00,39.9,29.1,30.32,SE,135,1.7,2.2,65,0.00,,,0.00,VWS V14.01,2013-04-26 06:26:00,
2013-04-26 01:27:00,39.9,29.1,30.32,SE,135,1.7,1.7,65,0.00,,,0.00,VWS V14.01,2013-04-26 06:27:00,
2013-04-26 01:28:00,39.9,29.1,30.32,SE,135,6.0,6.0,65,0.00,,,0.00,VWS V14.01,2013-04-26 06:28:00,
2013-04-26 01:29:00,39.9,29.1,30.32,SE,135,6.0,6.0,65,0.00,,,0.00,VWS V14.01,2013-04-26 06:29:00,
2013-04-26 01:30:00,40.6,29.8,30.33,SE,135,5.5,6.0,65,0.00,,,0.00,VWS V14.01,2013-04-26 06:30:00,
2013-04-26 01:31:00,40.6,29.8,30.33,SE,135,5.5,5.5,65,0.00,,,0.00,VWS V14.01,2013-04-26 06:31:00,
2013-04-26 01:32:00,40.8,30.0,30.32,SE,135,8.0,8.0,65,0.00,,,0.00,VWS V14.01,2013-04-26 06:32:00,
2013-04-26 01:33:00,40.8,30.0,30.32,SE,135,8.0,8.0,65,0.00,,,0.00,VWS V14.01,2013-04-26 06:33:00,
2013-04-26 01:34:00,41.0,30.1,30.32,SE,135,5.1,8.0,65,0.00,,,0.00,VWS V14.01,2013-04-26 06:34:00,
2013-04-26 01:35:00,41.0,30.1,30.32,SE,135,5.1,5.1,65,0.00,,,0.00,VWS V14.01,2013-04-26 06:35:00,
2013-04-26 01:36:00,41.0,30.1,30.32,SE,135,2.6,5.1,65,0.00,,,0.00,VWS V14.01,2013-04-26 06:36:00,
2013-04-26 01:37:00,41.1,30.2,30.32,SE,135,2.6,2.6,65,0.00,,,0.00,VWS V14.01,2013-04-26 06:37:00,
2013-04-26 01:38:00,41.1,30.2,30.32,SE,135,7.8,7.8,65,0.00,,,0.00,VWS V14.01,2013-04-26 06:38:00,
2013-04-26 01:39:00,41.1,30.2,30.32,SE,135,7.8,7.8,65,0.00,,,0.00,VWS V14.01,2013-04-26 06:39:00,
2013-04-26 01:40:00,41.1,30.2,30.32,SE,135,7.8,7.8,65,0.00,,,0.00,VWS V14.01,2013-04-26 06:40:00,
2013-04-26 01:41:00,41.5,30.6,30.32,SE,135,6.0,7.8,65,0.00,,,0.00,VWS V14.01,2013-04-26 06:41:00,
2013-04-26 01:42:00,41.5,30.6,30.32,SE,135,6.0,6.0,65,0.00,,,0.00,VWS V14.01,2013-04-26 06:42:00,
2013-04-26 01:43:00,41.7,30.4,30.32,SE,135,5.5,6.0,64,0.00,,,0.00,VWS V14.01,2013-04-26 06:43:00,
2013-04-26 01:44:00,41.7,30.4,30.32,SE,135,5.5,5.5,64,0.00,,,0.00,VWS V14.01,2013-04-26 06:44:00,
2013-04-26 01:45:00,41.7,30.4,30.32,SE,135,8.0,8.0,64,0.00,,,0.00,VWS V14.01,2013-04-26 06:45:00,
2013-04-26 01:46:00,41.7,30.4,30.32,SE,135,8.0,8.0,64,0.00,,,0.00,VWS V14.01,2013-04-26 06:46:00,
2013-04-26 01:47:00,41.9,30.6,30.32,SE,135,7.3,8.0,64,0.00,,,0.00,VWS V14.01,2013-04-26 06:47:00,
2013-04-26 01:48:00,41.9,30.6,30.32,SE,135,7.3,7.3,64,0.00,,,0.00,VWS V14.01,2013-04-26 06:48:00,
2013-04-26 01:49:00,42.0,30.7,30.32,SE,135,5.5,7.3,64,0.00,,,0.00,VWS V14.01,2013-04-26 06:49:00,
2013-04-26 01:50:00,42.0,30.7,30.32,SE,135,5.5,5.5,64,0.00,,,0.00,VWS V14.01,2013-04-26 06:50:00,
2013-04-26 01:51:00,42.0,30.7,30.31,SE,135,5.8,5.8,64,0.00,,,0.00,VWS V14.01,2013-04-26 06:51:00,
2013-04-26 01:52:00,42.0,30.7,30.32,SE,135,5.8,5.8,64,0.00,,,0.00,VWS V14.01,2013-04-26 06:52:00,
2013-04-26 01:53:00,42.0,30.7,30.31,SSE,158,8.5,8.5,64,0.00,,,0.00,VWS V14.01,2013-04-26 06:53:00,
2013-04-26 01:54:00,42.0,30.7,30.31,SSE,158,8.5,8.5,64,0.00,,,0.00,VWS V14.01,2013-04-26 06:54:00,
2013-04-26 01:55:00,42.0,30.7,30.31,SSE,158,8.5,8.5,64,0.00,,,0.00,VWS V14.01,2013-04-26 06:55:00,
2013-04-26 01:56:00,42.0,31.1,30.31,SSE,158,8.5,8.5,65,0.00,,,0.00,VWS V14.01,2013-04-26 06:56:00,
2013-04-26 01:57:00,42.0,31.1,30.31,SE,135,6.9,8.5,65,0.00,,,0.00,VWS V14.01,2013-04-26 06:57:00,
2013-04-26 01:58:00,41.9,31.0,30.31,SE,135,6.4,6.9,65,0.00,,,0.00,VWS V14.01,2013-04-26 06:58:00,
2013-04-26 01:59:00,41.9,31.0,30.31,SE,135,6.4,6.4,65,0.00,,,0.00,VWS V14.01,2013-04-26 06:59:00,
2013-04-26 02:00:00,41.9,31.0,30.31,SE,135,6.4,6.4,65,0.00,,,0.00,VWS V14.01,2013-04-26 07:00:00,
2013-04-26 02:01:00,41.9,31.0,30.31,SE,135,6.4,6.4,65,0.00,,,0.00,VWS V14.01,2013-04-26 07:01:00,
2013-04-26 02:02:00,41.5,30.6,30.31,SE,135,5.8,6.4,65,0.00,,,0.00,VWS V14.01,2013-04-26 07:02:00,
2013-04-26 02:03:00,41.5,30.6,30.31,SE,135,5.8,5.8,65,0.00,,,0.00,VWS V14.01,2013-04-26 07:03:00,
2013-04-26 02:04:00,41.7,30.8,30.31,SSE,158,8.5,8.5,65,0.00,,,0.00,VWS V14.01,2013-04-26 07:04:00,
2013-04-26 02:05:00,41.7,30.8,30.31,SSE,158,8.5,8.5,65,0.00,,,0.00,VWS V14.01,2013-04-26 07:05:00,
2013-04-26 02:06:00,41.7,30.8,30.31,SE,135,8.5,8.5,65,0.00,,,0.00,VWS V14.01,2013-04-26 07:06:00,
2013-04-26 02:07:00,41.7,30.8,30.31,SE,135,8.5,8.5,65,0.00,,,0.00,VWS V14.01,2013-04-26 07:07:00,
2013-04-26 02:08:00,41.7,30.8,30.31,SSE,158,7.3,8.5,65,0.00,,,0.00,VWS V14.01,2013-04-26 07:08:00,
2013-04-26 02:09:00,41.7,30.8,30.31,SSE,158,7.3,7.3,65,0.00,,,0.00,VWS V14.01,2013-04-26 07:09:00,
2013-04-26 02:10:00,41.7,30.8,30.31,SSE,158,7.3,7.3,65,0.00,,,0.00,VWS V14.01,2013-04-26 07:10:00,
2013-04-26 02:11:00,41.7,31.2,30.31,SE,135,7.3,7.3,66,0.00,,,0.00,VWS V14.01,2013-04-26 07:11:00,
2013-04-26 02:12:00,41.7,31.2,30.31,SE,135,7.3,7.3,66,0.00,,,0.00,VWS V14.01,2013-04-26 07:12:00,
2013-04-26 02:13:00,41.7,31.2,30.31,SE,135,7.8,7.8,66,0.00,,,0.00,VWS V14.01,2013-04-26 07:13:00,
2013-04-26 02:14:00,41.7,31.2,30.31,SE,135,7.8,7.8,66,0.00,,,0.00,VWS V14.01,2013-04-26 07:14:00,
2013-04-26 02:15:00,41.7,30.8,30.31,SSE,158,6.9,7.8,65,0.00,,,0.00,VWS V14.01,2013-04-26 07:15:00,
2013-04-26 02:16:00,41.7,30.8,30.31,SSE,158,6.9,6.9,65,0.00,,,0.00,VWS V14.01,2013-04-26 07:16:00,
2013-04-26 02:17:00,41.7,31.2,30.31,SE,135,10.5,10.5,66,0.00,,,0.00,VWS V14.01,2013-04-26 07:17:00,
2013-04-26 02:18:00,41.7,31.2,30.31,SE,135,10.5,10.5,66,0.00,,,0.00,VWS V14.01,2013-04-26 07:18:00,
2013-04-26 02:19:00,41.7,31.2,30.31,SSE,158,10.2,10.5,66,0.00,,,0.00,VWS V14.01,2013-04-26 07:19:00,
2013-04-26 02:20:00,41.7,31.2,30.31,SSE,158,10.2,10.2,66,0.00,,,0.00,VWS V14.01,2013-04-26 07:20:00,
2013-04-26 02:21:00,41.7,31.2,30.31,SE,135,6.9,10.2,66,0.00,,,0.00,VWS V14.01,2013-04-26 07:21:00,
2013-04-26 02:22:00,41.7,31.2,30.31,SE,135,6.9,6.9,66,0.00,,,0.00,VWS V14.01,2013-04-26 07:22:00,
2013-04-26 02:23:00,41.7,31.2,30.31,South,180,6.4,6.9,66,0.00,,,0.00,VWS V14.01,2013-04-26 07:23:00,
2013-04-26 02:24:00,41.9,31.4,30.31,South,180,6.4,6.4,66,0.00,,,0.00,VWS V14.01,2013-04-26 07:24:00,
2013-04-26 02:25:00,41.9,31.4,30.31,South,180,6.4,6.4,66,0.00,,,0.00,VWS V14.01,2013-04-26 07:25:00,
2013-04-26 02:26:00,41.7,31.2,30.31,SSE,158,10.2,10.2,66,0.00,,,0.00,VWS V14.01,2013-04-26 07:26:00,
2013-04-26 02:27:00,41.7,31.2,30.31,SSE,158,10.2,10.2,66,0.00,,,0.00,VWS V14.01,2013-04-26 07:27:00,
2013-04-26 02:28:00,41.7,31.2,30.30,SE,135,7.8,10.2,66,0.00,,,0.00,VWS V14.01,2013-04-26 07:28:00,
2013-04-26 02:29:00,41.7,31.2,30.30,SE,135,7.8,7.8,66,0.00,,,0.00,VWS V14.01,2013-04-26 07:29:00,
2013-04-26 02:30:00,41.7,31.2,30.30,South,180,6.2,7.8,66,0.00,,,0.00,VWS V14.01,2013-04-26 07:30:00,
2013-04-26 02:31:00,41.7,31.2,30.30,South,180,6.2,6.2,66,0.00,,,0.00,VWS V14.01,2013-04-26 07:31:00,
2013-04-26 02:32:00,41.7,31.2,30.30,SSE,158,9.8,9.8,66,0.00,,,0.00,VWS V14.01,2013-04-26 07:32:00,
2013-04-26 02:33:00,41.7,31.2,30.30,SSE,158,9.8,9.8,66,0.00,,,0.00,VWS V14.01,2013-04-26 07:33:00,
2013-04-26 02:34:00,41.7,31.6,30.30,SSE,158,8.9,9.8,67,0.00,,,0.00,VWS V14.01,2013-04-26 07:34:00,
2013-04-26 02:35:00,41.7,31.6,30.30,SSE,158,8.9,8.9,67,0.00,,,0.00,VWS V14.01,2013-04-26 07:35:00,
2013-04-26 02:36:00,41.7,31.6,30.30,SE,135,8.5,8.9,67,0.00,,,0.00,VWS V14.01,2013-04-26 07:36:00,
2013-04-26 02:37:00,41.7,31.6,30.30,SE,135,8.5,8.5,67,0.00,,,0.00,VWS V14.01,2013-04-26 07:37:00,
2013-04-26 02:38:00,41.7,31.6,30.30,SE,135,6.2,8.5,67,0.00,,,0.00,VWS V14.01,2013-04-26 07:38:00,
2013-04-26 02:39:00,41.7,31.6,30.30,SE,135,6.2,6.2,67,0.00,,,0.00,VWS V14.01,2013-04-26 07:39:00,
2013-04-26 02:40:00,41.7,31.6,30.30,SE,135,6.2,6.2,67,0.00,,,0.00,VWS V14.01,2013-04-26 07:40:00,
2013-04-26 02:41:00,41.7,31.6,30.30,SE,135,5.8,6.2,67,0.00,,,0.00,VWS V14.01,2013-04-26 07:41:00,
2013-04-26 02:42:00,41.7,31.6,30.30,SE,135,5.8,5.8,67,0.00,,,0.00,VWS V14.01,2013-04-26 07:42:00,
2013-04-26 02:43:00,41.5,31.4,30.30,SSE,158,9.8,9.8,67,0.00,,,0.00,VWS V14.01,2013-04-26 07:43:00,
2013-04-26 02:44:00,41.5,31.4,30.30,SSE,158,9.8,9.8,67,0.00,,,0.00,VWS V14.01,2013-04-26 07:44:00,
2013-04-26 02:45:00,41.5,31.4,30.30,SE,135,8.5,9.8,67,0.00,,,0.00,VWS V14.01,2013-04-26 07:45:00,
2013-04-26 02:46:00,41.5,31.4,30.29,SE,135,8.5,8.5,67,0.00,,,0.00,VWS V14.01,2013-04-26 07:46:00,
2013-04-26 02:47:00,41.5,31.4,30.29,SSE,158,8.0,8.5,67,0.00,,,0.00,VWS V14.01,2013-04-26 07:47:00,
2013-04-26 02:48:00,41.5,31.4,30.29,SSE,158,8.0,8.0,67,0.00,,,0.00,VWS V14.01,2013-04-26 07:48:00,
2013-04-26 02:49:00,41.5,31.4,30.30,SSE,158,8.0,8.0,67,0.00,,,0.00,VWS V14.01,2013-04-26 07:49:00,
2013-04-26 02:50:00,41.5,31.4,30.30,SSE,158,8.0,8.0,67,0.00,,,0.00,VWS V14.01,2013-04-26 07:50:00,
2013-04-26 02:51:00,41.5,31.4,30.29,SE,135,7.3,8.0,67,0.00,,,0.00,VWS V14.01,2013-04-26 07:51:00,
2013-04-26 02:52:00,41.5,31.4,30.29,SE,135,7.3,7.3,67,0.00,,,0.00,VWS V14.01,2013-04-26 07:52:00,
2013-04-26 02:53:00,41.5,31.4,30.29,SE,135,7.3,7.3,67,0.00,,,0.00,VWS V14.01,2013-04-26 07:53:00,
2013-04-26 02:54:00,41.7,31.6,30.29,SE,135,6.9,7.3,67,0.00,,,0.00,VWS V14.01,2013-04-26 07:54:00,
2013-04-26 02:55:00,41.7,31.6,30.29,SE,135,6.9,6.9,67,0.00,,,0.00,VWS V14.01,2013-04-26 07:55:00,
2013-04-26 02:56:00,41.7,31.6,30.29,SE,135,11.4,11.4,67,0.00,,,0.00,VWS V14.01,2013-04-26 07:56:00,
2013-04-26 02:57:00,41.7,31.6,30.29,SE,135,11.4,11.4,67,0.00,,,0.00,VWS V14.01,2013-04-26 07:57:00,
2013-04-26 02:58:00,41.7,31.6,30.29,SE,135,9.6,11.4,67,0.00,,,0.00,VWS V14.01,2013-04-26 07:58:00,
2013-04-26 02:59:00,41.7,31.6,30.29,SE,135,9.6,9.6,67,0.00,,,0.00,VWS V14.01,2013-04-26 07:59:00,
2013-04-26 03:00:00,41.7,31.6,30.29,SE,135,9.6,9.6,67,0.00,,,0.00,VWS V14.01,2013-04-26 08:00:00,
2013-04-26 03:01:00,41.7,31.6,30.29,SE,135,9.6,9.6,67,0.00,,,0.00,VWS V14.01,2013-04-26 08:01:00,
2013-04-26 03:02:00,41.7,31.6,30.29,SE,135,6.4,9.6,67,0.00,,,0.00,VWS V14.01,2013-04-26 08:02:00,
2013-04-26 03:03:00,41.7,31.6,30.29,SE,135,6.4,6.4,67,0.00,,,0.00,VWS V14.01,2013-04-26 08:03:00,
2013-04-26 03:04:00,41.9,31.8,30.29,SE,135,14.9,14.9,67,0.00,,,0.00,VWS V14.01,2013-04-26 08:04:00,
2013-04-26 03:05:00,41.9,31.8,30.29,SE,135,14.9,14.9,67,0.00,,,0.00,VWS V14.01,2013-04-26 08:05:00,
2013-04-26 03:06:00,41.9,31.8,30.29,SE,135,13.6,14.9,67,0.00,,,0.00,VWS V14.01,2013-04-26 08:06:00,
2013-04-26 03:07:00,41.9,31.8,30.29,SE,135,13.6,13.6,67,0.00,,,0.00,VWS V14.01,2013-04-26 08:07:00,
2013-04-26 03:08:00,41.9,31.8,30.29,SE,135,13.6,13.6,67,0.00,,,0.00,VWS V14.01,2013-04-26 08:08:00,
2013-04-26 03:09:00,41.9,31.8,30.29,SSE,158,7.6,13.6,67,0.00,,,0.00,VWS V14.01,2013-04-26 08:09:00,
2013-04-26 03:10:00,41.9,31.8,30.29,SSE,158,7.6,7.6,67,0.00,,,0.00,VWS V14.01,2013-04-26 08:10:00,
2013-04-26 03:11:00,41.9,31.8,30.29,SSE,158,5.5,7.6,67,0.00,,,0.00,VWS V14.01,2013-04-26 08:11:00,
2013-04-26 03:12:00,41.9,31.8,30.29,SSE,158,5.5,5.5,67,0.00,,,0.00,VWS V14.01,2013-04-26 08:12:00,
2013-04-26 03:13:00,41.9,31.8,30.29,ESE,112,3.8,5.5,67,0.00,,,0.00,VWS V14.01,2013-04-26 08:13:00,
2013-04-26 03:14:00,41.9,31.8,30.29,ESE,112,3.8,3.8,67,0.00,,,0.00,VWS V14.01,2013-04-26 08:14:00,
2013-04-26 03:15:00,41.9,31.8,30.29,SE,135,5.1,5.1,67,0.00,,,0.00,VWS V14.01,2013-04-26 08:15:00,
2013-04-26 03:16:00,41.9,31.8,30.29,SE,135,5.1,5.1,67,0.00,,,0.00,VWS V14.01,2013-04-26 08:16:00,
2013-04-26 03:17:00,41.7,31.9,30.30,NNE,22,0.0,5.1,68,0.00,,,0.00,VWS V14.01,2013-04-26 08:17:00,
2013-04-26 03:18:00,41.7,31.9,30.30,NNE,22,0.0,0.0,68,0.00,,,0.00,VWS V14.01,2013-04-26 08:18:00,
2013-04-26 03:19:00,41.5,31.7,30.30,SSE,158,1.5,1.5,68,0.00,,,0.00,VWS V14.01,2013-04-26 08:19:00,
2013-04-26 03:20:00,41.5,31.7,30.29,SSE,158,1.5,1.5,68,0.00,,,0.00,VWS V14.01,2013-04-26 08:20:00,
2013-04-26 03:21:00,41.5,31.7,30.29,SSE,158,4.9,4.9,68,0.00,,,0.00,VWS V14.01,2013-04-26 08:21:00,
2013-04-26 03:22:00,41.5,31.7,30.29,SSE,158,4.9,4.9,68,0.00,,,0.00,VWS V14.01,2013-04-26 08:22:00,
2013-04-26 03:23:00,41.5,31.7,30.29,South,180,0.0,4.9,68,0.00,,,0.00,VWS V14.01,2013-04-26 08:23:00,
2013-04-26 03:24:00,41.5,31.7,30.29,South,180,0.0,0.0,68,0.00,,,0.00,VWS V14.01,2013-04-26 08:24:00,
2013-04-26 03:25:00,41.5,31.7,30.29,South,180,0.0,0.0,68,0.00,,,0.00,VWS V14.01,2013-04-26 08:25:00,
2013-04-26 03:26:00,41.3,31.5,30.29,SSE,158,0.0,0.0,68,0.00,,,0.00,VWS V14.01,2013-04-26 08:26:00,
2013-04-26 03:27:00,41.3,31.5,30.30,SSE,158,0.0,0.0,68,0.00,,,0.00,VWS V14.01,2013-04-26 08:27:00,
2013-04-26 03:28:00,41.3,31.5,30.29,SSE,158,0.8,0.8,68,0.00,,,0.00,VWS V14.01,2013-04-26 08:28:00,
2013-04-26 03:29:00,41.3,31.5,30.29,SSE,158,0.8,0.8,68,0.00,,,0.00,VWS V14.01,2013-04-26 08:29:00,
2013-04-26 03:30:00,41.5,31.7,30.29,SE,135,7.8,7.8,68,0.00,,,0.00,VWS V14.01,2013-04-26 08:30:00,
2013-04-26 03:31:00,41.5,31.7,30.29,SE,135,7.8,7.8,68,0.00,,,0.00,VWS V14.01,2013-04-26 08:31:00,
2013-04-26 03:32:00,41.7,31.9,30.29,SSE,158,6.9,7.8,68,0.00,,,0.00,VWS V14.01,2013-04-26 08:32:00,
2013-04-26 03:33:00,41.7,31.9,30.29,SSE,158,6.9,6.9,68,0.00,,,0.00,VWS V14.01,2013-04-26 08:33:00,
2013-04-26 03:34:00,41.7,31.9,30.29,South,180,2.6,6.9,68,0.00,,,0.00,VWS V14.01,2013-04-26 08:34:00,
2013-04-26 03:35:00,41.7,31.9,30.29,South,180,2.6,2.6,68,0.00,,,0.00,VWS V14.01,2013-04-26 08:35:00,
2013-04-26 03:36:00,41.9,32.1,30.30,South,180,4.2,4.2,68,0.00,,,0.00,VWS V14.01,2013-04-26 08:36:00,
2013-04-26 03:37:00,41.9,32.1,30.29,South,180,4.2,4.2,68,0.00,,,0.00,VWS V14.01,2013-04-26 08:37:00,
2013-04-26 03:38:00,41.9,32.1,30.30,SE,135,8.0,8.0,68,0.00,,,0.00,VWS V14.01,2013-04-26 08:38:00,
2013-04-26 03:39:00,41.9,32.1,30.30,SE,135,8.0,8.0,68,0.00,,,0.00,VWS V14.01,2013-04-26 08:39:00,
2013-04-26 03:40:00,41.9,32.1,30.29,SE,135,8.0,8.0,68,0.00,,,0.00,VWS V14.01,2013-04-26 08:40:00,
2013-04-26 03:41:00,41.7,31.9,30.29,SE,135,5.8,8.0,68,0.00,,,0.00,VWS V14.01,2013-04-26 08:41:00,
2013-04-26 03:42:00,41.7,31.9,30.29,SE,135,5.8,5.8,68,0.00,,,0.00,VWS V14.01,2013-04-26 08:42:00,
2013-04-26 03:43:00,41.7,31.9,30.30,SSE,158,7.3,7.3,68,0.00,,,0.00,VWS V14.01,2013-04-26 08:43:00,
2013-04-26 03:44:00,41.7,31.9,30.30,SSE,158,7.3,7.3,68,0.00,,,0.00,VWS V14.01,2013-04-26 08:44:00,
2013-04-26 03:45:00,41.7,31.9,30.30,SE,135,4.0,7.3,68,0.00,,,0.00,VWS V14.01,2013-04-26 08:45:00,
2013-04-26 03:46:00,41.7,31.9,30.30,SE,135,4.0,4.0,68,0.00,,,0.00,VWS V14.01,2013-04-26 08:46:00,
2013-04-26 03:47:00,41.5,31.7,30.29,SE,135,5.5,5.5,68,0.00,,,0.00,VWS V14.01,2013-04-26 08:47:00,
2013-04-26 03:48:00,41.5,31.7,30.30,SE,135,5.5,5.5,68,0.00,,,0.00,VWS V14.01,2013-04-26 08:48:00,
2013-04-26 03:49:00,41.5,31.7,30.30,SE,135,6.4,6.4,68,0.00,,,0.00,VWS V14.01,2013-04-26 08:49:00,
2013-04-26 03:50:00,41.5,31.7,30.30,SE,135,6.4,6.4,68,0.00,,,0.00,VWS V14.01,2013-04-26 08:50:00,
2013-04-26 03:51:00,41.5,31.7,30.30,SE,135,6.9,6.9,68,0.00,,,0.00,VWS V14.01,2013-04-26 08:51:00,
2013-04-26 03:52:00,41.5,31.7,30.30,SE,135,6.9,6.9,68,0.00,,,0.00,VWS V14.01,2013-04-26 08:52:00,
2013-04-26 03:53:00,41.5,31.7,30.30,ESE,112,4.0,6.9,68,0.00,,,0.00,VWS V14.01,2013-04-26 08:53:00,
2013-04-26 03:54:00,41.3,31.9,30.30,ESE,112,4.0,4.0,69,0.00,,,0.00,VWS V14.01,2013-04-26 08:54:00,
2013-04-26 03:55:00,41.3,31.9,30.30,ESE,112,4.0,4.0,69,0.00,,,0.00,VWS V14.01,2013-04-26 08:55:00,
2013-04-26 03:56:00,41.5,32.1,30.29,ESE,112,2.4,4.0,69,0.00,,,0.00,VWS V14.01,2013-04-26 08:56:00,
2013-04-26 03:57:00,41.5,32.1,30.29,ESE,112,2.4,2.4,69,0.00,,,0.00,VWS V14.01,2013-04-26 08:57:00,
2013-04-26 03:58:00,41.5,32.1,30.29,SSE,158,7.3,7.3,69,0.00,,,0.00,VWS V14.01,2013-04-26 08:58:00,
2013-04-26 03:59:00,41.5,32.1,30.29,SSE,158,7.3,7.3,69,0.00,,,0.00,VWS V14.01,2013-04-26 08:59:00,
2013-04-26 04:00:00,41.5,32.1,30.29,SSE,158,7.3,7.3,69,0.00,,,0.00,VWS V14.01,2013-04-26 09:00:00,
2013-04-26 04:01:00,41.5,32.1,30.29,SSE,158,7.3,7.3,69,0.00,,,0.00,VWS V14.01,2013-04-26 09:01:00,
2013-04-26 04:02:00,41.5,32.1,30.29,SE,135,6.4,7.3,69,0.00,,,0.00,VWS V14.01,2013-04-26 09:02:00,
2013-04-26 04:03:00,41.5,32.1,30.29,SE,135,6.4,6.4,69,0.00,,,0.00,VWS V14.01,2013-04-26 09:03:00,
2013-04-26 04:04:00,41.5,32.1,30.29,SE,135,8.2,8.2,69,0.00,,,0.00,VWS V14.01,2013-04-26 09:04:00,
2013-04-26 04:05:00,41.5,32.1,30.29,SE,135,8.2,8.2,69,0.00,,,0.00,VWS V14.01,2013-04-26 09:05:00,
2013-04-26 04:06:00,41.7,32.3,30.29,SE,135,7.1,8.2,69,0.00,,,0.00,VWS V14.01,2013-04-26 09:06:00,
2013-04-26 04:07:00,41.7,32.3,30.29,SE,135,7.1,7.1,69,0.00,,,0.00,VWS V14.01,2013-04-26 09:07:00,
2013-04-26 04:08:00,41.7,32.3,30.29,SSE,158,8.2,8.2,69,0.00,,,0.00,VWS V14.01,2013-04-26 09:08:00,
2013-04-26 04:09:00,41.7,31.9,30.29,SSE,158,8.2,8.2,68,0.00,,,0.00,VWS V14.01,2013-04-26 09:09:00,
2013-04-26 04:10:00,41.7,31.9,30.29,SSE,158,8.2,8.2,68,0.00,,,0.00,VWS V14.01,2013-04-26 09:10:00,
2013-04-26 04:11:00,41.9,32.1,30.29,SE,135,5.3,8.2,68,0.00,,,0.00,VWS V14.01,2013-04-26 09:11:00,
2013-04-26 04:12:00,41.9,32.1,30.29,SE,135,5.3,5.3,68,0.00,,,0.00,VWS V14.01,2013-04-26 09:12:00,
2013-04-26 04:13:00,42.0,32.6,30.29,SSE,158,6.7,6.7,69,0.00,,,0.00,VWS V14.01,2013-04-26 09:13:00,
2013-04-26 04:14:00,42.0,32.6,30.29,SSE,158,6.7,6.7,69,0.00,,,0.00,VWS V14.01,2013-04-26 09:14:00,
2013-04-26 04:15:00,42.4,32.6,30.29,SSE,158,7.8,7.8,68,0.00,,,0.00,VWS V14.01,2013-04-26 09:15:00,
2013-04-26 04:16:00,42.4,32.6,30.29,SSE,158,7.8,7.8,68,0.00,,,0.00,VWS V14.01,2013-04-26 09:16:00,
2013-04-26 04:17:00,42.4,32.6,30.29,SE,135,6.4,7.8,68,0.00,,,0.00,VWS V14.01,2013-04-26 09:17:00,
2013-04-26 04:18:00,42.4,32.6,30.29,SE,135,6.4,6.4,68,0.00,,,0.00,VWS V14.01,2013-04-26 09:18:00,
2013-04-26 04:19:00,42.6,32.8,30.29,SE,135,10.5,10.5,68,0.00,,,0.00,VWS V14.01,2013-04-26 09:19:00,
2013-04-26 04:20:00,42.6,32.8,30.29,SE,135,10.5,10.5,68,0.00,,,0.00,VWS V14.01,2013-04-26 09:20:00,
2013-04-26 04:21:00,42.6,32.8,30.29,SE,135,2.2,10.5,68,0.00,,,0.00,VWS V14.01,2013-04-26 09:21:00,
2013-04-26 04:22:00,42.6,32.8,30.29,SE,135,2.2,2.2,68,0.00,,,0.00,VWS V14.01,2013-04-26 09:22:00,
2013-04-26 04:23:00,42.6,32.8,30.30,ENE,68,1.1,2.2,68,0.00,,,0.00,VWS V14.01,2013-04-26 09:23:00,
2013-04-26 04:24:00,42.6,32.8,30.30,ENE,68,1.1,1.1,68,0.00,,,0.00,VWS V14.01,2013-04-26 09:24:00,
2013-04-26 04:25:00,42.6,32.8,30.30,ENE,68,1.1,1.1,68,0.00,,,0.00,VWS V14.01,2013-04-26 09:25:00,
2013-04-26 04:26:00,42.9,32.7,30.29,SE,135,11.4,11.4,67,0.00,,,0.00,VWS V14.01,2013-04-26 09:26:00,
2013-04-26 04:27:00,42.9,32.7,30.29,SE,135,11.4,11.4,67,0.00,,,0.00,VWS V14.01,2013-04-26 09:27:00,
2013-04-26 04:28:00,42.9,32.7,30.29,SE,135,2.2,11.4,67,0.00,,,0.00,VWS V14.01,2013-04-26 09:28:00,
2013-04-26 04:29:00,42.9,32.7,30.30,SE,135,2.2,2.2,67,0.00,,,0.00,VWS V14.01,2013-04-26 09:29:00,
2013-04-26 04:30:00,42.9,32.7,30.30,SE,135,6.7,6.7,67,0.00,,,0.00,VWS V14.01,2013-04-26 09:30:00,
2013-04-26 04:31:00,42.9,32.7,30.29,SE,135,6.7,6.7,67,0.00,,,0.00,VWS V14.01,2013-04-26 09:31:00,
2013-04-26 04:32:00,42.9,32.7,30.30,SSE,158,0.8,6.7,67,0.00,,,0.00,VWS V14.01,2013-04-26 09:32:00,
2013-04-26 04:33:00,42.9,32.7,30.30,SSE,158,0.8,0.8,67,0.00,,,0.00,VWS V14.01,2013-04-26 09:33:00,
2013-04-26 04:34:00,42.9,32.7,30.30,SSE,158,4.4,4.4,67,0.00,,,0.00,VWS V14.01,2013-04-26 09:34:00,
2013-04-26 04:35:00,42.9,32.7,30.30,SSE,158,4.4,4.4,67,0.00,,,0.00,VWS V14.01,2013-04-26 09:35:00,
2013-04-26 04:36:00,43.1,32.9,30.30,SE,135,6.7,6.7,67,0.00,,,0.00,VWS V14.01,2013-04-26 09:36:00,
2013-04-26 04:37:00,43.1,32.9,30.30,SE,135,6.7,6.7,67,0.00,,,0.00,VWS V14.01,2013-04-26 09:37:00,
2013-04-26 04:38:00,43.1,32.9,30.30,SE,135,6.7,6.7,67,0.00,,,0.00,VWS V14.01,2013-04-26 09:38:00,
2013-04-26 04:39:00,42.9,32.7,30.30,SE,135,5.8,6.7,67,0.00,,,0.00,VWS V14.01,2013-04-26 09:39:00,
2013-04-26 04:40:00,42.9,32.7,30.30,SE,135,5.8,5.8,67,0.00,,,0.00,VWS V14.01,2013-04-26 09:40:00,
2013-04-26 04:41:00,42.9,32.7,30.30,North,0,0.0,5.8,67,0.00,,,0.00,VWS V14.01,2013-04-26 09:41:00,
2013-04-26 04:42:00,42.9,32.7,30.31,North,0,0.0,0.0,67,0.00,,,0.00,VWS V14.01,2013-04-26 09:42:00,
2013-04-26 04:43:00,42.9,33.1,30.31,ESE,112,3.3,3.3,68,0.00,,,0.00,VWS V14.01,2013-04-26 09:43:00,
2013-04-26 04:44:00,42.9,33.1,30.31,ESE,112,3.3,3.3,68,0.00,,,0.00,VWS V14.01,2013-04-26 09:44:00,
2013-04-26 04:45:00,42.8,33.0,30.31,NE,45,0.0,3.3,68,0.00,,,0.00,VWS V14.01,2013-04-26 09:45:00,
2013-04-26 04:46:00,42.8,33.0,30.31,NE,45,0.0,0.0,68,0.00,,,0.00,VWS V14.01,2013-04-26 09:46:00,
2013-04-26 04:47:00,42.6,32.8,30.31,SE,135,2.0,2.0,68,0.00,,,0.00,VWS V14.01,2013-04-26 09:47:00,
2013-04-26 04:48:00,42.6,32.8,30.31,SE,135,2.0,2.0,68,0.00,,,0.00,VWS V14.01,2013-04-26 09:48:00,
2013-04-26 04:49:00,42.6,32.8,30.31,East,90,0.0,2.0,68,0.00,,,0.00,VWS V14.01,2013-04-26 09:49:00,
2013-04-26 04:50:00,42.6,32.8,30.31,East,90,0.0,0.0,68,0.00,,,0.00,VWS V14.01,2013-04-26 09:50:00,
2013-04-26 04:51:00,42.4,32.6,30.31,SE,135,2.6,2.6,68,0.00,,,0.00,VWS V14.01,2013-04-26 09:51:00,
2013-04-26 04:52:00,42.4,32.6,30.31,SE,135,2.6,2.6,68,0.00,,,0.00,VWS V14.01,2013-04-26 09:52:00,
2013-04-26 04:53:00,42.4,32.6,30.31,SSE,158,2.9,2.9,68,0.00,,,0.00,VWS V14.01,2013-04-26 09:53:00,
2013-04-26 04:54:00,42.4,33.0,30.31,SSE,158,2.9,2.9,69,0.00,,,0.00,VWS V14.01,2013-04-26 09:54:00,
2013-04-26 04:55:00,42.4,33.0,30.31,SSE,158,2.9,2.9,69,0.00,,,0.00,VWS V14.01,2013-04-26 09:55:00,
2013-04-26 04:56:00,42.4,33.0,30.31,ESE,112,0.8,2.9,69,0.00,,,0.00,VWS V14.01,2013-04-26 09:56:00,
2013-04-26 04:57:00,42.4,33.0,30.31,ESE,112,0.8,0.8,69,0.00,,,0.00,VWS V14.01,2013-04-26 09:57:00,
2013-04-26 04:58:00,42.4,33.0,30.31,SE,135,3.3,3.3,69,0.00,,,0.00,VWS V14.01,2013-04-26 09:58:00,
2013-04-26 04:59:00,42.4,33.0,30.31,SE,135,3.3,3.3,69,0.00,,,0.00,VWS V14.01,2013-04-26 09:59:00,
2013-04-26 05:00:00,42.4,33.0,30.31,SE,135,3.3,3.3,69,0.00,,,0.00,VWS V14.01,2013-04-26 10:00:00,
2013-04-26 05:01:00,42.4,33.0,30.31,SE,135,3.3,3.3,69,0.00,,,0.00,VWS V14.01,2013-04-26 10:01:00,
2013-04-26 05:02:00,42.4,33.0,30.31,SE,135,7.3,7.3,69,0.00,,,0.00,VWS V14.01,2013-04-26 10:02:00,
2013-04-26 05:03:00,42.4,33.0,30.31,SE,135,7.3,7.3,69,0.00,,,0.00,VWS V14.01,2013-04-26 10:03:00,
2013-04-26 05:04:00,42.4,33.0,30.31,SE,135,7.3,7.3,69,0.00,,,0.00,VWS V14.01,2013-04-26 10:04:00,
2013-04-26 05:05:00,42.6,33.2,30.30,SE,135,6.7,7.3,69,0.00,,,0.00,VWS V14.01,2013-04-26 10:05:00,
2013-04-26 05:06:00,42.6,33.2,30.30,SE,135,6.7,6.7,69,0.00,,,0.00,VWS V14.01,2013-04-26 10:06:00,
2013-04-26 05:07:00,42.6,33.2,30.31,SE,135,6.2,6.7,69,0.00,,,0.00,VWS V14.01,2013-04-26 10:07:00,
2013-04-26 05:08:00,42.6,33.2,30.31,SE,135,5.8,6.2,69,0.00,,,0.00,VWS V14.01,2013-04-26 10:08:00,
2013-04-26 05:09:00,42.6,33.2,30.31,SE,135,5.8,5.8,69,0.00,,,0.00,VWS V14.01,2013-04-26 10:09:00,
2013-04-26 05:10:00,42.6,33.2,30.31,SE,135,5.8,5.8,69,0.00,,,0.00,VWS V14.01,2013-04-26 10:10:00,
2013-04-26 05:11:00,42.4,33.0,30.31,SSE,158,6.9,6.9,69,0.00,,,0.00,VWS V14.01,2013-04-26 10:11:00,
2013-04-26 05:12:00,42.4,33.0,30.30,SSE,158,6.9,6.9,69,0.00,,,0.00,VWS V14.01,2013-04-26 10:12:00,
2013-04-26 05:13:00,42.4,33.0,30.31,SE,135,6.0,6.9,69,0.00,,,0.00,VWS V14.01,2013-04-26 10:13:00,
2013-04-26 05:14:00,42.4,33.0,30.31,SE,135,6.0,6.0,69,0.00,,,0.00,VWS V14.01,2013-04-26 10:14:00,
2013-04-26 05:15:00,42.6,33.2,30.30,SE,135,2.4,6.0,69,0.00,,,0.00,VWS V14.01,2013-04-26 10:15:00,
2013-04-26 05:16:00,42.6,33.2,30.31,SE,135,2.4,2.4,69,0.00,,,0.00,VWS V14.01,2013-04-26 10:16:00,
2013-04-26 05:17:00,42.6,33.2,30.31,SE,135,6.9,6.9,69,0.00,,,0.00,VWS V14.01,2013-04-26 10:17:00,
2013-04-26 05:18:00,42.6,33.2,30.30,SE,135,6.9,6.9,69,0.00,,,0.00,VWS V14.01,2013-04-26 10:18:00,
2013-04-26 05:19:00,42.2,32.8,30.30,SE,135,2.9,6.9,69,0.00,,,0.00,VWS V14.01,2013-04-26 10:19:00,
2013-04-26 05:20:00,42.2,32.8,30.30,SE,135,2.9,2.9,69,0.00,,,0.00,VWS V14.01,2013-04-26 10:20:00,
2013-04-26 05:21:00,41.9,32.8,30.30,SE,135,5.1,5.1,70,0.00,,,0.00,VWS V14.01,2013-04-26 10:21:00,
2013-04-26 05:22:00,41.9,32.8,30.30,SE,135,5.1,5.1,70,0.00,,,0.00,VWS V14.01,2013-04-26 10:22:00,
2013-04-26 05:23:00,41.7,33.0,30.30,SE,135,3.1,5.1,71,0.00,,,0.00,VWS V14.01,2013-04-26 10:23:00,
2013-04-26 05:24:00,41.7,33.0,30.30,SE,135,3.1,3.1,71,0.00,,,0.00,VWS V14.01,2013-04-26 10:24:00,
2013-04-26 05:25:00,41.7,33.0,30.30,SE,135,3.1,3.1,71,0.00,,,0.00,VWS V14.01,2013-04-26 10:25:00,
2013-04-26 05:26:00,41.5,32.8,30.30,SE,135,5.1,5.1,71,0.00,,,0.00,VWS V14.01,2013-04-26 10:26:00,
2013-04-26 05:27:00,41.5,32.8,30.30,SE,135,5.1,5.1,71,0.00,,,0.00,VWS V14.01,2013-04-26 10:27:00,
2013-04-26 05:28:00,41.5,32.8,30.31,SE,135,6.4,6.4,71,0.00,,,0.00,VWS V14.01,2013-04-26 10:28:00,
2013-04-26 05:29:00,41.5,32.8,30.30,SE,135,6.4,6.4,71,0.00,,,0.00,VWS V14.01,2013-04-26 10:29:00,
2013-04-26 05:30:00,41.7,33.0,30.30,SSE,158,5.8,6.4,71,0.00,,,0.00,VWS V14.01,2013-04-26 10:30:00,
2013-04-26 05:31:00,41.7,33.0,30.30,SSE,158,5.8,5.8,71,0.00,,,0.00,VWS V14.01,2013-04-26 10:31:00,
2013-04-26 05:32:00,41.7,33.0,30.30,SE,135,3.1,5.8,71,0.00,,,0.00,VWS V14.01,2013-04-26 10:32:00,
2013-04-26 05:33:00,41.7,33.0,30.31,SE,135,3.1,3.1,71,0.00,,,0.00,VWS V14.01,2013-04-26 10:33:00,
2013-04-26 05:34:00,41.9,33.2,30.31,SE,135,7.1,7.1,71,0.00,,,0.00,VWS V14.01,2013-04-26 10:34:00,
2013-04-26 05:35:00,41.9,33.2,30.31,SE,135,7.1,7.1,71,0.00,,,0.00,VWS V14.01,2013-04-26 10:35:00,
2013-04-26 05:36:00,42.4,33.3,30.31,SE,135,4.9,7.1,70,0.00,,,0.00,VWS V14.01,2013-04-26 10:36:00,
2013-04-26 05:37:00,42.4,33.3,30.30,SE,135,4.9,4.9,70,0.00,,,0.00,VWS V14.01,2013-04-26 10:37:00,
2013-04-26 05:38:00,42.6,33.5,30.30,SE,135,6.9,6.9,70,0.00,,,0.00,VWS V14.01,2013-04-26 10:38:00,
2013-04-26 05:39:00,42.6,33.5,30.31,SE,135,6.9,6.9,70,0.00,,,0.00,VWS V14.01,2013-04-26 10:39:00,
2013-04-26 05:40:00,42.6,33.5,30.30,SE,135,7.6,7.6,70,0.00,,,0.00,VWS V14.01,2013-04-26 10:40:00,
2013-04-26 05:41:00,42.6,33.5,30.30,SE,135,7.6,7.6,70,0.00,,,0.00,VWS V14.01,2013-04-26 10:41:00,
2013-04-26 05:42:00,42.6,33.5,30.31,SE,135,7.6,7.6,70,0.00,,,0.00,VWS V14.01,2013-04-26 10:42:00,
2013-04-26 05:43:00,42.8,33.3,30.30,SE,135,7.6,7.6,69,0.00,,,0.00,VWS V14.01,2013-04-26 10:43:00,
2013-04-26 05:44:00,42.8,33.3,30.30,SE,135,7.6,7.6,69,0.00,,,0.00,VWS V14.01,2013-04-26 10:44:00,
2013-04-26 05:45:00,42.9,33.4,30.30,SE,135,6.2,7.6,69,0.00,,,0.00,VWS V14.01,2013-04-26 10:45:00,
2013-04-26 05:46:00,42.9,33.4,30.30,SE,135,6.2,6.2,69,0.00,,,0.00,VWS V14.01,2013-04-26 10:46:00,
2013-04-26 05:47:00,42.9,33.4,30.30,SE,135,5.3,6.2,69,0.00,,,0.00,VWS V14.01,2013-04-26 10:47:00,
2013-04-26 05:48:00,42.9,33.4,30.30,SE,135,5.3,5.3,69,0.00,,,0.00,VWS V14.01,2013-04-26 10:48:00,
2013-04-26 05:49:00,42.9,33.4,30.30,SSE,158,4.9,5.3,69,0.00,,,0.00,VWS V14.01,2013-04-26 10:49:00,
2013-04-26 05:50:00,42.9,33.4,30.30,SSE,158,4.9,4.9,69,0.00,,,0.00,VWS V14.01,2013-04-26 10:50:00,
2013-04-26 05:51:00,42.6,33.2,30.30,SE,135,7.8,7.8,69,0.00,,,0.00,VWS V14.01,2013-04-26 10:51:00,
2013-04-26 05:52:00,42.6,33.2,30.30,SE,135,7.8,7.8,69,0.00,,,0.00,VWS V14.01,2013-04-26 10:52:00,
2013-04-26 05:53:00,42.6,33.2,30.30,ESE,112,6.7,7.8,69,0.00,,,0.00,VWS V14.01,2013-04-26 10:53:00,
2013-04-26 05:54:00,42.6,33.5,30.30,ESE,112,6.7,6.7,70,0.00,,,0.00,VWS V14.01,2013-04-26 10:54:00,
2013-04-26 05:55:00,42.6,33.5,30.30,SE,135,6.4,6.7,70,0.00,,,0.00,VWS V14.01,2013-04-26 10:55:00,
2013-04-26 05:56:00,42.6,33.5,30.30,SE,135,6.4,6.4,70,0.00,,,0.00,VWS V14.01,2013-04-26 10:56:00,
2013-04-26 05:57:00,42.6,33.5,30.29,SE,135,6.4,6.4,70,0.00,,,0.00,VWS V14.01,2013-04-26 10:57:00,
2013-04-26 05:58:00,42.6,33.5,30.30,SE,135,7.3,7.3,70,0.00,,,0.00,VWS V14.01,2013-04-26 10:58:00,
2013-04-26 05:59:00,42.6,33.5,30.30,SE,135,7.3,7.3,70,0.00,,,0.00,VWS V14.01,2013-04-26 10:59:00,
2013-04-26 06:00:00,42.6,33.5,30.30,SE,135,7.3,7.3,70,0.00,,,0.00,VWS V14.01,2013-04-26 11:00:00,
2013-04-26 06:01:00,42.6,33.5,30.30,SE,135,7.3,7.3,70,0.00,,,0.00,VWS V14.01,2013-04-26 11:01:00,
2013-04-26 06:02:00,42.6,33.5,30.30,SE,135,7.3,7.3,70,0.00,,,0.00,VWS V14.01,2013-04-26 11:02:00,
2013-04-26 06:03:00,42.6,33.5,30.30,SE,135,7.3,7.3,70,0.00,,,0.00,VWS V14.01,2013-04-26 11:03:00,
2013-04-26 06:04:00,42.6,33.5,30.30,SE,135,6.7,7.3,70,0.00,,,0.00,VWS V14.01,2013-04-26 11:04:00,
2013-04-26 06:05:00,42.6,33.5,30.30,SE,135,6.7,6.7,70,0.00,,,0.00,VWS V14.01,2013-04-26 11:05:00,
2013-04-26 06:06:00,42.6,33.5,30.30,SE,135,7.3,7.3,70,0.00,,,0.00,VWS V14.01,2013-04-26 11:06:00,
2013-04-26 06:07:00,42.6,33.5,30.30,SE,135,7.3,7.3,70,0.00,,,0.00,VWS V14.01,2013-04-26 11:07:00,
2013-04-26 06:08:00,42.6,33.5,30.30,SE,135,7.3,7.3,70,0.00,,,0.00,VWS V14.01,2013-04-26 11:08:00,
2013-04-26 06:09:00,42.4,33.3,30.30,SE,135,5.8,7.3,70,0.00,,,0.00,VWS V14.01,2013-04-26 11:09:00,
2013-04-26 06:10:00,42.4,33.3,30.30,SE,135,5.8,5.8,70,0.00,,,0.00,VWS V14.01,2013-04-26 11:10:00,
2013-04-26 06:11:00,42.4,33.7,30.30,SE,135,6.9,6.9,71,0.00,,,0.00,VWS V14.01,2013-04-26 11:11:00,
2013-04-26 06:12:00,42.4,33.7,30.30,SE,135,6.9,6.9,71,0.00,,,0.00,VWS V14.01,2013-04-26 11:12:00,
2013-04-26 06:13:00,42.2,33.5,30.30,SE,135,7.6,7.6,71,0.00,,,0.00,VWS V14.01,2013-04-26 11:13:00,
2013-04-26 06:14:00,42.2,33.5,30.30,SE,135,7.6,7.6,71,0.00,,,0.00,VWS V14.01,2013-04-26 11:14:00,
2013-04-26 06:15:00,42.0,33.3,30.30,SE,135,4.4,7.6,71,0.00,,,0.00,VWS V14.01,2013-04-26 11:15:00,
2013-04-26 06:16:00,42.0,33.3,30.30,SE,135,4.4,4.4,71,0.00,,,0.00,VWS V14.01,2013-04-26 11:16:00,
2013-04-26 06:17:00,42.0,33.3,30.30,SSE,158,8.0,8.0,71,0.00,,,0.00,VWS V14.01,2013-04-26 11:17:00,
2013-04-26 06:18:00,42.0,33.3,30.30,SSE,158,8.0,8.0,71,0.00,,,0.00,VWS V14.01,2013-04-26 11:18:00,
2013-04-26 06:19:00,42.0,33.3,30.30,SE,135,4.9,8.0,71,0.00,,,0.00,VWS V14.01,2013-04-26 11:19:00,
2013-04-26 06:20:00,42.0,33.3,30.30,SE,135,4.9,4.9,71,0.00,,,0.00,VWS V14.01,2013-04-26 11:20:00,
2013-04-26 06:21:00,42.0,33.3,30.30,SE,135,4.4,4.9,71,0.00,,,0.00,VWS V14.01,2013-04-26 11:21:00,
2013-04-26 06:22:00,42.0,33.3,30.30,SE,135,4.4,4.4,71,0.00,,,0.00,VWS V14.01,2013-04-26 11:22:00,
2013-04-26 06:23:00,42.0,33.3,30.30,SE,135,4.0,4.4,71,0.00,,,0.00,VWS V14.01,2013-04-26 11:23:00,
2013-04-26 06:24:00,42.0,33.3,30.30,SE,135,4.0,4.0,71,0.00,,,0.00,VWS V14.01,2013-04-26 11:24:00,
2013-04-26 06:25:00,42.0,33.3,30.30,SE,135,4.0,4.0,71,0.00,,,0.00,VWS V14.01,2013-04-26 11:25:00,
2013-04-26 06:26:00,41.9,33.5,30.30,SE,135,3.3,4.0,72,0.00,,,0.00,VWS V14.01,2013-04-26 11:26:00,
2013-04-26 06:27:00,41.9,33.5,30.30,SE,135,3.3,3.3,72,0.00,,,0.00,VWS V14.01,2013-04-26 11:27:00,
2013-04-26 06:28:00,42.0,33.6,30.30,SE,135,6.2,6.2,72,0.00,,,0.00,VWS V14.01,2013-04-26 11:28:00,
2013-04-26 06:29:00,42.0,33.6,30.30,SE,135,6.2,6.2,72,0.00,,,0.00,VWS V14.01,2013-04-26 11:29:00,
2013-04-26 06:30:00,42.4,34.4,30.30,ESE,112,6.7,6.7,73,0.00,,,0.00,VWS V14.01,2013-04-26 11:30:00,
2013-04-26 06:31:00,42.4,34.4,30.30,ESE,112,6.7,6.7,73,0.00,,,0.00,VWS V14.01,2013-04-26 11:31:00,
2013-04-26 06:32:00,42.4,34.4,30.30,ESE,112,6.7,6.7,73,0.00,,,0.00,VWS V14.01,2013-04-26 11:32:00,
2013-04-26 06:33:00,42.4,34.4,30.30,ESE,112,6.7,6.7,73,0.00,,,0.00,VWS V14.01,2013-04-26 11:33:00,
2013-04-26 06:34:00,42.6,34.2,30.30,ESE,112,6.9,6.9,72,0.00,,,0.00,VWS V14.01,2013-04-26 11:34:00,
2013-04-26 06:35:00,42.6,34.2,30.30,ESE,112,6.9,6.9,72,0.00,,,0.00,VWS V14.01,2013-04-26 11:35:00,
2013-04-26 06:36:00,42.9,34.5,30.30,ESE,112,8.5,8.5,72,0.00,,,0.00,VWS V14.01,2013-04-26 11:36:00,
2013-04-26 06:37:00,42.9,34.5,30.30,ESE,112,8.5,8.5,72,0.00,,,0.00,VWS V14.01,2013-04-26 11:37:00,
2013-04-26 06:38:00,42.9,34.5,30.30,SE,135,6.9,8.5,72,0.00,,,0.00,VWS V14.01,2013-04-26 11:38:00,
2013-04-26 06:39:00,42.9,34.5,30.30,SE,135,6.9,6.9,72,0.00,,,0.00,VWS V14.01,2013-04-26 11:39:00,
2013-04-26 06:40:00,42.9,34.5,30.30,ESE,112,6.9,6.9,72,0.00,,,0.00,VWS V14.01,2013-04-26 11:40:00,
2013-04-26 06:41:00,42.9,34.5,30.30,ESE,112,6.9,6.9,72,0.00,,,0.00,VWS V14.01,2013-04-26 11:41:00,
2013-04-26 06:42:00,42.9,34.5,30.30,ESE,112,6.9,6.9,72,0.00,,,0.00,VWS V14.01,2013-04-26 11:42:00,
2013-04-26 06:43:00,42.9,34.5,30.29,SE,135,8.2,8.2,72,0.00,,,0.00,VWS V14.01,2013-04-26 11:43:00,
2013-04-26 06:44:00,42.9,34.5,30.30,SE,135,8.2,8.2,72,0.00,,,0.00,VWS V14.01,2013-04-26 11:44:00,
2013-04-26 06:45:00,42.6,34.2,30.29,SE,135,5.1,8.2,72,0.00,,,0.00,VWS V14.01,2013-04-26 11:45:00,
2013-04-26 06:46:00,42.6,34.2,30.29,SE,135,5.1,5.1,72,0.00,,,0.00,VWS V14.01,2013-04-26 11:46:00,
2013-04-26 06:47:00,42.6,34.2,30.29,SE,135,5.8,5.8,72,0.00,,,0.00,VWS V14.01,2013-04-26 11:47:00,
2013-04-26 06:48:00,42.6,34.2,30.29,SE,135,5.8,5.8,72,0.00,,,0.00,VWS V14.01,2013-04-26 11:48:00,
2013-04-26 06:49:00,42.6,34.2,30.30,SE,135,6.2,6.2,72,0.00,,,0.00,VWS V14.01,2013-04-26 11:49:00,
2013-04-26 06:50:00,42.6,34.2,30.30,SE,135,6.2,6.2,72,0.00,,,0.00,VWS V14.01,2013-04-26 11:50:00,
2013-04-26 06:51:00,42.8,34.8,30.30,SSE,158,3.1,6.2,73,0.00,,,0.00,VWS V14.01,2013-04-26 11:51:00,
2013-04-26 06:52:00,42.8,34.8,30.29,SSE,158,3.1,3.1,73,0.00,,,0.00,VWS V14.01,2013-04-26 11:52:00,
2013-04-26 06:53:00,42.8,34.8,30.29,SE,135,7.1,7.1,73,0.00,,,0.00,VWS V14.01,2013-04-26 11:53:00,
2013-04-26 06:54:00,42.9,34.5,30.29,SE,135,7.1,7.1,72,0.00,,,0.00,VWS V14.01,2013-04-26 11:54:00,
2013-04-26 06:55:00,42.9,34.5,30.29,SE,135,7.1,7.1,72,0.00,,,0.00,VWS V14.01,2013-04-26 11:55:00,
2013-04-26 06:56:00,42.9,34.8,30.29,SE,135,5.3,7.1,73,0.00,,,0.00,VWS V14.01,2013-04-26 11:56:00,
2013-04-26 06:57:00,42.9,34.8,30.29,SE,135,5.3,5.3,73,0.00,,,0.00,VWS V14.01,2013-04-26 11:57:00,
2013-04-26 06:58:00,42.9,34.8,30.29,SE,135,5.3,5.3,73,0.00,,,0.00,VWS V14.01,2013-04-26 11:58:00,
2013-04-26 06:59:00,42.9,34.8,30.29,SE,135,5.3,5.3,73,0.00,,,0.00,VWS V14.01,2013-04-26 11:59:00,
2013-04-26 07:00:00,42.9,34.8,30.29,SE,135,5.3,5.3,73,0.00,,,0.00,VWS V14.01,2013-04-26 12:00:00,
2013-04-26 07:01:00,42.9,34.8,30.29,SE,135,5.3,5.3,73,0.00,,,0.00,VWS V14.01,2013-04-26 12:01:00,
2013-04-26 07:02:00,43.3,35.2,30.29,SE,135,7.3,7.3,73,0.00,,,0.00,VWS V14.01,2013-04-26 12:02:00,
2013-04-26 07:03:00,43.3,35.2,30.29,SE,135,7.3,7.3,73,0.00,,,0.00,VWS V14.01,2013-04-26 12:03:00,
2013-04-26 07:04:00,43.5,35.4,30.29,SE,135,6.4,7.3,73,0.00,,,0.00,VWS V14.01,2013-04-26 12:04:00,
2013-04-26 07:05:00,43.5,35.4,30.29,SE,135,6.4,6.4,73,0.00,,,0.00,VWS V14.01,2013-04-26 12:05:00,
2013-04-26 07:06:00,43.5,35.1,30.29,SE,135,6.2,6.4,72,0.00,,,0.00,VWS V14.01,2013-04-26 12:06:00,
2013-04-26 07:07:00,43.5,35.1,30.29,SE,135,6.2,6.2,72,0.00,,,0.00,VWS V14.01,2013-04-26 12:07:00,
2013-04-26 07:08:00,43.7,35.3,30.29,SE,135,8.0,8.0,72,0.00,,,0.00,VWS V14.01,2013-04-26 12:08:00,
2013-04-26 07:09:00,43.7,35.3,30.30,SE,135,8.0,8.0,72,0.00,,,0.00,VWS V14.01,2013-04-26 12:09:00,
2013-04-26 07:10:00,43.8,35.4,30.30,SE,135,5.8,8.0,72,0.00,,,0.00,VWS V14.01,2013-04-26 12:10:00,
2013-04-26 07:11:00,43.8,35.4,30.29,SE,135,5.8,5.8,72,0.00,,,0.00,VWS V14.01,2013-04-26 12:11:00,
2013-04-26 07:12:00,43.8,35.4,30.29,SE,135,5.8,5.8,72,0.00,,,0.00,VWS V14.01,2013-04-26 12:12:00,
2013-04-26 07:13:00,44.0,35.6,30.30,SE,135,6.2,6.2,72,0.00,,,0.00,VWS V14.01,2013-04-26 12:13:00,
2013-04-26 07:14:00,44.0,35.6,30.30,SE,135,6.2,6.2,72,0.00,,,0.00,VWS V14.01,2013-04-26 12:14:00,
2013-04-26 07:15:00,44.2,35.8,30.30,SE,135,8.7,8.7,72,0.00,,,0.00,VWS V14.01,2013-04-26 12:15:00,
2013-04-26 07:16:00,44.2,35.8,30.29,SE,135,8.7,8.7,72,0.00,,,0.00,VWS V14.01,2013-04-26 12:16:00,
2013-04-26 07:17:00,44.4,35.6,30.29,SE,135,9.3,9.3,71,0.00,,,0.00,VWS V14.01,2013-04-26 12:17:00,
2013-04-26 07:18:00,44.4,35.6,30.29,SE,135,9.3,9.3,71,0.00,,,0.00,VWS V14.01,2013-04-26 12:18:00,
2013-04-26 07:19:00,44.7,35.9,30.30,ESE,112,7.3,9.3,71,0.00,,,0.00,VWS V14.01,2013-04-26 12:19:00,
2013-04-26 07:20:00,44.7,35.9,30.30,ESE,112,7.3,7.3,71,0.00,,,0.00,VWS V14.01,2013-04-26 12:20:00,
2013-04-26 07:21:00,45.1,36.3,30.29,SE,135,7.6,7.6,71,0.00,,,0.00,VWS V14.01,2013-04-26 12:21:00,
2013-04-26 07:22:00,45.1,36.3,30.30,SE,135,7.6,7.6,71,0.00,,,0.00,VWS V14.01,2013-04-26 12:22:00,
2013-04-26 07:23:00,45.3,36.1,30.30,SE,135,5.8,7.6,70,0.00,,,0.00,VWS V14.01,2013-04-26 12:23:00,
2013-04-26 07:24:00,45.3,36.1,30.30,SE,135,5.8,5.8,70,0.00,,,0.00,VWS V14.01,2013-04-26 12:24:00,
2013-04-26 07:25:00,45.5,36.3,30.30,SE,135,7.6,7.6,70,0.00,,,0.00,VWS V14.01,2013-04-26 12:25:00,
2013-04-26 07:26:00,45.5,36.3,30.30,SE,135,7.6,7.6,70,0.00,,,0.00,VWS V14.01,2013-04-26 12:26:00,
2013-04-26 07:27:00,45.5,36.3,30.30,SE,135,7.6,7.6,70,0.00,,,0.00,VWS V14.01,2013-04-26 12:27:00,
2013-04-26 07:28:00,45.5,36.3,30.30,SE,135,7.6,7.6,70,0.00,,,0.00,VWS V14.01,2013-04-26 12:28:00,
2013-04-26 07:29:00,45.6,36.4,30.30,SSE,158,10.7,10.7,70,0.00,,,0.00,VWS V14.01,2013-04-26 12:29:00,
2013-04-26 07:30:00,45.5,36.3,30.30,SE,135,11.8,11.8,70,0.00,,,0.00,VWS V14.01,2013-04-26 12:30:00,
2013-04-26 07:31:00,45.5,36.3,30.30,SE,135,11.8,11.8,70,0.00,,,0.00,VWS V14.01,2013-04-26 12:31:00,
2013-04-26 07:32:00,45.6,36.4,30.30,SE,135,8.7,11.8,70,0.00,,,0.00,VWS V14.01,2013-04-26 12:32:00,
2013-04-26 07:33:00,45.6,36.4,30.30,SE,135,8.7,8.7,70,0.00,,,0.00,VWS V14.01,2013-04-26 12:33:00,
2013-04-26 07:34:00,45.6,36.4,30.30,SSE,158,12.7,12.7,70,0.00,,,0.00,VWS V14.01,2013-04-26 12:34:00,
2013-04-26 07:35:00,45.6,36.4,30.30,SSE,158,12.7,12.7,70,0.00,,,0.00,VWS V14.01,2013-04-26 12:35:00,
2013-04-26 07:36:00,45.6,36.4,30.30,SSE,158,8.0,12.7,70,0.00,,,0.00,VWS V14.01,2013-04-26 12:36:00,
2013-04-26 07:37:00,45.6,36.4,30.30,SSE,158,8.0,8.0,70,0.00,,,0.00,VWS V14.01,2013-04-26 12:37:00,
2013-04-26 07:38:00,45.6,36.4,30.30,SSE,158,8.0,8.0,70,0.00,,,0.00,VWS V14.01,2013-04-26 12:38:00,
2013-04-26 07:39:00,45.6,36.4,30.30,SSE,158,6.9,6.9,70,0.00,,,0.00,VWS V14.01,2013-04-26 12:39:00,
2013-04-26 07:40:00,45.6,36.0,30.30,SE,135,7.8,7.8,69,0.00,,,0.00,VWS V14.01,2013-04-26 12:40:00,
2013-04-26 07:41:00,45.6,36.0,30.30,SE,135,7.8,7.8,69,0.00,,,0.00,VWS V14.01,2013-04-26 12:41:00,
2013-04-26 07:42:00,45.6,36.0,30.30,SE,135,7.8,7.8,69,0.00,,,0.00,VWS V14.01,2013-04-26 12:42:00,
2013-04-26 07:43:00,45.6,36.0,30.30,SE,135,7.8,7.8,69,0.00,,,0.00,VWS V14.01,2013-04-26 12:43:00,
2013-04-26 07:44:00,46.0,36.8,30.30,SSE,158,8.5,8.5,70,0.00,,,0.00,VWS V14.01,2013-04-26 12:44:00,
2013-04-26 07:45:00,46.0,36.4,30.30,SE,135,12.5,12.5,69,0.00,,,0.00,VWS V14.01,2013-04-26 12:45:00,
2013-04-26 07:46:00,46.0,36.4,30.30,SE,135,12.5,12.5,69,0.00,,,0.00,VWS V14.01,2013-04-26 12:46:00,
2013-04-26 07:47:00,46.2,36.6,30.30,SE,135,6.2,12.5,69,0.00,,,0.00,VWS V14.01,2013-04-26 12:47:00,
2013-04-26 07:48:00,46.2,36.6,30.30,SE,135,6.2,6.2,69,0.00,,,0.00,VWS V14.01,2013-04-26 12:48:00,
2013-04-26 07:49:00,46.7,37.1,30.30,SE,135,10.7,10.7,69,0.00,,,0.00,VWS V14.01,2013-04-26 12:49:00,
2013-04-26 07:50:00,46.7,37.1,30.30,SE,135,10.7,10.7,69,0.00,,,0.00,VWS V14.01,2013-04-26 12:50:00,
2013-04-26 07:51:00,46.9,36.9,30.30,SSE,158,7.8,10.7,68,0.00,,,0.00,VWS V14.01,2013-04-26 12:51:00,
2013-04-26 07:52:00,46.9,36.9,30.30,SSE,158,7.8,7.8,68,0.00,,,0.00,VWS V14.01,2013-04-26 12:52:00,
2013-04-26 07:53:00,46.9,36.9,30.30,SSE,158,7.8,7.8,68,0.00,,,0.00,VWS V14.01,2013-04-26 12:53:00,
2013-04-26 07:54:00,47.1,37.1,30.29,SSE,158,9.3,9.3,68,0.00,,,0.00,VWS V14.01,2013-04-26 12:54:00,
2013-04-26 07:55:00,47.1,37.1,30.30,SSE,158,8.5,9.3,68,0.00,,,0.00,VWS V14.01,2013-04-26 12:55:00,
2013-04-26 07:56:00,47.1,37.1,30.30,SSE,158,8.5,8.5,68,0.00,,,0.00,VWS V14.01,2013-04-26 12:56:00,
2013-04-26 07:57:00,47.1,37.1,30.30,SSE,158,8.5,8.5,68,0.00,,,0.00,VWS V14.01,2013-04-26 12:57:00,
2013-04-26 07:58:00,47.1,37.1,30.30,SSE,158,8.5,8.5,68,0.00,,,0.00,VWS V14.01,2013-04-26 12:58:00,
2013-04-26 07:59:00,47.1,37.1,30.30,ESE,112,9.1,9.1,68,0.00,,,0.00,VWS V14.01,2013-04-26 12:59:00,
2013-04-26 08:00:00,47.1,37.1,30.30,ESE,112,8.2,9.1,68,0.00,,,0.00,VWS V14.01,2013-04-26 13:00:00,
2013-04-26 08:01:00,47.1,37.1,30.30,ESE,112,8.2,8.2,68,0.00,,,0.00,VWS V14.01,2013-04-26 13:01:00,
2013-04-26 08:02:00,47.1,37.1,30.30,SSE,158,8.7,8.7,68,0.00,,,0.00,VWS V14.01,2013-04-26 13:02:00,
2013-04-26 08:03:00,47.1,37.1,30.30,SSE,158,8.7,8.7,68,0.00,,,0.00,VWS V14.01,2013-04-26 13:03:00,
2013-04-26 08:04:00,47.3,37.3,30.30,SSE,158,9.8,9.8,68,0.00,,,0.00,VWS V14.01,2013-04-26 13:04:00,
2013-04-26 08:05:00,47.3,37.3,30.29,SSE,158,9.8,9.8,68,0.00,,,0.00,VWS V14.01,2013-04-26 13:05:00,
2013-04-26 08:06:00,47.1,36.7,30.29,SSE,158,7.6,9.8,67,0.00,,,0.00,VWS V14.01,2013-04-26 13:06:00,
2013-04-26 08:07:00,47.1,36.7,30.30,SSE,158,7.6,7.6,67,0.00,,,0.00,VWS V14.01,2013-04-26 13:07:00,
2013-04-26 08:08:00,47.1,36.7,30.30,SSE,158,7.6,7.6,67,0.00,,,0.00,VWS V14.01,2013-04-26 13:08:00,
2013-04-26 08:09:00,47.3,36.9,30.29,ESE,112,8.0,8.0,67,0.00,,,0.00,VWS V14.01,2013-04-26 13:09:00,
2013-04-26 08:10:00,47.1,36.7,30.30,SE,135,9.1,9.1,67,0.00,,,0.00,VWS V14.01,2013-04-26 13:10:00,
2013-04-26 08:11:00,47.1,36.7,30.30,SE,135,9.1,9.1,67,0.00,,,0.00,VWS V14.01,2013-04-26 13:11:00,
2013-04-26 08:12:00,47.3,36.9,30.30,SE,135,9.1,9.1,67,0.00,,,0.00,VWS V14.01,2013-04-26 13:12:00,
2013-04-26 08:13:00,47.3,36.9,30.30,SE,135,9.1,9.1,67,0.00,,,0.00,VWS V14.01,2013-04-26 13:13:00,
2013-04-26 08:14:00,47.3,36.9,30.29,SE,135,7.6,7.6,67,0.00,,,0.00,VWS V14.01,2013-04-26 13:14:00,
2013-04-26 08:15:00,47.4,37.0,30.29,SE,135,5.3,7.6,67,0.00,,,0.00,VWS V14.01,2013-04-26 13:15:00,
2013-04-26 08:16:00,47.4,37.0,30.30,SE,135,5.3,5.3,67,0.00,,,0.00,VWS V14.01,2013-04-26 13:16:00,
2013-04-26 08:17:00,47.8,37.4,30.30,SSE,158,6.9,6.9,67,0.00,,,0.00,VWS V14.01,2013-04-26 13:17:00,
2013-04-26 08:18:00,47.8,37.4,30.30,SSE,158,6.9,6.9,67,0.00,,,0.00,VWS V14.01,2013-04-26 13:18:00,
2013-04-26 08:19:00,47.8,37.4,30.30,SE,135,6.0,6.9,67,0.00,,,0.00,VWS V14.01,2013-04-26 13:19:00,
2013-04-26 08:20:00,47.8,37.4,30.30,SE,135,6.0,6.0,67,0.00,,,0.00,VWS V14.01,2013-04-26 13:20:00,
2013-04-26 08:21:00,47.8,37.4,30.30,ESE,112,7.8,7.8,67,0.00,,,0.00,VWS V14.01,2013-04-26 13:21:00,
2013-04-26 08:22:00,47.8,37.4,30.30,ESE,112,7.8,7.8,67,0.00,,,0.00,VWS V14.01,2013-04-26 13:22:00,
2013-04-26 08:23:00,47.8,37.4,30.30,ESE,112,7.8,7.8,67,0.00,,,0.00,VWS V14.01,2013-04-26 13:23:00,
2013-04-26 08:24:00,48.0,37.6,30.30,SSE,158,10.0,10.0,67,0.00,,,0.00,VWS V14.01,2013-04-26 13:24:00,
2013-04-26 08:25:00,48.3,37.9,30.30,SE,135,7.8,10.0,67,0.00,,,0.00,VWS V14.01,2013-04-26 13:25:00,
2013-04-26 08:26:00,48.3,37.9,30.30,SE,135,7.8,7.8,67,0.00,,,0.00,VWS V14.01,2013-04-26 13:26:00,
2013-04-26 08:27:00,48.3,37.9,30.30,SE,135,7.8,7.8,67,0.00,,,0.00,VWS V14.01,2013-04-26 13:27:00,
2013-04-26 08:28:00,48.3,37.9,30.30,SE,135,7.8,7.8,67,0.00,,,0.00,VWS V14.01,2013-04-26 13:28:00,
2013-04-26 08:29:00,48.7,38.2,30.30,SE,135,8.5,8.5,67,0.00,,,0.00,VWS V14.01,2013-04-26 13:29:00,
2013-04-26 08:30:00,48.9,38.1,30.30,SE,135,6.9,8.5,66,0.00,,,0.00,VWS V14.01,2013-04-26 13:30:00,
2013-04-26 08:31:00,48.9,38.1,30.29,SE,135,6.9,6.9,66,0.00,,,0.00,VWS V14.01,2013-04-26 13:31:00,
2013-04-26 08:32:00,49.2,38.3,30.30,SE,135,11.1,11.1,66,0.00,,,0.00,VWS V14.01,2013-04-26 13:32:00,
2013-04-26 08:33:00,49.2,38.3,30.30,SE,135,11.1,11.1,66,0.00,,,0.00,VWS V14.01,2013-04-26 13:33:00,
2013-04-26 08:34:00,49.6,38.3,30.30,SE,135,7.3,11.1,65,0.00,,,0.00,VWS V14.01,2013-04-26 13:34:00,
2013-04-26 08:35:00,49.6,38.3,30.30,SE,135,7.3,7.3,65,0.00,,,0.00,VWS V14.01,2013-04-26 13:35:00,
2013-04-26 08:36:00,50.1,38.8,30.29,South,180,3.1,7.3,65,0.00,,,0.00,VWS V14.01,2013-04-26 13:36:00,
2013-04-26 08:37:00,50.1,38.8,30.30,South,180,3.1,3.1,65,0.00,,,0.00,VWS V14.01,2013-04-26 13:37:00,
2013-04-26 08:38:00,50.1,38.8,30.30,South,180,3.1,3.1,65,0.00,,,0.00,VWS V14.01,2013-04-26 13:38:00,
2013-04-26 08:39:00,51.0,38.9,30.30,SSE,158,7.8,7.8,63,0.00,,,0.00,VWS V14.01,2013-04-26 13:39:00,
2013-04-26 08:40:00,51.0,38.9,30.29,SSE,158,7.6,7.8,63,0.00,,,0.00,VWS V14.01,2013-04-26 13:40:00,
2013-04-26 08:41:00,51.0,38.9,30.29,SSE,158,7.6,7.6,63,0.00,,,0.00,VWS V14.01,2013-04-26 13:41:00,
2013-04-26 08:42:00,51.0,38.9,30.29,SSE,158,7.6,7.6,63,0.00,,,0.00,VWS V14.01,2013-04-26 13:42:00,
2013-04-26 08:43:00,51.0,38.9,30.29,SSE,158,7.6,7.6,63,0.00,,,0.00,VWS V14.01,2013-04-26 13:43:00,
2013-04-26 08:44:00,51.4,38.8,30.30,East,90,2.2,2.2,62,0.00,,,0.00,VWS V14.01,2013-04-26 13:44:00,
2013-04-26 08:45:00,51.6,39.0,30.30,South,180,6.0,6.0,62,0.00,,,0.00,VWS V14.01,2013-04-26 13:45:00,
2013-04-26 08:46:00,51.6,39.0,30.29,South,180,6.0,6.0,62,0.00,,,0.00,VWS V14.01,2013-04-26 13:46:00,
2013-04-26 08:47:00,51.6,38.6,30.30,South,180,0.2,6.0,61,0.00,,,0.00,VWS V14.01,2013-04-26 13:47:00,
2013-04-26 08:48:00,51.6,38.6,30.30,South,180,0.2,0.2,61,0.00,,,0.00,VWS V14.01,2013-04-26 13:48:00,
2013-04-26 08:49:00,51.4,38.4,30.30,South,180,7.6,7.6,61,0.00,,,0.00,VWS V14.01,2013-04-26 13:49:00,
2013-04-26 08:50:00,51.4,38.4,30.30,South,180,7.6,7.6,61,0.00,,,0.00,VWS V14.01,2013-04-26 13:50:00,
2013-04-26 08:51:00,51.4,38.8,30.30,East,90,0.6,7.6,62,0.00,,,0.00,VWS V14.01,2013-04-26 13:51:00,
2013-04-26 08:52:00,51.4,38.8,30.30,East,90,0.6,0.6,62,0.00,,,0.00,VWS V14.01,2013-04-26 13:52:00,
2013-04-26 08:53:00,51.4,38.8,30.30,East,90,0.6,0.6,62,0.00,,,0.00,VWS V14.01,2013-04-26 13:53:00,
2013-04-26 08:54:00,51.9,38.9,30.30,SE,135,5.8,5.8,61,0.00,,,0.00,VWS V14.01,2013-04-26 13:54:00,
2013-04-26 08:55:00,52.5,39.5,30.31,ESE,112,0.0,5.8,61,0.00,,,0.00,VWS V14.01,2013-04-26 13:55:00,
2013-04-26 08:56:00,52.5,39.5,30.31,ESE,112,0.0,0.0,61,0.00,,,0.00,VWS V14.01,2013-04-26 13:56:00,
2013-04-26 08:57:00,52.5,39.5,30.31,ESE,112,0.0,0.0,61,0.00,,,0.00,VWS V14.01,2013-04-26 13:57:00,
2013-04-26 08:58:00,52.5,39.5,30.31,ESE,112,0.0,0.0,61,0.00,,,0.00,VWS V14.01,2013-04-26 13:58:00,
2013-04-26 08:59:00,52.8,39.3,30.31,SSE,158,0.0,0.0,60,0.00,,,0.00,VWS V14.01,2013-04-26 13:59:00,
2013-04-26 09:00:00,53.4,39.9,30.31,WSW,248,0.0,0.0,60,0.00,,,0.00,VWS V14.01,2013-04-26 14:00:00,
2013-04-26 09:01:00,53.4,39.9,30.31,WSW,248,0.0,0.0,60,0.00,,,0.00,VWS V14.01,2013-04-26 14:01:00,
2013-04-26 09:02:00,53.9,39.9,30.31,ESE,112,3.3,3.3,59,0.00,,,0.00,VWS V14.01,2013-04-26 14:02:00,
2013-04-26 09:03:00,53.9,39.9,30.31,ESE,112,3.3,3.3,59,0.00,,,0.00,VWS V14.01,2013-04-26 14:03:00,
2013-04-26 09:04:00,54.3,40.3,30.31,SSW,202,0.8,3.3,59,0.00,,,0.00,VWS V14.01,2013-04-26 14:04:00,
2013-04-26 09:05:00,54.3,40.3,30.31,SSW,202,0.8,0.8,59,0.00,,,0.00,VWS V14.01,2013-04-26 14:05:00,
2013-04-26 09:06:00,54.6,40.1,30.31,ESE,112,0.4,0.8,58,0.00,,,0.00,VWS V14.01,2013-04-26 14:06:00,
2013-04-26 09:07:00,54.6,40.1,30.31,ESE,112,0.4,0.4,58,0.00,,,0.00,VWS V14.01,2013-04-26 14:07:00,
2013-04-26 09:08:00,54.6,40.1,30.31,ESE,112,0.4,0.4,58,0.00,,,0.00,VWS V14.01,2013-04-26 14:08:00,
2013-04-26 09:09:00,54.8,40.3,30.31,WNW,292,0.0,0.0,58,0.00,,,0.00,VWS V14.01,2013-04-26 14:09:00,
2013-04-26 09:10:00,55.2,40.2,30.30,NNE,22,0.0,0.0,57,0.00,,,0.00,VWS V14.01,2013-04-26 14:10:00,
2013-04-26 09:11:00,55.2,40.2,30.30,NNE,22,0.0,0.0,57,0.00,,,0.00,VWS V14.01,2013-04-26 14:11:00,
2013-04-26 09:12:00,55.2,40.2,30.30,NNE,22,0.0,0.0,57,0.00,,,0.00,VWS V14.01,2013-04-26 14:12:00,
2013-04-26 09:13:00,55.2,40.2,30.30,NNE,22,0.0,0.0,57,0.00,,,0.00,VWS V14.01,2013-04-26 14:13:00,
2013-04-26 09:14:00,55.2,40.2,30.30,South,180,2.4,2.4,57,0.00,,,0.00,VWS V14.01,2013-04-26 14:14:00,
2013-04-26 09:15:00,55.2,39.8,30.30,SSE,158,7.3,7.3,56,0.00,,,0.00,VWS V14.01,2013-04-26 14:15:00,
2013-04-26 09:16:00,55.2,39.8,30.30,SSE,158,7.3,7.3,56,0.00,,,0.00,VWS V14.01,2013-04-26 14:16:00,
2013-04-26 09:17:00,55.2,40.2,30.30,ESE,112,0.2,7.3,57,0.00,,,0.00,VWS V14.01,2013-04-26 14:17:00,
2013-04-26 09:18:00,55.2,40.2,30.30,ESE,112,0.2,0.2,57,0.00,,,0.00,VWS V14.01,2013-04-26 14:18:00,
2013-04-26 09:19:00,55.5,40.1,30.30,SSW,202,8.7,8.7,56,0.00,,,0.00,VWS V14.01,2013-04-26 14:19:00,
2013-04-26 09:20:00,55.5,40.1,30.30,SSW,202,8.7,8.7,56,0.00,,,0.00,VWS V14.01,2013-04-26 14:20:00,
2013-04-26 09:21:00,55.7,39.8,30.30,SE,135,0.0,8.7,55,0.00,,,0.00,VWS V14.01,2013-04-26 14:21:00,
2013-04-26 09:22:00,55.7,39.8,30.30,SE,135,0.0,0.0,55,0.00,,,0.00,VWS V14.01,2013-04-26 14:22:00,
2013-04-26 09:23:00,55.7,39.8,30.30,SE,135,0.0,0.0,55,0.00,,,0.00,VWS V14.01,2013-04-26 14:23:00,
2013-04-26 09:24:00,55.5,40.1,30.29,SSW,202,5.1,5.1,56,0.00,,,0.00,VWS V14.01,2013-04-26 14:24:00,
2013-04-26 09:25:00,55.7,40.3,30.29,SSE,158,10.7,10.7,56,0.00,,,0.00,VWS V14.01,2013-04-26 14:25:00,
2013-04-26 09:26:00,55.7,40.3,30.29,SSE,158,10.7,10.7,56,0.00,,,0.00,VWS V14.01,2013-04-26 14:26:00,
2013-04-26 09:27:00,55.7,40.3,30.29,WSW,248,4.6,10.7,56,0.00,,,0.00,VWS V14.01,2013-04-26 14:27:00,
2013-04-26 09:28:00,55.7,40.3,30.29,WSW,248,4.6,4.6,56,0.00,,,0.00,VWS V14.01,2013-04-26 14:28:00,
2013-04-26 09:29:00,55.9,40.9,30.29,WSW,248,4.6,4.6,57,0.00,,,0.00,VWS V14.01,2013-04-26 14:29:00,
2013-04-26 09:30:00,56.1,40.6,30.29,SSW,202,5.1,5.1,56,0.00,,,0.00,VWS V14.01,2013-04-26 14:30:00,
2013-04-26 09:31:00,56.1,40.6,30.29,SSW,202,5.1,5.1,56,0.00,,,0.00,VWS V14.01,2013-04-26 14:31:00,
2013-04-26 09:32:00,56.1,40.6,30.29,South,180,2.4,5.1,56,0.00,,,0.00,VWS V14.01,2013-04-26 14:32:00,
2013-04-26 09:33:00,56.1,40.6,30.29,South,180,2.4,2.4,56,0.00,,,0.00,VWS V14.01,2013-04-26 14:33:00,
2013-04-26 09:34:00,56.6,40.6,30.29,NNW,338,0.0,2.4,55,0.00,,,0.00,VWS V14.01,2013-04-26 14:34:00,
2013-04-26 09:35:00,56.6,40.6,30.29,NNW,338,0.0,0.0,55,0.00,,,0.00,VWS V14.01,2013-04-26 14:35:00,
2013-04-26 09:36:00,56.8,40.3,30.29,SW,225,0.0,0.0,54,0.00,,,0.00,VWS V14.01,2013-04-26 14:36:00,
2013-04-26 09:37:00,56.8,40.3,30.29,SW,225,0.0,0.0,54,0.00,,,0.00,VWS V14.01,2013-04-26 14:37:00,
2013-04-26 09:38:00,56.8,40.3,30.29,SW,225,0.0,0.0,54,0.00,,,0.00,VWS V14.01,2013-04-26 14:38:00,
2013-04-26 09:39:00,57.0,40.5,30.29,SSE,158,11.4,11.4,54,0.00,,,0.00,VWS V14.01,2013-04-26 14:39:00,
2013-04-26 09:40:00,57.0,41.0,30.29,SSE,158,11.4,11.4,55,0.00,,,0.00,VWS V14.01,2013-04-26 14:40:00,
2013-04-26 09:41:00,57.0,41.0,30.29,South,180,6.4,11.4,55,0.00,,,0.00,VWS V14.01,2013-04-26 14:41:00,
2013-04-26 09:42:00,57.0,41.0,30.29,South,180,6.4,6.4,55,0.00,,,0.00,VWS V14.01,2013-04-26 14:42:00,
2013-04-26 09:43:00,57.0,41.0,30.29,South,180,6.4,6.4,55,0.00,,,0.00,VWS V14.01,2013-04-26 14:43:00,
2013-04-26 09:44:00,57.5,41.5,30.29,SSW,202,11.1,11.1,55,0.00,,,0.00,VWS V14.01,2013-04-26 14:44:00,
2013-04-26 09:45:00,58.1,41.6,30.29,NE,45,0.0,11.1,54,0.00,,,0.00,VWS V14.01,2013-04-26 14:45:00,
2013-04-26 09:46:00,58.1,41.6,30.29,NE,45,0.0,0.0,54,0.00,,,0.00,VWS V14.01,2013-04-26 14:46:00,
2013-04-26 09:47:00,58.8,41.2,30.29,SSW,202,12.9,12.9,52,0.00,,,0.00,VWS V14.01,2013-04-26 14:47:00,
2013-04-26 09:48:00,58.8,41.2,30.29,SSW,202,12.9,12.9,52,0.00,,,0.00,VWS V14.01,2013-04-26 14:48:00,
2013-04-26 09:49:00,58.6,40.5,30.29,SSW,202,15.8,15.8,51,0.00,,,0.00,VWS V14.01,2013-04-26 14:49:00,
2013-04-26 09:50:00,58.6,40.5,30.29,SSW,202,15.8,15.8,51,0.00,,,0.00,VWS V14.01,2013-04-26 14:50:00,
2013-04-26 09:51:00,58.1,41.6,30.29,SSW,202,11.1,15.8,54,0.00,,,0.00,VWS V14.01,2013-04-26 14:51:00,
2013-04-26 09:52:00,58.1,41.6,30.29,SSW,202,11.1,11.1,54,0.00,,,0.00,VWS V14.01,2013-04-26 14:52:00,
2013-04-26 09:53:00,58.1,41.6,30.29,SSW,202,11.1,11.1,54,0.00,,,0.00,VWS V14.01,2013-04-26 14:53:00,
2013-04-26 09:54:00,57.7,40.7,30.29,SSW,202,8.2,8.2,53,0.00,,,0.00,VWS V14.01,2013-04-26 14:54:00,
2013-04-26 09:55:00,57.7,40.7,30.29,South,180,6.9,8.2,53,0.00,,,0.00,VWS V14.01,2013-04-26 14:55:00,
2013-04-26 09:56:00,57.7,41.7,30.29,South,180,6.9,6.9,55,0.00,,,0.00,VWS V14.01,2013-04-26 14:56:00,
2013-04-26 09:57:00,57.7,41.7,30.29,SSW,202,7.6,7.6,55,0.00,,,0.00,VWS V14.01,2013-04-26 14:57:00,
2013-04-26 09:58:00,57.7,41.7,30.29,SSW,202,7.6,7.6,55,0.00,,,0.00,VWS V14.01,2013-04-26 14:58:00,
2013-04-26 09:59:00,58.2,41.7,30.29,SSW,202,7.6,7.6,54,0.00,,,0.00,VWS V14.01,2013-04-26 14:59:00,
2013-04-26 10:00:00,58.6,41.5,30.29,South,180,11.1,11.1,53,0.00,,,0.00,VWS V14.01,2013-04-26 15:00:00,
2013-04-26 10:01:00,58.6,41.5,30.30,South,180,11.1,11.1,53,0.00,,,0.00,VWS V14.01,2013-04-26 15:01:00,
2013-04-26 10:02:00,58.8,41.7,30.29,SSW,202,19.2,19.2,53,0.00,,,0.00,VWS V14.01,2013-04-26 15:02:00,
2013-04-26 10:03:00,58.8,41.7,30.29,SSW,202,19.2,19.2,53,0.00,,,0.00,VWS V14.01,2013-04-26 15:03:00,
2013-04-26 10:04:00,58.8,41.2,30.29,SSW,202,18.5,19.2,52,0.00,,,0.00,VWS V14.01,2013-04-26 15:04:00,
2013-04-26 10:05:00,58.8,41.2,30.29,SSW,202,18.5,18.5,52,0.00,,,0.00,VWS V14.01,2013-04-26 15:05:00,
2013-04-26 10:06:00,59.3,42.2,30.29,SSW,202,10.7,18.5,53,0.00,,,0.00,VWS V14.01,2013-04-26 15:06:00,
2013-04-26 10:07:00,59.3,42.2,30.29,SSW,202,10.7,10.7,53,0.00,,,0.00,VWS V14.01,2013-04-26 15:07:00,
2013-04-26 10:08:00,59.3,42.2,30.29,SSW,202,10.7,10.7,53,0.00,,,0.00,VWS V14.01,2013-04-26 15:08:00,
2013-04-26 10:09:00,59.5,41.9,30.30,South,180,16.5,16.5,52,0.00,,,0.00,VWS V14.01,2013-04-26 15:09:00,
2013-04-26 10:10:00,59.7,42.1,30.29,SSW,202,9.1,16.5,52,0.00,,,0.00,VWS V14.01,2013-04-26 15:10:00,
2013-04-26 10:11:00,59.7,42.1,30.29,SSW,202,9.1,9.1,52,0.00,,,0.00,VWS V14.01,2013-04-26 15:11:00,
2013-04-26 10:12:00,60.2,42.5,30.30,SSW,202,13.6,13.6,52,0.00,,,0.00,VWS V14.01,2013-04-26 15:12:00,
2013-04-26 10:13:00,60.2,42.5,30.30,SSW,202,13.6,13.6,52,0.00,,,0.00,VWS V14.01,2013-04-26 15:13:00,
2013-04-26 10:14:00,60.2,42.5,30.29,SSW,202,13.6,13.6,52,0.00,,,0.00,VWS V14.01,2013-04-26 15:14:00,
2013-04-26 10:15:00,60.6,41.9,30.29,SSW,202,17.4,17.4,50,0.00,,,0.00,VWS V14.01,2013-04-26 15:15:00,
2013-04-26 10:16:00,60.6,41.9,30.30,SSW,202,17.4,17.4,50,0.00,,,0.00,VWS V14.01,2013-04-26 15:16:00,
2013-04-26 10:17:00,60.9,41.6,30.29,South,180,19.6,19.6,49,0.00,,,0.00,VWS V14.01,2013-04-26 15:17:00,
2013-04-26 10:18:00,60.9,41.6,30.29,South,180,19.6,19.6,49,0.00,,,0.00,VWS V14.01,2013-04-26 15:18:00,
2013-04-26 10:19:00,61.1,41.8,30.29,SW,225,16.7,19.6,49,0.00,,,0.00,VWS V14.01,2013-04-26 15:19:00,
2013-04-26 10:20:00,61.1,41.8,30.29,SW,225,16.7,16.7,49,0.00,,,0.00,VWS V14.01,2013-04-26 15:20:00,
2013-04-26 10:21:00,61.1,41.8,30.30,SW,225,16.7,16.7,49,0.00,,,0.00,VWS V14.01,2013-04-26 15:21:00,
2013-04-26 10:22:00,61.1,41.8,30.30,SW,225,16.7,16.7,49,0.00,,,0.00,VWS V14.01,2013-04-26 15:22:00,
2013-04-26 10:23:00,61.1,41.8,30.30,SW,225,16.7,16.7,49,0.00,,,0.00,VWS V14.01,2013-04-26 15:23:00,
2013-04-26 10:24:00,60.9,42.2,30.30,SSW,202,23.4,23.4,50,0.00,,,0.00,VWS V14.01,2013-04-26 15:24:00,
2013-04-26 10:25:00,60.9,42.2,30.29,SSW,202,19.4,23.4,50,0.00,,,0.00,VWS V14.01,2013-04-26 15:25:00,
2013-04-26 10:26:00,60.9,42.2,30.29,SSW,202,19.4,19.4,50,0.00,,,0.00,VWS V14.01,2013-04-26 15:26:00,
2013-04-26 10:27:00,60.6,41.3,30.30,SSW,202,23.7,23.7,49,0.00,,,0.00,VWS V14.01,2013-04-26 15:27:00,
2013-04-26 10:28:00,60.6,41.4,30.30,SSW,202,23.7,23.7,49,0.00,,,0.00,VWS V14.01,2013-04-26 15:28:00,
2013-04-26 10:29:00,60.6,41.3,30.29,SSW,202,21.4,21.4,49,0.00,,,0.00,VWS V14.01,2013-04-26 15:29:00,
2013-04-26 10:30:00,61.1,42.3,30.29,SSW,202,19.0,21.4,50,0.00,,,0.00,VWS V14.01,2013-04-26 15:30:00,
2013-04-26 10:31:00,61.1,42.3,30.29,SSW,202,19.0,19.0,50,0.00,,,0.00,VWS V14.01,2013-04-26 15:31:00,
2013-04-26 10:32:00,61.1,42.3,30.30,South,180,22.5,22.5,50,0.00,,,0.00,VWS V14.01,2013-04-26 15:32:00,
2013-04-26 10:33:00,61.1,42.3,30.30,South,180,22.5,22.5,50,0.00,,,0.00,VWS V14.01,2013-04-26 15:33:00,
2013-04-26 10:34:00,61.3,42.5,30.29,SSW,202,14.3,14.3,50,0.00,,,0.00,VWS V14.01,2013-04-26 15:34:00,
2013-04-26 10:35:00,61.8,42.5,30.30,SSW,202,27.9,27.9,49,0.00,,,0.00,VWS V14.01,2013-04-26 15:35:00,
2013-04-26 10:36:00,61.8,42.5,30.30,SSW,202,19.2,27.9,49,0.00,,,0.00,VWS V14.01,2013-04-26 15:36:00,
2013-04-26 10:37:00,61.8,42.5,30.30,SSW,202,19.2,19.2,49,0.00,,,0.00,VWS V14.01,2013-04-26 15:37:00,
2013-04-26 10:38:00,61.8,42.5,30.30,SSW,202,19.2,19.2,49,0.00,,,0.00,VWS V14.01,2013-04-26 15:38:00,
2013-04-26 10:39:00,62.2,43.3,30.30,SSW,202,19.6,19.6,50,0.00,,,0.00,VWS V14.01,2013-04-26 15:39:00,
2013-04-26 10:40:00,62.9,43.5,30.29,SSW,202,17.2,19.6,49,0.00,,,0.00,VWS V14.01,2013-04-26 15:40:00,
2013-04-26 10:41:00,62.9,43.5,30.30,SSW,202,17.2,17.2,49,0.00,,,0.00,VWS V14.01,2013-04-26 15:41:00,
2013-04-26 10:42:00,63.1,43.7,30.30,SSW,202,12.7,17.2,49,0.00,,,0.00,VWS V14.01,2013-04-26 15:42:00,
2013-04-26 10:43:00,63.1,43.7,30.30,SSW,202,12.7,12.7,49,0.00,,,0.00,VWS V14.01,2013-04-26 15:43:00,
2013-04-26 10:44:00,63.1,44.2,30.29,SSW,202,14.0,14.0,50,0.00,,,0.00,VWS V14.01,2013-04-26 15:44:00,
2013-04-26 10:45:00,63.1,44.2,30.29,SSW,202,14.0,14.0,50,0.00,,,0.00,VWS V14.01,2013-04-26 15:45:00,
2013-04-26 10:46:00,63.3,43.8,30.30,SSW,202,17.8,17.8,49,0.00,,,0.00,VWS V14.01,2013-04-26 15:46:00,
2013-04-26 10:47:00,63.3,43.8,30.30,SSW,202,17.8,17.8,49,0.00,,,0.00,VWS V14.01,2013-04-26 15:47:00,
2013-04-26 10:48:00,63.3,43.8,30.30,SSW,202,17.8,17.8,49,0.00,,,0.00,VWS V14.01,2013-04-26 15:48:00,
2013-04-26 10:49:00,62.7,42.8,30.29,SSW,202,21.0,23.4,48,0.00,,,0.00,VWS V14.01,2013-04-26 15:49:00,
2013-04-26 10:50:00,62.7,42.8,30.30,SSW,202,21.0,21.0,48,0.00,,,0.00,VWS V14.01,2013-04-26 15:50:00,
2013-04-26 10:51:00,62.4,43.5,30.30,SW,225,11.1,21.0,50,0.00,,,0.00,VWS V14.01,2013-04-26 15:51:00,
2013-04-26 10:52:00,62.4,43.5,30.30,SW,225,11.1,11.1,50,0.00,,,0.00,VWS V14.01,2013-04-26 15:52:00,
2013-04-26 10:53:00,62.4,43.5,30.30,SW,225,11.1,11.1,50,0.00,,,0.00,VWS V14.01,2013-04-26 15:53:00,
2013-04-26 10:54:00,62.6,43.2,30.30,SSW,202,17.0,17.0,49,0.00,,,0.00,VWS V14.01,2013-04-26 15:54:00,
2013-04-26 10:55:00,62.6,43.2,30.30,SSW,202,17.0,17.0,49,0.00,,,0.00,VWS V14.01,2013-04-26 15:55:00,
2013-04-26 10:56:00,62.7,44.3,30.30,SSW,202,16.5,17.0,51,0.00,,,0.00,VWS V14.01,2013-04-26 15:56:00,
2013-04-26 10:57:00,62.7,44.3,30.29,SSW,202,16.5,16.5,51,0.00,,,0.00,VWS V14.01,2013-04-26 15:57:00,
2013-04-26 10:58:00,62.7,44.3,30.29,SSW,202,16.5,16.5,51,0.00,,,0.00,VWS V14.01,2013-04-26 15:58:00,
2013-04-26 10:59:00,63.1,44.2,30.30,SW,225,17.4,17.4,50,0.00,,,0.00,VWS V14.01,2013-04-26 15:59:00,
2013-04-26 11:00:00,62.9,42.9,30.30,SSW,202,15.6,17.4,48,0.00,,,0.00,VWS V14.01,2013-04-26 16:00:00,
2013-04-26 11:01:00,62.9,42.9,30.30,SSW,202,15.6,15.6,48,0.00,,,0.00,VWS V14.01,2013-04-26 16:01:00,
2013-04-26 11:02:00,63.1,43.7,30.30,SSW,202,18.1,18.1,49,0.00,,,0.00,VWS V14.01,2013-04-26 16:02:00,
2013-04-26 11:03:00,63.1,43.7,30.30,SSW,202,18.1,18.1,49,0.00,,,0.00,VWS V14.01,2013-04-26 16:03:00,
2013-04-26 11:04:00,63.6,44.1,30.30,SW,225,14.3,18.1,49,0.00,,,0.00,VWS V14.01,2013-04-26 16:04:00,
2013-04-26 11:05:00,63.6,45.2,30.30,SW,225,14.3,14.3,51,0.00,,,0.00,VWS V14.01,2013-04-26 16:05:00,
2013-04-26 11:06:00,63.6,45.2,30.30,SW,225,14.3,14.3,51,0.00,,,0.00,VWS V14.01,2013-04-26 16:06:00,
2013-04-26 11:07:00,64.0,43.9,30.30,SSW,202,16.5,16.5,48,0.00,,,0.00,VWS V14.01,2013-04-26 16:07:00,
2013-04-26 11:08:00,64.0,43.9,30.30,SSW,202,16.5,16.5,48,0.00,,,0.00,VWS V14.01,2013-04-26 16:08:00,
2013-04-26 11:09:00,64.0,44.5,30.30,SSW,202,22.3,22.3,49,0.00,,,0.00,VWS V14.01,2013-04-26 16:09:00,
2013-04-26 11:10:00,64.0,44.5,30.30,SSW,202,22.3,22.3,49,0.00,,,0.00,VWS V14.01,2013-04-26 16:10:00,
2013-04-26 11:11:00,63.6,44.1,30.30,SSW,202,13.8,22.3,49,0.00,,,0.00,VWS V14.01,2013-04-26 16:11:00,
2013-04-26 11:12:00,63.6,44.1,30.30,SSW,202,13.8,13.8,49,0.00,,,0.00,VWS V14.01,2013-04-26 16:12:00,
2013-04-26 11:13:00,63.6,44.1,30.30,SSW,202,13.8,13.8,49,0.00,,,0.00,VWS V14.01,2013-04-26 16:13:00,
2013-04-26 11:14:00,64.0,43.4,30.30,West,270,14.9,14.9,47,0.00,,,0.00,VWS V14.01,2013-04-26 16:14:00,
2013-04-26 11:15:00,63.6,44.1,30.30,SSW,202,9.8,14.9,49,0.00,,,0.00,VWS V14.01,2013-04-26 16:15:00,
2013-04-26 11:16:00,63.6,44.1,30.30,SSW,202,9.8,9.8,49,0.00,,,0.00,VWS V14.01,2013-04-26 16:16:00,
2013-04-26 11:17:00,63.6,43.6,30.30,SW,225,12.7,12.7,48,0.00,,,0.00,VWS V14.01,2013-04-26 16:17:00,
2013-04-26 11:18:00,63.6,43.6,30.30,SW,225,12.7,12.7,48,0.00,,,0.00,VWS V14.01,2013-04-26 16:18:00,
2013-04-26 11:19:00,63.3,44.4,30.30,SSW,202,25.0,25.0,50,0.00,,,0.00,VWS V14.01,2013-04-26 16:19:00,
2013-04-26 11:20:00,63.3,43.3,30.30,SW,225,17.0,25.0,48,0.00,,,0.00,VWS V14.01,2013-04-26 16:20:00,
2013-04-26 11:21:00,63.3,43.3,30.30,SW,225,17.0,17.0,48,0.00,,,0.00,VWS V14.01,2013-04-26 16:21:00,
2013-04-26 11:22:00,63.1,43.7,30.30,SSW,202,16.5,17.0,49,0.00,,,0.00,VWS V14.01,2013-04-26 16:22:00,
2013-04-26 11:23:00,63.1,43.7,30.30,SSW,202,16.5,16.5,49,0.00,,,0.00,VWS V14.01,2013-04-26 16:23:00,
2013-04-26 11:24:00,63.3,44.4,30.30,SSW,202,12.7,16.5,50,0.00,,,0.00,VWS V14.01,2013-04-26 16:24:00,
2013-04-26 11:25:00,63.3,44.4,30.31,SSW,202,12.7,12.7,50,0.00,,,0.00,VWS V14.01,2013-04-26 16:25:00,
2013-04-26 11:26:00,62.9,44.0,30.30,SSW,202,17.2,17.2,50,0.00,,,0.00,VWS V14.01,2013-04-26 16:26:00,
2013-04-26 11:27:00,62.9,44.0,30.31,SSW,202,17.2,17.2,50,0.00,,,0.00,VWS V14.01,2013-04-26 16:27:00,
2013-04-26 11:28:00,62.9,44.0,30.31,SSW,202,17.2,17.2,50,0.00,,,0.00,VWS V14.01,2013-04-26 16:28:00,
2013-04-26 11:29:00,62.7,44.3,30.31,SSW,202,17.4,17.4,51,0.00,,,0.00,VWS V14.01,2013-04-26 16:29:00,
2013-04-26 11:30:00,62.7,44.3,30.31,SSW,202,17.4,17.4,51,0.00,,,0.00,VWS V14.01,2013-04-26 16:30:00,
2013-04-26 11:31:00,62.9,44.5,30.30,SSW,202,9.6,17.4,51,0.00,,,0.00,VWS V14.01,2013-04-26 16:31:00,
2013-04-26 11:32:00,62.9,44.5,30.30,SSW,202,9.6,9.6,51,0.00,,,0.00,VWS V14.01,2013-04-26 16:32:00,
2013-04-26 11:33:00,62.9,44.5,30.30,SSW,202,9.6,9.6,51,0.00,,,0.00,VWS V14.01,2013-04-26 16:33:00,
2013-04-26 11:34:00,62.7,44.3,30.31,SSW,202,18.5,18.5,51,0.00,,,0.00,VWS V14.01,2013-04-26 16:34:00,
2013-04-26 11:35:00,62.7,44.3,30.31,SW,225,12.7,18.5,51,0.00,,,0.00,VWS V14.01,2013-04-26 16:35:00,
2013-04-26 11:36:00,62.7,44.3,30.30,SW,225,12.7,12.7,51,0.00,,,0.00,VWS V14.01,2013-04-26 16:36:00,
2013-04-26 11:37:00,62.7,44.3,30.30,SSW,202,14.7,14.7,51,0.00,,,0.00,VWS V14.01,2013-04-26 16:37:00,
2013-04-26 11:38:00,62.7,44.3,30.30,SSW,202,14.7,14.7,51,0.00,,,0.00,VWS V14.01,2013-04-26 16:38:00,
2013-04-26 11:39:00,63.3,45.4,30.31,SW,225,15.2,15.2,52,0.00,,,0.00,VWS V14.01,2013-04-26 16:39:00,
2013-04-26 11:40:00,63.3,45.4,30.30,SW,225,15.2,15.2,52,0.00,,,0.00,VWS V14.01,2013-04-26 16:40:00,
2013-04-26 11:41:00,63.5,46.1,30.30,SSW,202,9.3,15.2,53,0.00,,,0.00,VWS V14.01,2013-04-26 16:41:00,
2013-04-26 11:42:00,63.5,46.1,30.30,SSW,202,9.3,9.3,53,0.00,,,0.00,VWS V14.01,2013-04-26 16:42:00,
2013-04-26 11:43:00,63.5,46.1,30.30,SSW,202,9.3,9.3,53,0.00,,,0.00,VWS V14.01,2013-04-26 16:43:00,
2013-04-26 11:44:00,63.6,45.2,30.30,SSW,202,11.8,11.8,51,0.00,,,0.00,VWS V14.01,2013-04-26 16:44:00,
2013-04-26 11:45:00,63.6,45.2,30.30,SSW,202,11.8,11.8,51,0.00,,,0.00,VWS V14.01,2013-04-26 16:45:00,
2013-04-26 11:46:00,63.5,45.1,30.30,SSW,202,14.5,14.5,51,0.00,,,0.00,VWS V14.01,2013-04-26 16:46:00,
2013-04-26 11:47:00,63.5,45.1,30.30,SSW,202,14.5,14.5,51,0.00,,,0.00,VWS V14.01,2013-04-26 16:47:00,
2013-04-26 11:48:00,63.5,45.1,30.30,SSW,202,14.5,14.5,51,0.00,,,0.00,VWS V14.01,2013-04-26 16:48:00,
2013-04-26 11:49:00,63.8,44.8,30.30,SSW,202,18.7,18.7,50,0.00,,,0.00,VWS V14.01,2013-04-26 16:49:00,
2013-04-26 11:50:00,64.2,45.7,30.30,SW,225,18.1,18.7,51,0.00,,,0.00,VWS V14.01,2013-04-26 16:50:00,
2013-04-26 11:51:00,64.2,45.7,30.30,SW,225,18.1,18.1,51,0.00,,,0.00,VWS V14.01,2013-04-26 16:51:00,
2013-04-26 11:52:00,64.0,44.5,30.30,SW,225,16.7,18.1,49,0.00,,,0.00,VWS V14.01,2013-04-26 16:52:00,
2013-04-26 11:53:00,64.0,44.5,30.30,SW,225,16.7,16.7,49,0.00,,,0.00,VWS V14.01,2013-04-26 16:53:00,
2013-04-26 11:54:00,64.0,45.5,30.30,SSW,202,18.1,18.1,51,0.00,,,0.00,VWS V14.01,2013-04-26 16:54:00,
2013-04-26 11:55:00,64.0,45.5,30.30,SSW,202,18.1,18.1,51,0.00,,,0.00,VWS V14.01,2013-04-26 16:55:00,
2013-04-26 11:56:00,64.5,44.9,30.30,SW,225,17.6,18.1,49,0.00,,,0.00,VWS V14.01,2013-04-26 16:56:00,
2013-04-26 11:57:00,64.5,44.9,30.30,SW,225,17.6,17.6,49,0.00,,,0.00,VWS V14.01,2013-04-26 16:57:00,
2013-04-26 11:58:00,64.5,44.9,30.30,SW,225,17.6,17.6,49,0.00,,,0.00,VWS V14.01,2013-04-26 16:58:00,
2013-04-26 11:59:00,64.7,45.7,30.30,SSW,202,19.6,24.3,50,0.00,,,0.00,VWS V14.01,2013-04-26 16:59:00,
2013-04-26 12:00:00,64.7,45.7,30.30,SSW,202,19.6,19.6,50,0.00,,,0.00,VWS V14.01,2013-04-26 17:00:00,
2013-04-26 12:01:00,65.1,46.5,30.30,SSW,202,12.5,19.6,51,0.00,,,0.00,VWS V14.01,2013-04-26 17:01:00,
2013-04-26 12:02:00,65.1,46.5,30.30,SSW,202,12.5,12.5,51,0.00,,,0.00,VWS V14.01,2013-04-26 17:02:00,
2013-04-26 12:03:00,65.1,46.5,30.30,SSW,202,12.5,12.5,51,0.00,,,0.00,VWS V14.01,2013-04-26 17:03:00,
2013-04-26 12:04:00,65.4,45.8,30.30,SW,225,19.9,19.9,49,0.00,,,0.00,VWS V14.01,2013-04-26 17:04:00,
2013-04-26 12:05:00,65.4,45.8,30.30,SW,225,14.9,19.9,49,0.00,,,0.00,VWS V14.01,2013-04-26 17:05:00,
2013-04-26 12:06:00,65.4,46.3,30.30,SW,225,14.9,14.9,50,0.00,,,0.00,VWS V14.01,2013-04-26 17:06:00,
2013-04-26 12:07:00,65.4,46.3,30.30,SW,225,14.9,14.9,50,0.00,,,0.00,VWS V14.01,2013-04-26 17:07:00,
2013-04-26 12:08:00,65.4,46.3,30.30,SW,225,14.9,14.9,50,0.00,,,0.00,VWS V14.01,2013-04-26 17:08:00,
2013-04-26 12:09:00,65.8,47.2,30.29,South,180,15.8,15.8,51,0.00,,,0.00,VWS V14.01,2013-04-26 17:09:00,
2013-04-26 12:10:00,66.3,46.0,30.29,SSW,202,22.1,22.1,48,0.00,,,0.00,VWS V14.01,2013-04-26 17:10:00,
2013-04-26 12:11:00,66.3,46.0,30.29,SSW,202,22.1,22.1,48,0.00,,,0.00,VWS V14.01,2013-04-26 17:11:00,
2013-04-26 12:12:00,66.0,46.3,30.29,SW,225,14.9,22.1,49,0.00,,,0.00,VWS V14.01,2013-04-26 17:12:00,
2013-04-26 12:13:00,66.0,46.3,30.29,SW,225,14.9,14.9,49,0.00,,,0.00,VWS V14.01,2013-04-26 17:13:00,
2013-04-26 12:14:00,66.0,46.3,30.29,SSW,202,26.6,26.6,49,0.00,,,0.00,VWS V14.01,2013-04-26 17:14:00,
2013-04-26 12:15:00,66.0,46.3,30.29,SSW,202,20.1,26.6,49,0.00,,,0.00,VWS V14.01,2013-04-26 17:15:00,
2013-04-26 12:16:00,66.0,46.3,30.29,SSW,202,20.1,20.1,49,0.00,,,0.00,VWS V14.01,2013-04-26 17:16:00,
2013-04-26 12:17:00,66.0,46.3,30.29,SSW,202,15.4,20.1,49,0.00,,,0.00,VWS V14.01,2013-04-26 17:17:00,
2013-04-26 12:18:00,66.0,46.3,30.29,SSW,202,15.4,15.4,49,0.00,,,0.00,VWS V14.01,2013-04-26 17:18:00,
2013-04-26 12:19:00,66.3,46.6,30.29,SSW,202,22.3,22.3,49,0.00,,,0.00,VWS V14.01,2013-04-26 17:19:00,
2013-04-26 12:20:00,66.3,46.6,30.29,SSW,202,22.3,22.3,49,0.00,,,0.00,VWS V14.01,2013-04-26 17:20:00,
2013-04-26 12:21:00,66.7,48.0,30.29,SSW,202,22.3,22.3,51,0.00,,,0.00,VWS V14.01,2013-04-26 17:21:00,
2013-04-26 12:22:00,66.7,48.0,30.29,SSW,202,19.9,22.3,51,0.00,,,0.00,VWS V14.01,2013-04-26 17:22:00,
2013-04-26 12:23:00,66.7,48.0,30.29,SSW,202,19.9,19.9,51,0.00,,,0.00,VWS V14.01,2013-04-26 17:23:00,
2013-04-26 12:24:00,66.9,46.6,30.29,SSW,202,21.6,21.6,48,0.00,,,0.00,VWS V14.01,2013-04-26 17:24:00,
2013-04-26 12:25:00,66.9,46.6,30.28,SSW,202,21.6,21.6,48,0.00,,,0.00,VWS V14.01,2013-04-26 17:25:00,
2013-04-26 12:26:00,66.5,46.2,30.28,SW,225,28.1,28.1,48,0.00,,,0.00,VWS V14.01,2013-04-26 17:26:00,
2013-04-26 12:27:00,66.3,47.1,30.28,SSW,202,19.6,28.1,50,0.00,,,0.00,VWS V14.01,2013-04-26 17:27:00,
2013-04-26 12:28:00,66.3,47.1,30.28,SSW,202,19.6,19.6,50,0.00,,,0.00,VWS V14.01,2013-04-26 17:28:00,
2013-04-26 12:29:00,66.0,46.8,30.28,South,180,29.5,29.5,50,0.00,,,0.00,VWS V14.01,2013-04-26 17:29:00,
2013-04-26 12:30:00,66.0,46.8,30.28,SSW,202,16.7,29.5,50,0.00,,,0.00,VWS V14.01,2013-04-26 17:30:00,
2013-04-26 12:31:00,66.0,46.8,30.28,SSW,202,16.7,16.7,50,0.00,,,0.00,VWS V14.01,2013-04-26 17:31:00,
2013-04-26 12:32:00,66.3,47.1,30.28,SSW,202,31.9,31.9,50,0.00,,,0.00,VWS V14.01,2013-04-26 17:32:00,
2013-04-26 12:33:00,66.3,47.1,30.28,SSW,202,31.9,31.9,50,0.00,,,0.00,VWS V14.01,2013-04-26 17:33:00,
2013-04-26 12:34:00,66.3,47.1,30.28,SSW,202,21.6,21.6,50,0.00,,,0.00,VWS V14.01,2013-04-26 17:34:00,
2013-04-26 12:35:00,66.5,47.3,30.28,SSW,202,13.1,21.6,50,0.00,,,0.00,VWS V14.01,2013-04-26 17:35:00,
2013-04-26 12:36:00,66.5,47.3,30.28,SSW,202,13.1,13.1,50,0.00,,,0.00,VWS V14.01,2013-04-26 17:36:00,
2013-04-26 12:37:00,66.5,47.3,30.28,SSW,202,13.1,13.1,50,0.00,,,0.00,VWS V14.01,2013-04-26 17:37:00,
2013-04-26 12:38:00,66.5,47.3,30.28,SSW,202,13.1,13.1,50,0.00,,,0.00,VWS V14.01,2013-04-26 17:38:00,
2013-04-26 12:39:00,66.9,47.7,30.28,SW,225,14.7,14.7,50,0.00,,,0.00,VWS V14.01,2013-04-26 17:39:00,
2013-04-26 12:40:00,67.1,47.3,30.28,SSE,158,14.3,14.7,49,0.00,,,0.00,VWS V14.01,2013-04-26 17:40:00,
2013-04-26 12:41:00,67.1,47.3,30.28,SSE,158,14.3,14.3,49,0.00,,,0.00,VWS V14.01,2013-04-26 17:41:00,
2013-04-26 12:42:00,67.1,47.3,30.28,SW,225,16.3,16.3,49,0.00,,,0.00,VWS V14.01,2013-04-26 17:42:00,
2013-04-26 12:43:00,67.1,47.3,30.28,SW,225,16.3,16.3,49,0.00,,,0.00,VWS V14.01,2013-04-26 17:43:00,
2013-04-26 12:44:00,67.2,48.0,30.28,SW,225,14.0,16.3,50,0.00,,,0.00,VWS V14.01,2013-04-26 17:44:00,
2013-04-26 12:45:00,67.2,48.0,30.28,SW,225,14.0,14.0,50,0.00,,,0.00,VWS V14.01,2013-04-26 17:45:00,
2013-04-26 12:46:00,67.6,47.8,30.28,SW,225,16.7,16.7,49,0.00,,,0.00,VWS V14.01,2013-04-26 17:46:00,
2013-04-26 12:47:00,67.6,47.8,30.28,SW,225,16.7,16.7,49,0.00,,,0.00,VWS V14.01,2013-04-26 17:47:00,
2013-04-26 12:48:00,67.6,47.8,30.28,SW,225,16.7,16.7,49,0.00,,,0.00,VWS V14.01,2013-04-26 17:48:00,
2013-04-26 12:49:00,67.2,47.4,30.28,SSW,202,17.4,17.4,49,0.00,,,0.00,VWS V14.01,2013-04-26 17:49:00,
2013-04-26 12:50:00,67.2,48.0,30.28,SSW,202,16.3,17.4,50,0.00,,,0.00,VWS V14.01,2013-04-26 17:50:00,
2013-04-26 12:51:00,66.3,47.1,30.28,SSW,202,16.3,16.3,50,0.00,,,0.00,VWS V14.01,2013-04-26 17:51:00,
2013-04-26 12:52:00,66.3,47.1,30.28,SSW,202,16.3,16.3,50,0.00,,,0.00,VWS V14.01,2013-04-26 17:52:00,
2013-04-26 12:53:00,66.3,47.1,30.28,SSW,202,16.3,16.3,50,0.00,,,0.00,VWS V14.01,2013-04-26 17:53:00,
2013-04-26 12:54:00,65.8,46.7,30.28,SW,225,19.0,19.0,50,0.00,,,0.00,VWS V14.01,2013-04-26 17:54:00,
2013-04-26 12:55:00,65.3,46.7,30.28,SW,225,17.8,19.0,51,0.00,,,0.00,VWS V14.01,2013-04-26 17:55:00,
2013-04-26 12:56:00,65.3,46.7,30.28,SW,225,17.8,17.8,51,0.00,,,0.00,VWS V14.01,2013-04-26 17:56:00,
2013-04-26 12:57:00,65.4,46.8,30.28,SW,225,25.9,25.9,51,0.00,,,0.00,VWS V14.01,2013-04-26 17:57:00,
2013-04-26 12:58:00,65.4,46.8,30.28,SW,225,25.9,25.9,51,0.00,,,0.00,VWS V14.01,2013-04-26 17:58:00,
2013-04-26 12:59:00,65.3,46.2,30.28,SSW,202,21.0,21.0,50,0.00,,,0.00,VWS V14.01,2013-04-26 17:59:00,
2013-04-26 13:00:00,65.8,46.7,30.28,SSW,202,19.0,21.0,50,0.00,,,0.00,VWS V14.01,2013-04-26 18:00:00,
2013-04-26 13:01:00,65.8,46.7,30.28,SSW,202,19.0,19.0,50,0.00,,,0.00,VWS V14.01,2013-04-26 18:01:00,
2013-04-26 13:02:00,66.0,46.8,30.28,West,270,21.0,21.0,50,0.00,,,0.00,VWS V14.01,2013-04-26 18:02:00,
2013-04-26 13:03:00,66.0,46.8,30.28,West,270,21.0,21.0,50,0.00,,,0.00,VWS V14.01,2013-04-26 18:03:00,
2013-04-26 13:04:00,66.0,46.8,30.27,West,270,21.0,21.0,50,0.00,,,0.00,VWS V14.01,2013-04-26 18:04:00,
2013-04-26 13:05:00,66.3,47.7,30.27,SSW,202,21.4,21.4,51,0.00,,,0.00,VWS V14.01,2013-04-26 18:05:00,
2013-04-26 13:06:00,66.3,47.7,30.28,SSW,202,21.4,21.4,51,0.00,,,0.00,VWS V14.01,2013-04-26 18:06:00,
2013-04-26 13:07:00,66.3,47.7,30.27,SSW,202,21.4,21.4,51,0.00,,,0.00,VWS V14.01,2013-04-26 18:07:00,
2013-04-26 13:08:00,66.3,47.7,30.27,SSW,202,21.4,21.4,51,0.00,,,0.00,VWS V14.01,2013-04-26 18:08:00,
2013-04-26 13:09:00,66.3,47.7,30.28,SW,225,15.8,15.8,51,0.00,,,0.00,VWS V14.01,2013-04-26 18:09:00,
2013-04-26 13:10:00,66.9,47.7,30.28,SSW,202,14.3,15.8,50,0.00,,,0.00,VWS V14.01,2013-04-26 18:10:00,
2013-04-26 13:11:00,66.9,47.7,30.28,SSW,202,14.3,14.3,50,0.00,,,0.00,VWS V14.01,2013-04-26 18:11:00,
2013-04-26 13:12:00,66.9,47.1,30.27,SSW,202,17.0,17.0,49,0.00,,,0.00,VWS V14.01,2013-04-26 18:12:00,
2013-04-26 13:13:00,66.9,47.1,30.27,SSW,202,17.0,17.0,49,0.00,,,0.00,VWS V14.01,2013-04-26 18:13:00,
2013-04-26 13:14:00,66.7,47.0,30.27,SSW,202,24.1,24.1,49,0.00,,,0.00,VWS V14.01,2013-04-26 18:14:00,
2013-04-26 13:15:00,66.7,47.0,30.27,SSW,202,14.7,24.1,49,0.00,,,0.00,VWS V14.01,2013-04-26 18:15:00,
2013-04-26 13:16:00,66.7,47.0,30.27,SSW,202,14.7,14.7,49,0.00,,,0.00,VWS V14.01,2013-04-26 18:16:00,
2013-04-26 13:17:00,67.1,48.4,30.27,SSW,202,14.7,14.7,51,0.00,,,0.00,VWS V14.01,2013-04-26 18:17:00,
2013-04-26 13:18:00,67.1,48.4,30.27,SSW,202,14.7,14.7,51,0.00,,,0.00,VWS V14.01,2013-04-26 18:18:00,
2013-04-26 13:19:00,67.4,46.5,30.27,SSW,202,19.9,19.9,47,0.00,,,0.00,VWS V14.01,2013-04-26 18:19:00,
2013-04-26 13:20:00,67.4,46.5,30.27,SSW,202,19.9,19.9,47,0.00,,,0.00,VWS V14.01,2013-04-26 18:20:00,
2013-04-26 13:21:00,67.1,47.3,30.27,SSW,202,19.6,19.9,49,0.00,,,0.00,VWS V14.01,2013-04-26 18:21:00,
2013-04-26 13:22:00,67.1,47.3,30.27,SSW,202,19.6,19.6,49,0.00,,,0.00,VWS V14.01,2013-04-26 18:22:00,
2013-04-26 13:23:00,67.1,47.3,30.27,SSW,202,19.6,19.6,49,0.00,,,0.00,VWS V14.01,2013-04-26 18:23:00,
2013-04-26 13:24:00,66.9,47.1,30.27,SW,225,15.2,33.5,49,0.00,,,0.00,VWS V14.01,2013-04-26 18:24:00,
2013-04-26 13:25:00,66.9,47.1,30.27,SW,225,15.2,15.2,49,0.00,,,0.00,VWS V14.01,2013-04-26 18:25:00,
2013-04-26 13:26:00,66.7,47.0,30.27,SSW,202,30.8,30.8,49,0.00,,,0.00,VWS V14.01,2013-04-26 18:26:00,
2013-04-26 13:27:00,66.7,45.8,30.27,SSW,202,24.6,30.8,47,0.00,,,0.00,VWS V14.01,2013-04-26 18:27:00,
2013-04-26 13:28:00,66.7,45.8,30.27,SSW,202,24.6,24.6,47,0.00,,,0.00,VWS V14.01,2013-04-26 18:28:00,
2013-04-26 13:29:00,66.5,45.7,30.27,SSW,202,16.7,16.7,47,0.00,,,0.00,VWS V14.01,2013-04-26 18:29:00,
2013-04-26 13:30:00,66.5,45.7,30.27,SSW,202,16.7,16.7,47,0.00,,,0.00,VWS V14.01,2013-04-26 18:30:00,
2013-04-26 13:31:00,66.7,45.8,30.27,SW,225,19.0,19.0,47,0.00,,,0.00,VWS V14.01,2013-04-26 18:31:00,
2013-04-26 13:32:00,66.7,45.8,30.27,SW,225,19.0,19.0,47,0.00,,,0.00,VWS V14.01,2013-04-26 18:32:00,
2013-04-26 13:33:00,66.7,45.8,30.27,SW,225,19.0,19.0,47,0.00,,,0.00,VWS V14.01,2013-04-26 18:33:00,
2013-04-26 13:34:00,66.9,46.0,30.27,SSW,202,22.1,22.8,47,0.00,,,0.00,VWS V14.01,2013-04-26 18:34:00,
2013-04-26 13:35:00,66.9,46.0,30.27,SSW,202,22.1,22.1,47,0.00,,,0.00,VWS V14.01,2013-04-26 18:35:00,
2013-04-26 13:36:00,66.9,46.0,30.27,SSW,202,22.1,22.1,47,0.00,,,0.00,VWS V14.01,2013-04-26 18:36:00,
2013-04-26 13:37:00,67.2,45.7,30.27,SW,225,25.0,25.0,46,0.00,,,0.00,VWS V14.01,2013-04-26 18:37:00,
2013-04-26 13:38:00,67.2,45.7,30.27,SW,225,25.0,25.0,46,0.00,,,0.00,VWS V14.01,2013-04-26 18:38:00,
2013-04-26 13:39:00,67.2,45.7,30.27,SSW,202,20.3,20.3,46,0.00,,,0.00,VWS V14.01,2013-04-26 18:39:00,
2013-04-26 13:40:00,67.2,45.7,30.27,SSW,202,16.5,20.3,46,0.00,,,0.00,VWS V14.01,2013-04-26 18:40:00,
2013-04-26 13:41:00,67.2,45.7,30.27,SSW,202,16.5,16.5,46,0.00,,,0.00,VWS V14.01,2013-04-26 18:41:00,
2013-04-26 13:42:00,67.6,45.5,30.27,SSW,202,19.4,19.4,45,0.00,,,0.00,VWS V14.01,2013-04-26 18:42:00,
2013-04-26 13:43:00,67.6,45.5,30.27,SSW,202,19.4,19.4,45,0.00,,,0.00,VWS V14.01,2013-04-26 18:43:00,
2013-04-26 13:44:00,67.2,45.7,30.27,SSW,202,19.0,19.4,46,0.00,,,0.00,VWS V14.01,2013-04-26 18:44:00,
2013-04-26 13:45:00,67.2,45.7,30.27,SSW,202,19.0,19.0,46,0.00,,,0.00,VWS V14.01,2013-04-26 18:45:00,
2013-04-26 13:46:00,67.6,46.1,30.27,SW,225,21.4,21.4,46,0.00,,,0.00,VWS V14.01,2013-04-26 18:46:00,
2013-04-26 13:47:00,67.6,46.1,30.27,SW,225,21.4,21.4,46,0.00,,,0.00,VWS V14.01,2013-04-26 18:47:00,
2013-04-26 13:48:00,67.6,46.1,30.27,SW,225,21.4,21.4,46,0.00,,,0.00,VWS V14.01,2013-04-26 18:48:00,
2013-04-26 13:49:00,67.8,47.4,30.27,SW,225,12.9,12.9,48,0.00,,,0.00,VWS V14.01,2013-04-26 18:49:00,
2013-04-26 13:50:00,67.8,47.4,30.27,SSW,202,18.7,18.7,48,0.00,,,0.00,VWS V14.01,2013-04-26 18:50:00,
2013-04-26 13:51:00,68.1,46.6,30.27,SSW,202,18.7,18.7,46,0.00,,,0.00,VWS V14.01,2013-04-26 18:51:00,
2013-04-26 13:52:00,68.1,46.6,30.27,SSW,202,18.7,18.7,46,0.00,,,0.00,VWS V14.01,2013-04-26 18:52:00,
2013-04-26 13:53:00,68.1,46.6,30.27,SSW,202,18.7,18.7,46,0.00,,,0.00,VWS V14.01,2013-04-26 18:53:00,
2013-04-26 13:54:00,68.5,46.9,30.27,SW,225,14.5,14.5,46,0.00,,,0.00,VWS V14.01,2013-04-26 18:54:00,
2013-04-26 13:55:00,68.5,46.9,30.27,SSW,202,17.4,17.4,46,0.00,,,0.00,VWS V14.01,2013-04-26 18:55:00,
2013-04-26 13:56:00,68.5,46.9,30.27,SSW,202,17.4,17.4,46,0.00,,,0.00,VWS V14.01,2013-04-26 18:56:00,
2013-04-26 13:57:00,68.5,46.9,30.27,SW,225,16.5,17.4,46,0.00,,,0.00,VWS V14.01,2013-04-26 18:57:00,
2013-04-26 13:58:00,68.5,46.9,30.27,SW,225,16.5,16.5,46,0.00,,,0.00,VWS V14.01,2013-04-26 18:58:00,
2013-04-26 13:59:00,68.7,46.5,30.27,SW,225,16.5,16.5,45,0.00,,,0.00,VWS V14.01,2013-04-26 18:59:00,
2013-04-26 14:00:00,68.1,46.0,30.27,SW,225,17.2,17.2,45,0.00,,,0.00,VWS V14.01,2013-04-26 19:00:00,
2013-04-26 14:01:00,68.1,46.0,30.27,SW,225,17.2,17.2,45,0.00,,,0.00,VWS V14.01,2013-04-26 19:01:00,
2013-04-26 14:02:00,68.1,46.6,30.27,SSW,202,18.1,18.1,46,0.00,,,0.00,VWS V14.01,2013-04-26 19:02:00,
2013-04-26 14:03:00,68.1,46.6,30.27,SSW,202,18.1,18.1,46,0.00,,,0.00,VWS V14.01,2013-04-26 19:03:00,
2013-04-26 14:04:00,67.8,46.3,30.27,SSW,202,23.2,23.2,46,0.00,,,0.00,VWS V14.01,2013-04-26 19:04:00,
2013-04-26 14:05:00,68.0,47.0,30.27,SW,225,14.3,23.2,47,0.00,,,0.00,VWS V14.01,2013-04-26 19:05:00,
2013-04-26 14:06:00,68.0,47.0,30.26,SW,225,14.3,14.3,47,0.00,,,0.00,VWS V14.01,2013-04-26 19:06:00,
2013-04-26 14:07:00,68.7,46.5,30.27,SSW,202,23.2,23.2,45,0.00,,,0.00,VWS V14.01,2013-04-26 19:07:00,
2013-04-26 14:08:00,68.7,46.5,30.27,SSW,202,23.2,23.2,45,0.00,,,0.00,VWS V14.01,2013-04-26 19:08:00,
2013-04-26 14:09:00,68.9,47.3,30.27,SSW,202,20.8,20.8,46,0.00,,,0.00,VWS V14.01,2013-04-26 19:09:00,
2013-04-26 14:10:00,68.9,47.3,30.27,SSW,202,21.6,21.6,46,0.00,,,0.00,VWS V14.01,2013-04-26 19:10:00,
2013-04-26 14:11:00,68.9,47.3,30.27,SSW,202,21.6,21.6,46,0.00,,,0.00,VWS V14.01,2013-04-26 19:11:00,
2013-04-26 14:12:00,68.9,47.3,30.27,SSW,202,25.2,25.2,46,0.00,,,0.00,VWS V14.01,2013-04-26 19:12:00,
2013-04-26 14:13:00,68.9,47.3,30.27,SSW,202,25.2,25.2,46,0.00,,,0.00,VWS V14.01,2013-04-26 19:13:00,
2013-04-26 14:14:00,68.9,46.7,30.27,SSW,202,18.1,25.7,45,0.00,,,0.00,VWS V14.01,2013-04-26 19:14:00,
2013-04-26 14:15:00,68.9,46.7,30.27,SSW,202,18.1,18.1,45,0.00,,,0.00,VWS V14.01,2013-04-26 19:15:00,
2013-04-26 14:16:00,69.2,46.4,30.27,SSW,202,17.4,18.1,44,0.00,,,0.00,VWS V14.01,2013-04-26 19:16:00,
2013-04-26 14:17:00,69.2,46.4,30.27,SSW,202,17.4,17.4,44,0.00,,,0.00,VWS V14.01,2013-04-26 19:17:00,
2013-04-26 14:18:00,69.2,46.4,30.27,SSW,202,17.4,17.4,44,0.00,,,0.00,VWS V14.01,2013-04-26 19:18:00,
2013-04-26 14:19:00,68.7,46.5,30.27,SSW,202,18.3,31.0,45,0.00,,,0.00,VWS V14.01,2013-04-26 19:19:00,
2013-04-26 14:20:00,68.7,45.9,30.26,SSW,202,18.3,18.3,44,0.00,,,0.00,VWS V14.01,2013-04-26 19:20:00,
2013-04-26 14:21:00,68.7,45.9,30.26,SSW,202,18.3,18.3,44,0.00,,,0.00,VWS V14.01,2013-04-26 19:21:00,
2013-04-26 14:22:00,68.7,46.5,30.27,SSW,202,12.9,18.3,45,0.00,,,0.00,VWS V14.01,2013-04-26 19:22:00,
2013-04-26 14:23:00,68.7,46.5,30.27,SSW,202,12.9,12.9,45,0.00,,,0.00,VWS V14.01,2013-04-26 19:23:00,
2013-04-26 14:24:00,69.6,47.3,30.27,SW,225,16.1,16.1,45,0.00,,,0.00,VWS V14.01,2013-04-26 19:24:00,
2013-04-26 14:25:00,69.6,47.3,30.26,SW,225,16.1,16.1,45,0.00,,,0.00,VWS V14.01,2013-04-26 19:25:00,
2013-04-26 14:26:00,69.6,46.1,30.26,SSW,202,12.7,16.1,43,0.00,,,0.00,VWS V14.01,2013-04-26 19:26:00,
2013-04-26 14:27:00,69.6,46.1,30.26,SSW,202,12.7,12.7,43,0.00,,,0.00,VWS V14.01,2013-04-26 19:27:00,
2013-04-26 14:28:00,69.6,46.1,30.26,SSW,202,12.7,12.7,43,0.00,,,0.00,VWS V14.01,2013-04-26 19:28:00,
2013-04-26 14:29:00,69.2,46.4,30.26,SSW,202,21.2,21.2,44,0.00,,,0.00,VWS V14.01,2013-04-26 19:29:00,
2013-04-26 14:30:00,68.1,45.4,30.26,SSW,202,25.2,25.2,44,0.00,,,0.00,VWS V14.01,2013-04-26 19:30:00,
2013-04-26 14:31:00,68.1,46.0,30.26,SW,225,16.7,25.2,45,0.00,,,0.00,VWS V14.01,2013-04-26 19:31:00,
2013-04-26 14:32:00,68.1,46.0,30.26,SW,225,16.7,16.7,45,0.00,,,0.00,VWS V14.01,2013-04-26 19:32:00,
2013-04-26 14:33:00,68.1,46.0,30.26,SW,225,16.7,16.7,45,0.00,,,0.00,VWS V14.01,2013-04-26 19:33:00,
2013-04-26 14:34:00,68.7,46.5,30.26,SW,225,16.5,16.5,45,0.00,,,0.00,VWS V14.01,2013-04-26 19:34:00,
2013-04-26 14:35:00,69.4,47.2,30.26,SSW,202,21.0,21.0,45,0.00,,,0.00,VWS V14.01,2013-04-26 19:35:00,
2013-04-26 14:36:00,69.4,46.0,30.26,SSW,202,21.0,21.0,43,0.00,,,0.00,VWS V14.01,2013-04-26 19:36:00,
2013-04-26 14:37:00,69.4,46.0,30.26,SSW,202,21.0,21.0,43,0.00,,,0.00,VWS V14.01,2013-04-26 19:37:00,
2013-04-26 14:38:00,69.4,46.0,30.26,SSW,202,21.0,21.0,43,0.00,,,0.00,VWS V14.01,2013-04-26 19:38:00,
2013-04-26 14:39:00,68.7,45.9,30.26,SSW,202,22.1,22.1,44,0.00,,,0.00,VWS V14.01,2013-04-26 19:39:00,
2013-04-26 14:40:00,68.3,46.2,30.26,SW,225,12.9,22.1,45,0.00,,,0.00,VWS V14.01,2013-04-26 19:40:00,
2013-04-26 14:41:00,68.3,46.2,30.26,SW,225,12.9,12.9,45,0.00,,,0.00,VWS V14.01,2013-04-26 19:41:00,
2013-04-26 14:42:00,68.3,46.2,30.26,SSW,202,19.9,19.9,45,0.00,,,0.00,VWS V14.01,2013-04-26 19:42:00,
2013-04-26 14:43:00,68.3,46.2,30.26,SSW,202,19.9,19.9,45,0.00,,,0.00,VWS V14.01,2013-04-26 19:43:00,
2013-04-26 14:44:00,68.7,46.5,30.26,SSW,202,19.9,19.9,45,0.00,,,0.00,VWS V14.01,2013-04-26 19:44:00,
2013-04-26 14:45:00,68.7,45.9,30.26,SSW,202,13.4,19.9,44,0.00,,,0.00,VWS V14.01,2013-04-26 19:45:00,
2013-04-26 14:46:00,68.7,45.9,30.26,SSW,202,13.4,13.4,44,0.00,,,0.00,VWS V14.01,2013-04-26 19:46:00,
2013-04-26 14:47:00,68.5,45.8,30.26,SSW,202,14.5,14.5,44,0.00,,,0.00,VWS V14.01,2013-04-26 19:47:00,
2013-04-26 14:48:00,68.5,45.8,30.26,SSW,202,14.5,14.5,44,0.00,,,0.00,VWS V14.01,2013-04-26 19:48:00,
2013-04-26 14:49:00,68.3,45.6,30.26,SSW,202,21.4,21.4,44,0.00,,,0.00,VWS V14.01,2013-04-26 19:49:00,
2013-04-26 14:50:00,68.3,45.6,30.26,SSW,202,21.4,21.4,44,0.00,,,0.00,VWS V14.01,2013-04-26 19:50:00,
2013-04-26 14:51:00,68.7,45.9,30.26,SSW,202,23.9,23.9,44,0.00,,,0.00,VWS V14.01,2013-04-26 19:51:00,
2013-04-26 14:52:00,68.7,45.3,30.25,South,180,22.1,23.9,43,0.00,,,0.00,VWS V14.01,2013-04-26 19:52:00,
2013-04-26 14:53:00,68.7,45.3,30.25,South,180,22.1,22.1,43,0.00,,,0.00,VWS V14.01,2013-04-26 19:53:00,
2013-04-26 14:54:00,68.7,45.9,30.26,SSW,202,21.9,22.1,44,0.00,,,0.00,VWS V14.01,2013-04-26 19:54:00,
2013-04-26 14:55:00,68.7,45.9,30.25,SSW,202,21.9,21.9,44,0.00,,,0.00,VWS V14.01,2013-04-26 19:55:00,
2013-04-26 14:56:00,68.9,45.5,30.25,SW,225,13.8,21.9,43,0.00,,,0.00,VWS V14.01,2013-04-26 19:56:00,
2013-04-26 14:57:00,68.9,45.5,30.25,SW,225,13.8,13.8,43,0.00,,,0.00,VWS V14.01,2013-04-26 19:57:00,
2013-04-26 14:58:00,68.9,45.5,30.25,SW,225,13.8,13.8,43,0.00,,,0.00,VWS V14.01,2013-04-26 19:58:00,
2013-04-26 14:59:00,68.5,45.8,30.26,SW,225,15.2,15.2,44,0.00,,,0.00,VWS V14.01,2013-04-26 19:59:00,
2013-04-26 15:00:00,68.1,46.0,30.25,SSW,202,17.6,17.6,45,0.00,,,0.00,VWS V14.01,2013-04-26 20:00:00,
2013-04-26 15:01:00,68.1,46.0,30.25,SSW,202,17.6,17.6,45,0.00,,,0.00,VWS V14.01,2013-04-26 20:01:00,
2013-04-26 15:02:00,68.5,45.8,30.26,SSW,202,16.5,17.6,44,0.00,,,0.00,VWS V14.01,2013-04-26 20:02:00,
2013-04-26 15:03:00,68.5,45.8,30.26,SSW,202,16.5,16.5,44,0.00,,,0.00,VWS V14.01,2013-04-26 20:03:00,
2013-04-26 15:04:00,68.7,45.9,30.26,SSW,202,25.2,25.2,44,0.00,,,0.00,VWS V14.01,2013-04-26 20:04:00,
2013-04-26 15:05:00,68.5,46.3,30.25,SSW,202,15.4,25.2,45,0.00,,,0.00,VWS V14.01,2013-04-26 20:05:00,
2013-04-26 15:06:00,68.5,45.8,30.25,SSW,202,15.4,15.4,44,0.00,,,0.00,VWS V14.01,2013-04-26 20:06:00,
2013-04-26 15:07:00,68.5,45.8,30.26,SSW,202,15.4,15.4,44,0.00,,,0.00,VWS V14.01,2013-04-26 20:07:00,
2013-04-26 15:08:00,68.5,45.8,30.26,SSW,202,15.4,15.4,44,0.00,,,0.00,VWS V14.01,2013-04-26 20:08:00,
2013-04-26 15:09:00,68.5,46.3,30.25,SSW,202,14.5,14.5,45,0.00,,,0.00,VWS V14.01,2013-04-26 20:09:00,
2013-04-26 15:10:00,68.7,45.9,30.26,SSW,202,14.0,14.5,44,0.00,,,0.00,VWS V14.01,2013-04-26 20:10:00,
2013-04-26 15:11:00,68.7,45.9,30.25,SSW,202,14.0,14.0,44,0.00,,,0.00,VWS V14.01,2013-04-26 20:11:00,
2013-04-26 15:12:00,67.8,45.7,30.26,SSW,202,20.1,20.1,45,0.00,,,0.00,VWS V14.01,2013-04-26 20:12:00,
2013-04-26 15:13:00,67.8,45.7,30.26,SSW,202,20.1,20.1,45,0.00,,,0.00,VWS V14.01,2013-04-26 20:13:00,
2013-04-26 15:14:00,67.8,45.7,30.26,SSW,202,20.1,20.1,45,0.00,,,0.00,VWS V14.01,2013-04-26 20:14:00,
2013-04-26 15:15:00,67.2,46.9,30.26,SSW,202,21.9,21.9,48,0.00,,,0.00,VWS V14.01,2013-04-26 20:15:00,
2013-04-26 15:16:00,67.2,46.9,30.26,SSW,202,21.9,21.9,48,0.00,,,0.00,VWS V14.01,2013-04-26 20:16:00,
2013-04-26 15:17:00,67.6,45.5,30.26,SSW,202,20.1,21.9,45,0.00,,,0.00,VWS V14.01,2013-04-26 20:17:00,
2013-04-26 15:18:00,67.6,45.5,30.26,SSW,202,20.1,20.1,45,0.00,,,0.00,VWS V14.01,2013-04-26 20:18:00,
2013-04-26 15:19:00,67.6,45.5,30.26,SSW,202,29.7,29.7,45,0.00,,,0.00,VWS V14.01,2013-04-26 20:19:00,
2013-04-26 15:20:00,67.2,45.2,30.25,SSW,202,21.4,29.7,45,0.00,,,0.00,VWS V14.01,2013-04-26 20:20:00,
2013-04-26 15:21:00,67.2,45.2,30.26,SSW,202,21.4,21.4,45,0.00,,,0.00,VWS V14.01,2013-04-26 20:21:00,
2013-04-26 15:22:00,67.2,45.2,30.25,SSW,202,18.3,21.4,45,0.00,,,0.00,VWS V14.01,2013-04-26 20:22:00,
2013-04-26 15:23:00,67.2,45.2,30.25,SSW,202,18.3,18.3,45,0.00,,,0.00,VWS V14.01,2013-04-26 20:23:00,
2013-04-26 15:24:00,67.2,45.7,30.26,SW,225,19.0,19.0,46,0.00,,,0.00,VWS V14.01,2013-04-26 20:24:00,
2013-04-26 15:25:00,67.2,45.7,30.26,SW,225,19.0,19.0,46,0.00,,,0.00,VWS V14.01,2013-04-26 20:25:00,
2013-04-26 15:26:00,67.2,45.7,30.26,SSW,202,24.6,24.6,46,0.00,,,0.00,VWS V14.01,2013-04-26 20:26:00,
2013-04-26 15:27:00,66.3,44.3,30.26,SSW,202,25.2,25.2,45,0.00,,,0.00,VWS V14.01,2013-04-26 20:27:00,
2013-04-26 15:28:00,66.3,44.3,30.26,SSW,202,25.2,25.2,45,0.00,,,0.00,VWS V14.01,2013-04-26 20:28:00,
2013-04-26 15:29:00,66.3,44.3,30.26,SSW,202,18.3,18.3,45,0.00,,,0.00,VWS V14.01,2013-04-26 20:29:00,
2013-04-26 15:30:00,66.7,45.3,30.26,SSW,202,18.1,18.3,46,0.00,,,0.00,VWS V14.01,2013-04-26 20:30:00,
2013-04-26 15:31:00,66.7,45.3,30.25,SSW,202,18.1,18.1,46,0.00,,,0.00,VWS V14.01,2013-04-26 20:31:00,
2013-04-26 15:32:00,66.7,45.3,30.25,SSW,202,16.5,18.1,46,0.00,,,0.00,VWS V14.01,2013-04-26 20:32:00,
2013-04-26 15:33:00,66.7,45.3,30.25,SSW,202,16.5,16.5,46,0.00,,,0.00,VWS V14.01,2013-04-26 20:33:00,
2013-04-26 15:34:00,66.7,45.3,30.25,SSW,202,20.3,20.3,46,0.00,,,0.00,VWS V14.01,2013-04-26 20:34:00,
2013-04-26 15:35:00,66.0,44.7,30.25,SSW,202,20.3,20.3,46,0.00,,,0.00,VWS V14.01,2013-04-26 20:35:00,
2013-04-26 15:36:00,66.0,44.7,30.25,SSW,202,20.3,20.3,46,0.00,,,0.00,VWS V14.01,2013-04-26 20:36:00,
2013-04-26 15:37:00,66.3,45.5,30.25,SSW,202,16.7,16.7,47,0.00,,,0.00,VWS V14.01,2013-04-26 20:37:00,
2013-04-26 15:38:00,66.3,45.5,30.25,SSW,202,16.7,16.7,47,0.00,,,0.00,VWS V14.01,2013-04-26 20:38:00,
2013-04-26 15:39:00,66.9,46.0,30.26,SW,225,10.7,16.7,47,0.00,,,0.00,VWS V14.01,2013-04-26 20:39:00,
2013-04-26 15:40:00,66.9,46.0,30.25,SW,225,10.7,10.7,47,0.00,,,0.00,VWS V14.01,2013-04-26 20:40:00,
2013-04-26 15:41:00,66.9,46.0,30.25,SSW,202,19.0,19.0,47,0.00,,,0.00,VWS V14.01,2013-04-26 20:41:00,
2013-04-26 15:42:00,66.9,44.9,30.25,SSW,202,19.0,19.0,45,0.00,,,0.00,VWS V14.01,2013-04-26 20:42:00,
2013-04-26 15:43:00,66.9,44.9,30.25,SSW,202,19.0,19.0,45,0.00,,,0.00,VWS V14.01,2013-04-26 20:43:00,
2013-04-26 15:44:00,66.2,45.4,30.25,SSW,202,19.4,19.4,47,0.00,,,0.00,VWS V14.01,2013-04-26 20:44:00,
2013-04-26 15:45:00,66.2,45.4,30.25,SSW,202,19.4,19.4,47,0.00,,,0.00,VWS V14.01,2013-04-26 20:45:00,
2013-04-26 15:46:00,66.2,46.0,30.25,SSW,202,13.8,19.4,48,0.00,,,0.00,VWS V14.01,2013-04-26 20:46:00,
2013-04-26 15:47:00,66.2,46.0,30.25,SSW,202,13.8,13.8,48,0.00,,,0.00,VWS V14.01,2013-04-26 20:47:00,
2013-04-26 15:48:00,66.5,45.7,30.25,SSW,202,20.8,20.8,47,0.00,,,0.00,VWS V14.01,2013-04-26 20:48:00,
2013-04-26 15:49:00,66.5,45.7,30.25,SSW,202,20.8,20.8,47,0.00,,,0.00,VWS V14.01,2013-04-26 20:49:00,
2013-04-26 15:50:00,66.3,46.0,30.25,SSW,202,17.6,20.8,48,0.00,,,0.00,VWS V14.01,2013-04-26 20:50:00,
2013-04-26 15:51:00,66.3,46.0,30.25,SSW,202,17.6,17.6,48,0.00,,,0.00,VWS V14.01,2013-04-26 20:51:00,
2013-04-26 15:52:00,66.0,45.8,30.25,SSW,202,17.6,17.6,48,0.00,,,0.00,VWS V14.01,2013-04-26 20:52:00,
2013-04-26 15:53:00,66.0,45.8,30.25,SSW,202,17.6,17.6,48,0.00,,,0.00,VWS V14.01,2013-04-26 20:53:00,
2013-04-26 15:54:00,65.8,45.6,30.25,SSW,202,13.6,13.6,48,0.00,,,0.00,VWS V14.01,2013-04-26 20:54:00,
2013-04-26 15:55:00,65.8,45.0,30.24,SSW,202,19.0,19.0,47,0.00,,,0.00,VWS V14.01,2013-04-26 20:55:00,
2013-04-26 15:56:00,65.8,45.0,30.25,SSW,202,19.0,19.0,47,0.00,,,0.00,VWS V14.01,2013-04-26 20:56:00,
2013-04-26 15:57:00,65.6,45.4,30.25,SSW,202,11.8,19.0,48,0.00,,,0.00,VWS V14.01,2013-04-26 20:57:00,
2013-04-26 15:58:00,65.6,45.4,30.25,SSW,202,11.8,11.8,48,0.00,,,0.00,VWS V14.01,2013-04-26 20:58:00,
2013-04-26 15:59:00,66.0,46.3,30.25,SSW,202,20.5,20.5,49,0.00,,,0.00,VWS V14.01,2013-04-26 20:59:00,
2013-04-26 16:00:00,66.0,46.3,30.25,SSW,202,20.5,20.5,49,0.00,,,0.00,VWS V14.01,2013-04-26 21:00:00,
2013-04-26 16:01:00,66.3,45.5,30.25,SW,225,13.6,20.5,47,0.00,,,0.00,VWS V14.01,2013-04-26 21:01:00,
2013-04-26 16:02:00,66.3,45.5,30.25,SW,225,13.6,13.6,47,0.00,,,0.00,VWS V14.01,2013-04-26 21:02:00,
2013-04-26 16:03:00,66.7,45.8,30.25,SSW,202,21.6,21.6,47,0.00,,,0.00,VWS V14.01,2013-04-26 21:03:00,
2013-04-26 16:04:00,66.7,45.8,30.25,SSW,202,21.6,21.6,47,0.00,,,0.00,VWS V14.01,2013-04-26 21:04:00,
2013-04-26 16:05:00,67.1,45.7,30.25,SW,225,18.1,21.6,46,0.00,,,0.00,VWS V14.01,2013-04-26 21:05:00,
2013-04-26 16:06:00,67.1,45.7,30.25,SW,225,18.1,18.1,46,0.00,,,0.00,VWS V14.01,2013-04-26 21:06:00,
2013-04-26 16:07:00,67.1,45.7,30.25,SW,225,18.1,18.1,46,0.00,,,0.00,VWS V14.01,2013-04-26 21:07:00,
2013-04-26 16:08:00,66.9,45.5,30.25,WSW,248,12.0,18.1,46,0.00,,,0.00,VWS V14.01,2013-04-26 21:08:00,
2013-04-26 16:09:00,66.9,45.5,30.25,WSW,248,12.0,12.0,46,0.00,,,0.00,VWS V14.01,2013-04-26 21:09:00,
2013-04-26 16:10:00,66.9,46.0,30.25,SSW,202,19.2,19.2,47,0.00,,,0.00,VWS V14.01,2013-04-26 21:10:00,
2013-04-26 16:11:00,66.9,46.0,30.25,SSW,202,19.2,19.2,47,0.00,,,0.00,VWS V14.01,2013-04-26 21:11:00,
2013-04-26 16:12:00,66.9,46.0,30.25,SW,225,11.6,11.6,47,0.00,,,0.00,VWS V14.01,2013-04-26 21:12:00,
2013-04-26 16:13:00,66.9,46.0,30.25,SW,225,11.6,11.6,47,0.00,,,0.00,VWS V14.01,2013-04-26 21:13:00,
2013-04-26 16:14:00,67.2,46.3,30.25,SW,225,16.5,16.5,47,0.00,,,0.00,VWS V14.01,2013-04-26 21:14:00,
2013-04-26 16:15:00,67.2,46.3,30.25,SW,225,16.5,16.5,47,0.00,,,0.00,VWS V14.01,2013-04-26 21:15:00,
2013-04-26 16:16:00,67.2,45.2,30.25,SSW,202,17.8,17.8,45,0.00,,,0.00,VWS V14.01,2013-04-26 21:16:00,
2013-04-26 16:17:00,67.2,45.2,30.25,SSW,202,17.8,17.8,45,0.00,,,0.00,VWS V14.01,2013-04-26 21:17:00,
2013-04-26 16:18:00,67.2,45.2,30.25,SSW,202,17.8,17.8,45,0.00,,,0.00,VWS V14.01,2013-04-26 21:18:00,
2013-04-26 16:19:00,67.2,45.7,30.25,SSW,202,19.6,19.6,46,0.00,,,0.00,VWS V14.01,2013-04-26 21:19:00,
2013-04-26 16:20:00,67.2,45.7,30.25,SSW,202,19.6,19.6,46,0.00,,,0.00,VWS V14.01,2013-04-26 21:20:00,
2013-04-26 16:21:00,67.1,46.2,30.25,South,180,13.6,19.6,47,0.00,,,0.00,VWS V14.01,2013-04-26 21:21:00,
2013-04-26 16:22:00,67.1,46.2,30.25,South,180,13.6,13.6,47,0.00,,,0.00,VWS V14.01,2013-04-26 21:22:00,
2013-04-26 16:23:00,67.1,46.2,30.25,WSW,248,14.7,14.7,47,0.00,,,0.00,VWS V14.01,2013-04-26 21:23:00,
2013-04-26 16:24:00,67.1,46.2,30.25,WSW,248,14.7,14.7,47,0.00,,,0.00,VWS V14.01,2013-04-26 21:24:00,
2013-04-26 16:25:00,66.9,46.0,30.25,WSW,248,14.7,14.7,47,0.00,,,0.00,VWS V14.01,2013-04-26 21:25:00,
2013-04-26 16:26:00,66.9,46.0,30.25,SSW,202,16.3,16.3,47,0.00,,,0.00,VWS V14.01,2013-04-26 21:26:00,
2013-04-26 16:27:00,67.2,46.9,30.25,SSW,202,20.3,20.3,48,0.00,,,0.00,VWS V14.01,2013-04-26 21:27:00,
2013-04-26 16:28:00,67.2,46.9,30.25,SSW,202,20.3,20.3,48,0.00,,,0.00,VWS V14.01,2013-04-26 21:28:00,
2013-04-26 16:29:00,67.2,46.9,30.24,SSW,202,20.3,20.3,48,0.00,,,0.00,VWS V14.01,2013-04-26 21:29:00,
2013-04-26 16:30:00,67.6,46.7,30.24,SSW,202,14.5,20.3,47,0.00,,,0.00,VWS V14.01,2013-04-26 21:30:00,
2013-04-26 16:31:00,67.6,46.7,30.24,SSW,202,14.5,14.5,47,0.00,,,0.00,VWS V14.01,2013-04-26 21:31:00,
2013-04-26 16:32:00,66.7,45.3,30.24,SSW,202,20.8,20.8,46,0.00,,,0.00,VWS V14.01,2013-04-26 21:32:00,
2013-04-26 16:33:00,66.7,45.3,30.24,SSW,202,20.8,20.8,46,0.00,,,0.00,VWS V14.01,2013-04-26 21:33:00,
2013-04-26 16:34:00,66.5,46.2,30.25,SW,225,11.6,20.8,48,0.00,,,0.00,VWS V14.01,2013-04-26 21:34:00,
2013-04-26 16:35:00,66.5,46.2,30.25,SW,225,11.6,11.6,48,0.00,,,0.00,VWS V14.01,2013-04-26 21:35:00,
2013-04-26 16:36:00,67.1,46.2,30.25,SSW,202,14.3,14.3,47,0.00,,,0.00,VWS V14.01,2013-04-26 21:36:00,
2013-04-26 16:37:00,67.1,46.2,30.24,SSW,202,14.3,14.3,47,0.00,,,0.00,VWS V14.01,2013-04-26 21:37:00,
2013-04-26 16:38:00,66.9,46.0,30.25,SW,225,15.6,15.6,47,0.00,,,0.00,VWS V14.01,2013-04-26 21:38:00,
2013-04-26 16:39:00,66.9,46.0,30.25,SW,225,15.6,15.6,47,0.00,,,0.00,VWS V14.01,2013-04-26 21:39:00,
2013-04-26 16:40:00,66.9,46.6,30.25,SW,225,15.6,15.6,48,0.00,,,0.00,VWS V14.01,2013-04-26 21:40:00,
2013-04-26 16:41:00,66.7,46.4,30.25,SSW,202,13.6,15.6,48,0.00,,,0.00,VWS V14.01,2013-04-26 21:41:00,
2013-04-26 16:42:00,66.7,46.4,30.25,SSW,202,13.6,13.6,48,0.00,,,0.00,VWS V14.01,2013-04-26 21:42:00,
2013-04-26 16:43:00,66.0,45.8,30.25,SSW,202,22.3,22.3,48,0.00,,,0.00,VWS V14.01,2013-04-26 21:43:00,
2013-04-26 16:44:00,66.0,45.8,30.25,SSW,202,22.3,22.3,48,0.00,,,0.00,VWS V14.01,2013-04-26 21:44:00,
2013-04-26 16:45:00,65.8,46.1,30.25,SSW,202,16.1,22.3,49,0.00,,,0.00,VWS V14.01,2013-04-26 21:45:00,
2013-04-26 16:46:00,65.8,46.1,30.25,SSW,202,16.1,16.1,49,0.00,,,0.00,VWS V14.01,2013-04-26 21:46:00,
2013-04-26 16:47:00,66.2,45.4,30.25,SSW,202,22.1,22.1,47,0.00,,,0.00,VWS V14.01,2013-04-26 21:47:00,
2013-04-26 16:48:00,66.2,45.4,30.25,SSW,202,22.1,22.1,47,0.00,,,0.00,VWS V14.01,2013-04-26 21:48:00,
2013-04-26 16:49:00,66.3,46.0,30.25,SSW,202,15.8,22.1,48,0.00,,,0.00,VWS V14.01,2013-04-26 21:49:00,
2013-04-26 16:50:00,66.3,46.0,30.25,SSW,202,15.8,15.8,48,0.00,,,0.00,VWS V14.01,2013-04-26 21:50:00,
2013-04-26 16:51:00,66.7,47.0,30.25,SSW,202,12.0,15.8,49,0.00,,,0.00,VWS V14.01,2013-04-26 21:51:00,
2013-04-26 16:52:00,66.7,47.0,30.25,SSW,202,12.0,12.0,49,0.00,,,0.00,VWS V14.01,2013-04-26 21:52:00,
2013-04-26 16:53:00,67.1,46.8,30.25,SSW,202,17.0,17.0,48,0.00,,,0.00,VWS V14.01,2013-04-26 21:53:00,
2013-04-26 16:54:00,67.1,46.8,30.25,SSW,202,17.0,17.0,48,0.00,,,0.00,VWS V14.01,2013-04-26 21:54:00,
2013-04-26 16:55:00,67.2,46.9,30.26,SW,225,13.6,17.0,48,0.00,,,0.00,VWS V14.01,2013-04-26 21:55:00,
2013-04-26 16:56:00,67.2,46.9,30.25,SW,225,13.6,13.6,48,0.00,,,0.00,VWS V14.01,2013-04-26 21:56:00,
2013-04-26 16:57:00,67.2,46.9,30.25,SSW,202,18.5,18.5,48,0.00,,,0.00,VWS V14.01,2013-04-26 21:57:00,
2013-04-26 16:58:00,67.1,45.7,30.25,SSW,202,18.5,18.5,46,0.00,,,0.00,VWS V14.01,2013-04-26 21:58:00,
2013-04-26 16:59:00,67.1,45.7,30.25,SSW,202,18.5,18.5,46,0.00,,,0.00,VWS V14.01,2013-04-26 21:59:00,
2013-04-26 17:00:00,66.2,45.4,30.25,SSW,202,21.4,21.4,47,0.00,,,0.00,VWS V14.01,2013-04-26 22:00:00,
2013-04-26 17:01:00,66.2,45.4,30.25,SSW,202,21.4,21.4,47,0.00,,,0.00,VWS V14.01,2013-04-26 22:01:00,
2013-04-26 17:02:00,65.3,45.1,30.25,SSW,202,21.4,21.4,48,0.00,,,0.00,VWS V14.01,2013-04-26 22:02:00,
2013-04-26 17:03:00,65.1,45.5,30.25,SSW,202,21.4,21.4,49,0.00,,,0.00,VWS V14.01,2013-04-26 22:03:00,
2013-04-26 17:04:00,64.5,45.5,30.25,SSW,202,15.4,21.4,50,0.00,,,0.00,VWS V14.01,2013-04-26 22:04:00,
2013-04-26 17:05:00,64.5,45.5,30.25,SSW,202,15.4,15.4,50,0.00,,,0.00,VWS V14.01,2013-04-26 22:05:00,
2013-04-26 17:06:00,64.5,45.5,30.25,SSW,202,15.4,15.4,50,0.00,,,0.00,VWS V14.01,2013-04-26 22:06:00,
2013-04-26 17:07:00,64.5,45.5,30.25,SSW,202,17.4,17.4,50,0.00,,,0.00,VWS V14.01,2013-04-26 22:07:00,
2013-04-26 17:08:00,64.5,45.5,30.25,SSW,202,17.4,17.4,50,0.00,,,0.00,VWS V14.01,2013-04-26 22:08:00,
2013-04-26 17:09:00,65.1,46.0,30.26,SSW,202,19.9,19.9,50,0.00,,,0.00,VWS V14.01,2013-04-26 22:09:00,
2013-04-26 17:10:00,65.1,46.0,30.25,SSW,202,19.9,19.9,50,0.00,,,0.00,VWS V14.01,2013-04-26 22:10:00,
2013-04-26 17:11:00,66.0,46.8,30.25,SSW,202,10.7,19.9,50,0.00,,,0.00,VWS V14.01,2013-04-26 22:11:00,
2013-04-26 17:12:00,66.0,46.8,30.25,SSW,202,10.7,10.7,50,0.00,,,0.00,VWS V14.01,2013-04-26 22:12:00,
2013-04-26 17:13:00,66.0,46.3,30.25,SW,225,21.0,21.0,49,0.00,,,0.00,VWS V14.01,2013-04-26 22:13:00,
2013-04-26 17:14:00,66.0,46.3,30.25,SW,225,21.0,21.0,49,0.00,,,0.00,VWS V14.01,2013-04-26 22:14:00,
2013-04-26 17:15:00,65.3,46.2,30.25,SSW,202,13.4,21.0,50,0.00,,,0.00,VWS V14.01,2013-04-26 22:15:00,
2013-04-26 17:16:00,65.3,46.2,30.26,SSW,202,13.4,13.4,50,0.00,,,0.00,VWS V14.01,2013-04-26 22:16:00,
2013-04-26 17:17:00,64.9,45.8,30.25,SW,225,15.8,15.8,50,0.00,,,0.00,VWS V14.01,2013-04-26 22:17:00,
2013-04-26 17:18:00,64.9,45.8,30.25,SW,225,15.8,15.8,50,0.00,,,0.00,VWS V14.01,2013-04-26 22:18:00,
2013-04-26 17:19:00,65.3,46.2,30.26,SSW,202,11.8,15.8,50,0.00,,,0.00,VWS V14.01,2013-04-26 22:19:00,
2013-04-26 17:20:00,65.3,46.2,30.25,SSW,202,11.8,11.8,50,0.00,,,0.00,VWS V14.01,2013-04-26 22:20:00,
2013-04-26 17:21:00,65.3,46.2,30.25,SSW,202,11.8,11.8,50,0.00,,,0.00,VWS V14.01,2013-04-26 22:21:00,
2013-04-26 17:22:00,65.8,46.1,30.25,SW,225,19.4,19.4,49,0.00,,,0.00,VWS V14.01,2013-04-26 22:22:00,
2013-04-26 17:23:00,65.8,46.1,30.26,SW,225,19.4,19.4,49,0.00,,,0.00,VWS V14.01,2013-04-26 22:23:00,
2013-04-26 17:24:00,66.0,46.3,30.25,SSW,202,16.7,19.4,49,0.00,,,0.00,VWS V14.01,2013-04-26 22:24:00,
2013-04-26 17:25:00,66.0,46.3,30.26,SSW,202,16.7,16.7,49,0.00,,,0.00,VWS V14.01,2013-04-26 22:25:00,
2013-04-26 17:26:00,66.0,45.8,30.26,SSW,202,17.4,17.4,48,0.00,,,0.00,VWS V14.01,2013-04-26 22:26:00,
2013-04-26 17:27:00,66.0,45.8,30.26,SSW,202,17.4,17.4,48,0.00,,,0.00,VWS V14.01,2013-04-26 22:27:00,
2013-04-26 17:28:00,66.0,46.3,30.26,South,180,15.6,17.4,49,0.00,,,0.00,VWS V14.01,2013-04-26 22:28:00,
2013-04-26 17:29:00,66.0,46.3,30.26,South,180,15.6,15.6,49,0.00,,,0.00,VWS V14.01,2013-04-26 22:29:00,
2013-04-26 17:30:00,65.8,46.1,30.26,SSW,202,17.2,17.2,49,0.00,,,0.00,VWS V14.01,2013-04-26 22:30:00,
2013-04-26 17:31:00,65.8,46.1,30.26,SSW,202,17.2,17.2,49,0.00,,,0.00,VWS V14.01,2013-04-26 22:31:00,
2013-04-26 17:32:00,65.6,46.0,30.26,SSW,202,22.1,22.1,49,0.00,,,0.00,VWS V14.01,2013-04-26 22:32:00,
2013-04-26 17:33:00,65.6,46.0,30.26,SSW,202,22.1,22.1,49,0.00,,,0.00,VWS V14.01,2013-04-26 22:33:00,
2013-04-26 17:34:00,65.4,45.8,30.26,SSW,202,20.8,22.1,49,0.00,,,0.00,VWS V14.01,2013-04-26 22:34:00,
2013-04-26 17:35:00,65.4,45.8,30.26,SSW,202,20.8,20.8,49,0.00,,,0.00,VWS V14.01,2013-04-26 22:35:00,
2013-04-26 17:36:00,65.4,45.8,30.26,SSW,202,20.8,20.8,49,0.00,,,0.00,VWS V14.01,2013-04-26 22:36:00,
2013-04-26 17:37:00,65.8,46.1,30.26,SW,225,13.1,13.1,49,0.00,,,0.00,VWS V14.01,2013-04-26 22:37:00,
2013-04-26 17:38:00,65.8,46.1,30.26,SW,225,13.1,13.1,49,0.00,,,0.00,VWS V14.01,2013-04-26 22:38:00,
2013-04-26 17:39:00,65.6,46.0,30.26,SSW,202,19.6,19.6,49,0.00,,,0.00,VWS V14.01,2013-04-26 22:39:00,
2013-04-26 17:40:00,65.6,46.0,30.26,SSW,202,19.6,19.6,49,0.00,,,0.00,VWS V14.01,2013-04-26 22:40:00,
2013-04-26 17:41:00,65.4,45.8,30.26,SSW,202,9.8,19.6,49,0.00,,,0.00,VWS V14.01,2013-04-26 22:41:00,
2013-04-26 17:42:00,65.4,45.8,30.26,SSW,202,9.8,9.8,49,0.00,,,0.00,VWS V14.01,2013-04-26 22:42:00,
2013-04-26 17:43:00,65.4,45.8,30.26,SSW,202,16.5,16.5,49,0.00,,,0.00,VWS V14.01,2013-04-26 22:43:00,
2013-04-26 17:44:00,65.4,45.8,30.26,SSW,202,16.5,16.5,49,0.00,,,0.00,VWS V14.01,2013-04-26 22:44:00,
2013-04-26 17:45:00,65.3,45.1,30.26,SW,225,21.4,21.4,48,0.00,,,0.00,VWS V14.01,2013-04-26 22:45:00,
2013-04-26 17:46:00,65.3,45.1,30.26,SW,225,21.4,21.4,48,0.00,,,0.00,VWS V14.01,2013-04-26 22:46:00,
2013-04-26 17:47:00,65.1,45.5,30.26,South,180,25.9,25.9,49,0.00,,,0.00,VWS V14.01,2013-04-26 22:47:00,
2013-04-26 17:48:00,65.1,45.5,30.26,SSW,202,20.8,25.9,49,0.00,,,0.00,VWS V14.01,2013-04-26 22:48:00,
2013-04-26 17:49:00,65.1,45.5,30.26,SSW,202,20.8,20.8,49,0.00,,,0.00,VWS V14.01,2013-04-26 22:49:00,
2013-04-26 17:50:00,64.9,45.3,30.26,SSW,202,20.1,20.8,49,0.00,,,0.00,VWS V14.01,2013-04-26 22:50:00,
2013-04-26 17:51:00,64.9,45.3,30.26,SSW,202,20.1,20.1,49,0.00,,,0.00,VWS V14.01,2013-04-26 22:51:00,
2013-04-26 17:52:00,64.9,45.3,30.26,SSW,202,15.4,15.4,49,0.00,,,0.00,VWS V14.01,2013-04-26 22:52:00,
2013-04-26 17:53:00,64.9,45.3,30.26,SSW,202,15.4,15.4,49,0.00,,,0.00,VWS V14.01,2013-04-26 22:53:00,
2013-04-26 17:54:00,65.1,44.9,30.26,SSW,202,8.9,15.4,48,0.00,,,0.00,VWS V14.01,2013-04-26 22:54:00,
2013-04-26 17:55:00,65.1,44.9,30.26,SSW,202,8.9,8.9,48,0.00,,,0.00,VWS V14.01,2013-04-26 22:55:00,
2013-04-26 17:56:00,65.1,44.9,30.26,SSW,202,20.1,20.1,48,0.00,,,0.00,VWS V14.01,2013-04-26 22:56:00,
2013-04-26 17:57:00,65.1,44.9,30.26,SSW,202,20.1,20.1,48,0.00,,,0.00,VWS V14.01,2013-04-26 22:57:00,
2013-04-26 17:58:00,65.1,44.9,30.26,SSW,202,27.5,27.5,48,0.00,,,0.00,VWS V14.01,2013-04-26 22:58:00,
2013-04-26 17:59:00,64.9,44.8,30.26,SSW,202,15.8,27.5,48,0.00,,,0.00,VWS V14.01,2013-04-26 22:59:00,
2013-04-26 18:00:00,64.9,44.8,30.26,SSW,202,15.8,15.8,48,0.00,,,0.00,VWS V14.01,2013-04-26 23:00:00,
2013-04-26 18:01:00,64.7,45.1,30.26,SW,225,16.1,16.1,49,0.00,,,0.00,VWS V14.01,2013-04-26 23:01:00,
2013-04-26 18:02:00,64.7,45.1,30.26,SW,225,16.1,16.1,49,0.00,,,0.00,VWS V14.01,2013-04-26 23:02:00,
2013-04-26 18:03:00,64.7,45.1,30.26,SW,225,19.2,19.2,49,0.00,,,0.00,VWS V14.01,2013-04-26 23:03:00,
2013-04-26 18:04:00,64.7,44.6,30.26,SW,225,19.2,19.2,48,0.00,,,0.00,VWS V14.01,2013-04-26 23:04:00,
2013-04-26 18:05:00,64.7,45.1,30.26,SW,225,15.2,19.2,49,0.00,,,0.00,VWS V14.01,2013-04-26 23:05:00,
2013-04-26 18:06:00,64.7,45.1,30.26,SW,225,15.2,15.2,49,0.00,,,0.00,VWS V14.01,2013-04-26 23:06:00,
2013-04-26 18:07:00,64.7,45.1,30.26,SW,225,15.2,15.2,49,0.00,,,0.00,VWS V14.01,2013-04-26 23:07:00,
2013-04-26 18:08:00,64.7,45.1,30.26,SSW,202,16.5,16.5,49,0.00,,,0.00,VWS V14.01,2013-04-26 23:08:00,
2013-04-26 18:09:00,64.7,45.1,30.26,SSW,202,16.5,16.5,49,0.00,,,0.00,VWS V14.01,2013-04-26 23:09:00,
2013-04-26 18:10:00,64.9,45.8,30.27,SSW,202,9.3,16.5,50,0.00,,,0.00,VWS V14.01,2013-04-26 23:10:00,
2013-04-26 18:11:00,64.9,45.8,30.26,SSW,202,9.3,9.3,50,0.00,,,0.00,VWS V14.01,2013-04-26 23:11:00,
2013-04-26 18:12:00,64.9,45.8,30.26,SSW,202,9.3,9.3,50,0.00,,,0.00,VWS V14.01,2013-04-26 23:12:00,
2013-04-26 18:13:00,65.1,46.0,30.27,SSW,202,7.8,7.8,50,0.00,,,0.00,VWS V14.01,2013-04-26 23:13:00,
2013-04-26 18:14:00,65.4,45.8,30.26,SSW,202,12.9,12.9,49,0.00,,,0.00,VWS V14.01,2013-04-26 23:14:00,
2013-04-26 18:15:00,65.4,45.8,30.27,SSW,202,12.9,12.9,49,0.00,,,0.00,VWS V14.01,2013-04-26 23:15:00,
2013-04-26 18:16:00,65.4,46.3,30.27,WSW,248,9.3,12.9,50,0.00,,,0.00,VWS V14.01,2013-04-26 23:16:00,
2013-04-26 18:17:00,65.4,46.3,30.27,WSW,248,9.3,9.3,50,0.00,,,0.00,VWS V14.01,2013-04-26 23:17:00,
2013-04-26 18:18:00,65.3,46.2,30.27,SSW,202,17.6,17.6,50,0.00,,,0.00,VWS V14.01,2013-04-26 23:18:00,
2013-04-26 18:19:00,65.3,46.2,30.27,SSW,202,17.6,17.6,50,0.00,,,0.00,VWS V14.01,2013-04-26 23:19:00,
2013-04-26 18:20:00,65.3,46.2,30.26,SSW,202,11.8,17.6,50,0.00,,,0.00,VWS V14.01,2013-04-26 23:20:00,
2013-04-26 18:21:00,65.1,46.0,30.26,SSW,202,11.8,11.8,50,0.00,,,0.00,VWS V14.01,2013-04-26 23:21:00,
2013-04-26 18:22:00,65.1,46.0,30.26,SSW,202,11.8,11.8,50,0.00,,,0.00,VWS V14.01,2013-04-26 23:22:00,
2013-04-26 18:23:00,64.7,45.7,30.26,SSW,202,18.7,18.7,50,0.00,,,0.00,VWS V14.01,2013-04-26 23:23:00,
2013-04-26 18:24:00,64.7,45.7,30.26,SSW,202,18.7,18.7,50,0.00,,,0.00,VWS V14.01,2013-04-26 23:24:00,
2013-04-26 18:25:00,64.7,46.2,30.27,SSW,202,12.3,18.7,51,0.00,,,0.00,VWS V14.01,2013-04-26 23:25:00,
2013-04-26 18:26:00,64.7,46.2,30.27,SSW,202,12.3,12.3,51,0.00,,,0.00,VWS V14.01,2013-04-26 23:26:00,
2013-04-26 18:27:00,64.7,46.2,30.27,SSW,202,12.3,12.3,51,0.00,,,0.00,VWS V14.01,2013-04-26 23:27:00,
2013-04-26 18:28:00,64.9,46.4,30.27,SSW,202,11.8,11.8,51,0.00,,,0.00,VWS V14.01,2013-04-26 23:28:00,
2013-04-26 18:29:00,64.9,46.9,30.27,SSW,202,12.9,12.9,52,0.00,,,0.00,VWS V14.01,2013-04-26 23:29:00,
2013-04-26 18:30:00,64.9,46.9,30.27,SSW,202,12.9,12.9,52,0.00,,,0.00,VWS V14.01,2013-04-26 23:30:00,
2013-04-26 18:31:00,64.5,46.0,30.27,SSW,202,19.6,19.6,51,0.00,,,0.00,VWS V14.01,2013-04-26 23:31:00,
2013-04-26 18:32:00,64.5,46.0,30.27,SSW,202,19.6,19.6,51,0.00,,,0.00,VWS V14.01,2013-04-26 23:32:00,
2013-04-26 18:33:00,64.0,46.5,30.27,SSW,202,19.6,19.6,53,0.00,,,0.00,VWS V14.01,2013-04-26 23:33:00,
2013-04-26 18:34:00,64.0,46.5,30.27,SSW,202,19.6,19.6,53,0.00,,,0.00,VWS V14.01,2013-04-26 23:34:00,
2013-04-26 18:35:00,63.3,46.4,30.27,SSW,202,22.3,22.3,54,0.00,,,0.00,VWS V14.01,2013-04-26 23:35:00,
2013-04-26 18:36:00,63.3,46.4,30.27,SSW,202,22.3,22.3,54,0.00,,,0.00,VWS V14.01,2013-04-26 23:36:00,
2013-04-26 18:37:00,63.3,46.4,30.27,SSW,202,22.3,22.3,54,0.00,,,0.00,VWS V14.01,2013-04-26 23:37:00,
2013-04-26 18:38:00,62.7,45.8,30.27,SSW,202,14.5,22.3,54,0.00,,,0.00,VWS V14.01,2013-04-26 23:38:00,
2013-04-26 18:39:00,62.7,45.8,30.27,SSW,202,14.5,14.5,54,0.00,,,0.00,VWS V14.01,2013-04-26 23:39:00,
2013-04-26 18:40:00,62.6,46.2,30.27,SSW,202,18.5,18.5,55,0.00,,,0.00,VWS V14.01,2013-04-26 23:40:00,
2013-04-26 18:41:00,62.6,46.2,30.27,SSW,202,18.5,18.5,55,0.00,,,0.00,VWS V14.01,2013-04-26 23:41:00,
2013-04-26 18:42:00,62.6,46.2,30.27,SSW,202,18.5,18.5,55,0.00,,,0.00,VWS V14.01,2013-04-26 23:42:00,
2013-04-26 18:43:00,62.4,46.0,30.27,South,180,13.1,13.1,55,0.00,,,0.00,VWS V14.01,2013-04-26 23:43:00,
2013-04-26 18:44:00,62.0,45.7,30.27,SSW,202,14.0,14.0,55,0.00,,,0.00,VWS V14.01,2013-04-26 23:44:00,
2013-04-26 18:45:00,62.0,45.7,30.27,SSW,202,14.0,14.0,55,0.00,,,0.00,VWS V14.01,2013-04-26 23:45:00,
2013-04-26 18:46:00,62.0,46.1,30.27,SSW,202,16.3,16.3,56,0.00,,,0.00,VWS V14.01,2013-04-26 23:46:00,
2013-04-26 18:47:00,62.0,46.1,30.28,SSW,202,16.3,16.3,56,0.00,,,0.00,VWS V14.01,2013-04-26 23:47:00,
2013-04-26 18:48:00,62.0,46.1,30.28,South,180,12.0,16.3,56,0.00,,,0.00,VWS V14.01,2013-04-26 23:48:00,
2013-04-26 18:49:00,62.0,46.1,30.27,South,180,12.0,12.0,56,0.00,,,0.00,VWS V14.01,2013-04-26 23:49:00,
2013-04-26 18:50:00,61.8,46.0,30.27,SSW,202,19.0,19.0,56,0.00,,,0.00,VWS V14.01,2013-04-26 23:50:00,
2013-04-26 18:51:00,61.8,46.0,30.27,SSW,202,19.0,19.0,56,0.00,,,0.00,VWS V14.01,2013-04-26 23:51:00,
2013-04-26 18:52:00,61.8,46.0,30.27,SSW,202,19.0,19.0,56,0.00,,,0.00,VWS V14.01,2013-04-26 23:52:00,
2013-04-26 18:53:00,61.7,46.3,30.28,SSW,202,12.9,19.0,57,0.00,,,0.00,VWS V14.01,2013-04-26 23:53:00,
2013-04-26 18:54:00,61.7,46.3,30.28,SSW,202,12.9,12.9,57,0.00,,,0.00,VWS V14.01,2013-04-26 23:54:00,
2013-04-26 18:55:00,61.5,46.1,30.27,SSW,202,14.9,14.9,57,0.00,,,0.00,VWS V14.01,2013-04-26 23:55:00,
2013-04-26 18:56:00,61.5,46.1,30.28,SSW,202,14.9,14.9,57,0.00,,,0.00,VWS V14.01,2013-04-26 23:56:00,
2013-04-26 18:57:00,61.5,46.1,30.28,SSW,202,20.1,20.1,57,0.00,,,0.00,VWS V14.01,2013-04-26 23:57:00,
2013-04-26 18:58:00,61.5,46.1,30.28,SSW,202,20.1,20.1,57,0.00,,,0.00,VWS V14.01,2013-04-26 23:58:00,
2013-04-26 18:59:00,61.5,46.6,30.28,South,180,21.2,21.2,58,0.00,,,0.00,VWS V14.01,2013-04-26 23:59:00,
2013-04-26 19:00:00,61.5,46.6,30.28,South,180,21.2,21.2,58,0.00,,,0.00,VWS V14.01,2013-04-27 00:00:00,
2013-04-26 19:01:00,61.3,46.4,30.28,South,180,17.2,21.2,58,0.00,,,0.00,VWS V14.01,2013-04-27 00:01:00,
2013-04-26 19:02:00,61.3,46.4,30.28,South,180,17.2,17.2,58,0.00,,,0.00,VWS V14.01,2013-04-27 00:02:00,
2013-04-26 19:03:00,61.3,46.9,30.28,SSW,202,16.7,17.2,59,0.00,,,0.00,VWS V14.01,2013-04-27 00:03:00,
2013-04-26 19:04:00,61.1,46.7,30.28,SSW,202,16.7,16.7,59,0.00,,,0.00,VWS V14.01,2013-04-27 00:04:00,
2013-04-26 19:05:00,61.1,46.7,30.28,SSW,202,16.7,16.7,59,0.00,,,0.00,VWS V14.01,2013-04-27 00:05:00,
2013-04-26 19:06:00,60.9,46.5,30.28,SSW,202,12.7,12.7,59,0.00,,,0.00,VWS V14.01,2013-04-27 00:06:00,
2013-04-26 19:07:00,60.9,46.5,30.28,SSW,202,12.7,12.7,59,0.00,,,0.00,VWS V14.01,2013-04-27 00:07:00,
2013-04-26 19:08:00,60.8,46.4,30.28,SSW,202,14.7,14.7,59,0.00,,,0.00,VWS V14.01,2013-04-27 00:08:00,
2013-04-26 19:09:00,60.8,46.4,30.28,SSW,202,14.7,14.7,59,0.00,,,0.00,VWS V14.01,2013-04-27 00:09:00,
2013-04-26 19:10:00,60.8,46.4,30.28,SSW,202,14.7,14.7,59,0.00,,,0.00,VWS V14.01,2013-04-27 00:10:00,
2013-04-26 19:11:00,60.6,46.7,30.28,SSW,202,12.9,12.9,60,0.00,,,0.00,VWS V14.01,2013-04-27 00:11:00,
2013-04-26 19:12:00,60.6,46.7,30.28,SSW,202,19.9,19.9,60,0.00,,,0.00,VWS V14.01,2013-04-27 00:12:00,
2013-04-26 19:13:00,60.6,46.7,30.28,SSW,202,19.9,19.9,60,0.00,,,0.00,VWS V14.01,2013-04-27 00:13:00,
2013-04-26 19:14:00,60.4,46.5,30.28,SSW,202,13.4,19.9,60,0.00,,,0.00,VWS V14.01,2013-04-27 00:14:00,
2013-04-26 19:15:00,60.4,46.5,30.28,SSW,202,13.4,13.4,60,0.00,,,0.00,VWS V14.01,2013-04-27 00:15:00,
2013-04-26 19:16:00,60.2,46.3,30.28,South,180,15.6,15.6,60,0.00,,,0.00,VWS V14.01,2013-04-27 00:16:00,
2013-04-26 19:17:00,60.2,46.3,30.28,South,180,15.6,15.6,60,0.00,,,0.00,VWS V14.01,2013-04-27 00:17:00,
2013-04-26 19:18:00,60.0,46.5,30.28,SSW,202,12.5,15.6,61,0.00,,,0.00,VWS V14.01,2013-04-27 00:18:00,
2013-04-26 19:19:00,60.0,46.5,30.28,SSW,202,12.5,12.5,61,0.00,,,0.00,VWS V14.01,2013-04-27 00:19:00,
2013-04-26 19:20:00,60.0,46.5,30.28,SSW,202,12.5,12.5,61,0.00,,,0.00,VWS V14.01,2013-04-27 00:20:00,
2013-04-26 19:21:00,59.9,46.0,30.28,SSW,202,15.8,15.8,60,0.00,,,0.00,VWS V14.01,2013-04-27 00:21:00,
2013-04-26 19:22:00,59.9,46.0,30.28,SSW,202,13.6,15.8,60,0.00,,,0.00,VWS V14.01,2013-04-27 00:22:00,
2013-04-26 19:23:00,60.0,46.1,30.28,SSW,202,13.6,13.6,60,0.00,,,0.00,VWS V14.01,2013-04-27 00:23:00,
2013-04-26 19:24:00,60.0,46.1,30.28,SSW,202,13.6,13.6,60,0.00,,,0.00,VWS V14.01,2013-04-27 00:24:00,
2013-04-26 19:25:00,60.0,46.1,30.28,SSW,202,13.6,13.6,60,0.00,,,0.00,VWS V14.01,2013-04-27 00:25:00,
2013-04-26 19:26:00,59.9,46.0,30.28,SSW,202,15.2,15.2,60,0.00,,,0.00,VWS V14.01,2013-04-27 00:26:00,
2013-04-26 19:27:00,59.7,46.2,30.28,SSW,202,12.3,15.2,61,0.00,,,0.00,VWS V14.01,2013-04-27 00:27:00,
2013-04-26 19:28:00,59.7,46.2,30.28,SSW,202,12.3,12.3,61,0.00,,,0.00,VWS V14.01,2013-04-27 00:28:00,
2013-04-26 19:29:00,59.5,46.1,30.28,South,180,13.6,13.6,61,0.00,,,0.00,VWS V14.01,2013-04-27 00:29:00,
2013-04-26 19:30:00,59.5,46.1,30.28,South,180,13.6,13.6,61,0.00,,,0.00,VWS V14.01,2013-04-27 00:30:00,
2013-04-26 19:31:00,59.3,45.9,30.28,SSW,202,13.4,13.6,61,0.00,,,0.00,VWS V14.01,2013-04-27 00:31:00,
2013-04-26 19:32:00,59.3,45.9,30.28,SSW,202,13.4,13.4,61,0.00,,,0.00,VWS V14.01,2013-04-27 00:32:00,
2013-04-26 19:33:00,59.1,45.7,30.28,South,180,15.4,15.4,61,0.00,,,0.00,VWS V14.01,2013-04-27 00:33:00,
2013-04-26 19:34:00,59.1,45.7,30.28,South,180,15.4,15.4,61,0.00,,,0.00,VWS V14.01,2013-04-27 00:34:00,
2013-04-26 19:35:00,59.1,45.7,30.28,South,180,15.4,15.4,61,0.00,,,0.00,VWS V14.01,2013-04-27 00:35:00,
2013-04-26 19:36:00,59.1,46.1,30.28,SSW,202,10.0,10.0,62,0.00,,,0.00,VWS V14.01,2013-04-27 00:36:00,
2013-04-26 19:37:00,59.1,46.1,30.28,SSW,202,13.6,13.6,62,0.00,,,0.00,VWS V14.01,2013-04-27 00:37:00,
2013-04-26 19:38:00,58.8,45.8,30.28,SSW,202,13.6,13.6,62,0.00,,,0.00,VWS V14.01,2013-04-27 00:38:00,
2013-04-26 19:39:00,58.8,45.8,30.28,SSW,202,13.6,13.6,62,0.00,,,0.00,VWS V14.01,2013-04-27 00:39:00,
2013-04-26 19:40:00,58.8,45.8,30.28,SSW,202,13.6,13.6,62,0.00,,,0.00,VWS V14.01,2013-04-27 00:40:00,
2013-04-26 19:41:00,58.8,46.2,30.28,SSW,202,12.9,12.9,63,0.00,,,0.00,VWS V14.01,2013-04-27 00:41:00,
2013-04-26 19:42:00,58.8,46.2,30.28,SSW,202,11.6,12.9,63,0.00,,,0.00,VWS V14.01,2013-04-27 00:42:00,
2013-04-26 19:43:00,58.8,46.2,30.28,SSW,202,11.6,11.6,63,0.00,,,0.00,VWS V14.01,2013-04-27 00:43:00,
2013-04-26 19:44:00,58.6,46.5,30.28,SSW,202,10.9,11.6,64,0.00,,,0.00,VWS V14.01,2013-04-27 00:44:00,
2013-04-26 19:45:00,58.6,46.5,30.28,SSW,202,10.9,10.9,64,0.00,,,0.00,VWS V14.01,2013-04-27 00:45:00,
2013-04-26 19:46:00,58.4,46.3,30.28,SSW,202,13.8,13.8,64,0.00,,,0.00,VWS V14.01,2013-04-27 00:46:00,
2013-04-26 19:47:00,58.4,46.3,30.28,SSW,202,13.8,13.8,64,0.00,,,0.00,VWS V14.01,2013-04-27 00:47:00,
2013-04-26 19:48:00,58.2,46.1,30.28,SSW,202,9.6,13.8,64,0.00,,,0.00,VWS V14.01,2013-04-27 00:48:00,
2013-04-26 19:49:00,58.2,46.1,30.28,SSW,202,9.6,9.6,64,0.00,,,0.00,VWS V14.01,2013-04-27 00:49:00,
2013-04-26 19:50:00,58.2,46.1,30.28,SSW,202,9.6,9.6,64,0.00,,,0.00,VWS V14.01,2013-04-27 00:50:00,
2013-04-26 19:51:00,58.1,46.0,30.28,SSW,202,12.0,12.0,64,0.00,,,0.00,VWS V14.01,2013-04-27 00:51:00,
2013-04-26 19:52:00,58.1,46.0,30.28,SSW,202,9.8,12.0,64,0.00,,,0.00,VWS V14.01,2013-04-27 00:52:00,
2013-04-26 19:53:00,57.9,46.2,30.28,SSW,202,9.8,9.8,65,0.00,,,0.00,VWS V14.01,2013-04-27 00:53:00,
2013-04-26 19:54:00,57.9,46.2,30.28,SSW,202,9.8,9.8,65,0.00,,,0.00,VWS V14.01,2013-04-27 00:54:00,
2013-04-26 19:55:00,57.9,46.2,30.28,SSW,202,9.8,9.8,65,0.00,,,0.00,VWS V14.01,2013-04-27 00:55:00,
2013-04-26 19:56:00,57.7,46.0,30.28,SSW,202,10.0,10.0,65,0.00,,,0.00,VWS V14.01,2013-04-27 00:56:00,
2013-04-26 19:57:00,57.7,46.0,30.28,SSW,202,10.2,10.2,65,0.00,,,0.00,VWS V14.01,2013-04-27 00:57:00,
2013-04-26 19:58:00,57.7,46.0,30.28,SSW,202,10.2,10.2,65,0.00,,,0.00,VWS V14.01,2013-04-27 00:58:00,
2013-04-26 19:59:00,57.5,46.2,30.28,SSW,202,12.0,12.0,66,0.00,,,0.00,VWS V14.01,2013-04-27 00:59:00,
2013-04-26 20:00:00,57.5,46.2,30.28,SSW,202,12.0,12.0,66,0.00,,,0.00,VWS V14.01,2013-04-27 01:00:00,
2013-04-26 20:01:00,57.3,46.0,30.28,SSW,202,14.5,14.5,66,0.00,,,0.00,VWS V14.01,2013-04-27 01:01:00,
2013-04-26 20:02:00,57.3,46.0,30.28,SSW,202,14.5,14.5,66,0.00,,,0.00,VWS V14.01,2013-04-27 01:02:00,
2013-04-26 20:03:00,57.2,46.0,30.28,SSW,202,15.8,15.8,66,0.00,,,0.00,VWS V14.01,2013-04-27 01:03:00,
2013-04-26 20:04:00,57.2,46.0,30.28,SSW,202,15.8,15.8,66,0.00,,,0.00,VWS V14.01,2013-04-27 01:04:00,
2013-04-26 20:05:00,57.2,46.0,30.28,SSW,202,15.8,15.8,66,0.00,,,0.00,VWS V14.01,2013-04-27 01:05:00,
2013-04-26 20:06:00,57.2,46.0,30.28,SSW,202,12.3,12.3,66,0.00,,,0.00,VWS V14.01,2013-04-27 01:06:00,
2013-04-26 20:07:00,57.2,46.0,30.28,SSW,202,9.6,12.3,66,0.00,,,0.00,VWS V14.01,2013-04-27 01:07:00,
2013-04-26 20:08:00,57.2,46.0,30.28,SSW,202,9.6,9.6,66,0.00,,,0.00,VWS V14.01,2013-04-27 01:08:00,
2013-04-26 20:09:00,57.2,46.0,30.28,SSW,202,9.6,9.6,66,0.00,,,0.00,VWS V14.01,2013-04-27 01:09:00,
2013-04-26 20:10:00,57.2,46.0,30.28,SSW,202,9.6,9.6,66,0.00,,,0.00,VWS V14.01,2013-04-27 01:10:00,
2013-04-26 20:11:00,57.0,45.8,30.28,SSW,202,12.7,12.7,66,0.00,,,0.00,VWS V14.01,2013-04-27 01:11:00,
2013-04-26 20:12:00,57.0,45.8,30.29,SW,225,7.3,12.7,66,0.00,,,0.00,VWS V14.01,2013-04-27 01:12:00,
2013-04-26 20:13:00,57.0,45.8,30.28,SW,225,7.3,7.3,66,0.00,,,0.00,VWS V14.01,2013-04-27 01:13:00,
2013-04-26 20:14:00,57.0,45.8,30.29,SW,225,10.9,10.9,66,0.00,,,0.00,VWS V14.01,2013-04-27 01:14:00,
2013-04-26 20:15:00,57.0,45.8,30.29,SW,225,10.9,10.9,66,0.00,,,0.00,VWS V14.01,2013-04-27 01:15:00,
2013-04-26 20:16:00,57.0,46.2,30.29,SW,225,7.8,10.9,67,0.00,,,0.00,VWS V14.01,2013-04-27 01:16:00,
2013-04-26 20:17:00,57.0,46.2,30.29,SW,225,7.8,7.8,67,0.00,,,0.00,VWS V14.01,2013-04-27 01:17:00,
2013-04-26 20:18:00,56.8,46.0,30.29,SSW,202,10.5,10.5,67,0.00,,,0.00,VWS V14.01,2013-04-27 01:18:00,
2013-04-26 20:19:00,56.8,46.0,30.29,SSW,202,10.5,10.5,67,0.00,,,0.00,VWS V14.01,2013-04-27 01:19:00,
2013-04-26 20:20:00,56.8,46.0,30.29,SSW,202,10.5,10.5,67,0.00,,,0.00,VWS V14.01,2013-04-27 01:20:00,
2013-04-26 20:21:00,56.8,46.0,30.29,SSW,202,9.1,9.1,67,0.00,,,0.00,VWS V14.01,2013-04-27 01:21:00,
2013-04-26 20:22:00,56.8,46.0,30.29,SSW,202,12.3,12.3,67,0.00,,,0.00,VWS V14.01,2013-04-27 01:22:00,
2013-04-26 20:23:00,56.8,46.0,30.29,SSW,202,12.3,12.3,67,0.00,,,0.00,VWS V14.01,2013-04-27 01:23:00,
2013-04-26 20:24:00,56.8,46.0,30.29,SSW,202,12.3,12.3,67,0.00,,,0.00,VWS V14.01,2013-04-27 01:24:00,
2013-04-26 20:25:00,56.8,46.0,30.29,SSW,202,12.3,12.3,67,0.00,,,0.00,VWS V14.01,2013-04-27 01:25:00,
2013-04-26 20:26:00,56.8,46.0,30.29,SSW,202,11.1,11.1,67,0.00,,,0.00,VWS V14.01,2013-04-27 01:26:00,
2013-04-26 20:27:00,56.4,45.6,30.29,SSW,202,11.6,11.6,67,0.00,,,0.00,VWS V14.01,2013-04-27 01:27:00,
2013-04-26 20:28:00,56.4,45.6,30.29,SSW,202,11.6,11.6,67,0.00,,,0.00,VWS V14.01,2013-04-27 01:28:00,
2013-04-26 20:29:00,56.4,46.0,30.29,SSW,202,10.7,11.6,68,0.00,,,0.00,VWS V14.01,2013-04-27 01:29:00,
2013-04-26 20:30:00,56.4,46.0,30.29,SSW,202,10.7,10.7,68,0.00,,,0.00,VWS V14.01,2013-04-27 01:30:00,
2013-04-26 20:31:00,56.4,46.0,30.29,South,180,9.1,10.7,68,0.00,,,0.00,VWS V14.01,2013-04-27 01:31:00,
2013-04-26 20:32:00,56.4,46.0,30.29,South,180,9.1,9.1,68,0.00,,,0.00,VWS V14.01,2013-04-27 01:32:00,
2013-04-26 20:33:00,56.4,46.0,30.29,SW,225,17.0,17.0,68,0.00,,,0.00,VWS V14.01,2013-04-27 01:33:00,
2013-04-26 20:34:00,56.4,46.0,30.29,SW,225,17.0,17.0,68,0.00,,,0.00,VWS V14.01,2013-04-27 01:34:00,
2013-04-26 20:35:00,56.4,46.0,30.29,SW,225,17.0,17.0,68,0.00,,,0.00,VWS V14.01,2013-04-27 01:35:00,
2013-04-26 20:36:00,56.4,46.0,30.30,SSW,202,9.8,9.8,68,0.00,,,0.00,VWS V14.01,2013-04-27 01:36:00,
2013-04-26 20:37:00,56.4,46.0,30.29,SSW,202,12.3,12.3,68,0.00,,,0.00,VWS V14.01,2013-04-27 01:37:00,
2013-04-26 20:38:00,56.4,46.0,30.29,SSW,202,12.3,12.3,68,0.00,,,0.00,VWS V14.01,2013-04-27 01:38:00,
2013-04-26 20:39:00,56.4,46.0,30.29,SSW,202,12.3,12.3,68,0.00,,,0.00,VWS V14.01,2013-04-27 01:39:00,
2013-04-26 20:40:00,56.4,46.0,30.29,SSW,202,12.3,12.3,68,0.00,,,0.00,VWS V14.01,2013-04-27 01:40:00,
2013-04-26 20:41:00,56.4,46.0,30.29,SSW,202,11.4,11.4,68,0.00,,,0.00,VWS V14.01,2013-04-27 01:41:00,
2013-04-26 20:42:00,56.4,46.0,30.29,SSW,202,13.4,13.4,68,0.00,,,0.00,VWS V14.01,2013-04-27 01:42:00,
2013-04-26 20:43:00,56.4,46.0,30.30,SSW,202,13.4,13.4,68,0.00,,,0.00,VWS V14.01,2013-04-27 01:43:00,
2013-04-26 20:44:00,56.4,46.0,30.30,SSW,202,17.6,17.6,68,0.00,,,0.00,VWS V14.01,2013-04-27 01:44:00,
2013-04-26 20:45:00,56.4,46.0,30.30,SSW,202,17.6,17.6,68,0.00,,,0.00,VWS V14.01,2013-04-27 01:45:00,
2013-04-26 20:46:00,56.4,46.0,30.30,SSW,202,7.8,17.6,68,0.00,,,0.00,VWS V14.01,2013-04-27 01:46:00,
2013-04-26 20:47:00,56.4,46.0,30.30,SSW,202,7.8,7.8,68,0.00,,,0.00,VWS V14.01,2013-04-27 01:47:00,
2013-04-26 20:48:00,56.4,46.0,30.30,SSW,202,8.2,8.2,68,0.00,,,0.00,VWS V14.01,2013-04-27 01:48:00,
2013-04-26 20:49:00,56.4,46.0,30.30,SSW,202,8.2,8.2,68,0.00,,,0.00,VWS V14.01,2013-04-27 01:49:00,
2013-04-26 20:50:00,56.4,46.0,30.30,SSW,202,8.2,8.2,68,0.00,,,0.00,VWS V14.01,2013-04-27 01:50:00,
2013-04-26 20:51:00,56.4,46.0,30.30,SSW,202,9.6,9.6,68,0.00,,,0.00,VWS V14.01,2013-04-27 01:51:00,
2013-04-26 20:52:00,56.4,46.0,30.30,SSW,202,11.4,11.4,68,0.00,,,0.00,VWS V14.01,2013-04-27 01:52:00,
2013-04-26 20:53:00,56.4,46.0,30.30,SSW,202,11.4,11.4,68,0.00,,,0.00,VWS V14.01,2013-04-27 01:53:00,
2013-04-26 20:54:00,56.4,46.0,30.30,SSW,202,11.4,11.4,68,0.00,,,0.00,VWS V14.01,2013-04-27 01:54:00,
2013-04-26 20:55:00,56.4,46.0,30.30,SSW,202,11.4,11.4,68,0.00,,,0.00,VWS V14.01,2013-04-27 01:55:00,
2013-04-26 20:56:00,56.8,46.0,30.30,SW,225,9.6,9.6,67,0.00,,,0.00,VWS V14.01,2013-04-27 01:56:00,
2013-04-26 20:57:00,56.6,46.2,30.30,SSW,202,11.1,11.1,68,0.00,,,0.00,VWS V14.01,2013-04-27 01:57:00,
2013-04-26 20:58:00,56.6,46.2,30.31,SSW,202,11.1,11.1,68,0.00,,,0.00,VWS V14.01,2013-04-27 01:58:00,
2013-04-26 20:59:00,56.6,46.2,30.30,SSW,202,12.3,12.3,68,0.00,,,0.00,VWS V14.01,2013-04-27 01:59:00,
2013-04-26 21:00:00,56.6,46.2,30.30,SSW,202,12.3,12.3,68,0.00,,,0.00,VWS V14.01,2013-04-27 02:00:00,
2013-04-26 21:01:00,56.6,46.2,30.30,SSW,202,7.8,12.3,68,0.00,,,0.00,VWS V14.01,2013-04-27 02:01:00,
2013-04-26 21:02:00,56.6,46.2,30.31,SSW,202,7.8,7.8,68,0.00,,,0.00,VWS V14.01,2013-04-27 02:02:00,
2013-04-26 21:03:00,56.4,46.0,30.31,SSW,202,10.7,10.7,68,0.00,,,0.00,VWS V14.01,2013-04-27 02:03:00,
2013-04-26 21:04:00,56.4,46.0,30.31,SSW,202,10.7,10.7,68,0.00,,,0.00,VWS V14.01,2013-04-27 02:04:00,
2013-04-26 21:05:00,56.4,46.0,30.31,SSW,202,10.7,10.7,68,0.00,,,0.00,VWS V14.01,2013-04-27 02:05:00,
2013-04-26 21:06:00,56.4,46.0,30.31,SSW,202,8.9,8.9,68,0.00,,,0.00,VWS V14.01,2013-04-27 02:06:00,
2013-04-26 21:07:00,56.3,45.9,30.31,SSW,202,7.1,8.9,68,0.00,,,0.00,VWS V14.01,2013-04-27 02:07:00,
2013-04-26 21:08:00,56.3,45.9,30.31,SSW,202,7.1,7.1,68,0.00,,,0.00,VWS V14.01,2013-04-27 02:08:00,
2013-04-26 21:09:00,56.3,45.9,30.31,SSW,202,7.1,7.1,68,0.00,,,0.00,VWS V14.01,2013-04-27 02:09:00,
2013-04-26 21:10:00,56.3,45.9,30.31,SSW,202,7.1,7.1,68,0.00,,,0.00,VWS V14.01,2013-04-27 02:10:00,
2013-04-26 21:11:00,56.3,46.3,30.31,SSW,202,6.0,6.0,69,0.00,,,0.00,VWS V14.01,2013-04-27 02:11:00,
2013-04-26 21:12:00,56.1,46.1,30.31,SSW,202,6.4,6.4,69,0.00,,,0.00,VWS V14.01,2013-04-27 02:12:00,
2013-04-26 21:13:00,56.1,46.1,30.31,SSW,202,6.4,6.4,69,0.00,,,0.00,VWS V14.01,2013-04-27 02:13:00,
2013-04-26 21:14:00,56.1,46.1,30.31,SSW,202,9.1,9.1,69,0.00,,,0.00,VWS V14.01,2013-04-27 02:14:00,
2013-04-26 21:15:00,56.1,46.1,30.31,SSW,202,9.1,9.1,69,0.00,,,0.00,VWS V14.01,2013-04-27 02:15:00,
2013-04-26 21:16:00,55.9,45.9,30.31,SSW,202,6.7,9.1,69,0.00,,,0.00,VWS V14.01,2013-04-27 02:16:00,
2013-04-26 21:17:00,55.9,45.9,30.31,SSW,202,6.7,6.7,69,0.00,,,0.00,VWS V14.01,2013-04-27 02:17:00,
2013-04-26 21:18:00,55.9,45.9,30.31,SSW,202,8.7,8.7,69,0.00,,,0.00,VWS V14.01,2013-04-27 02:18:00,
2013-04-26 21:19:00,55.9,45.9,30.31,SSW,202,8.7,8.7,69,0.00,,,0.00,VWS V14.01,2013-04-27 02:19:00,
2013-04-26 21:20:00,55.9,45.9,30.31,SSW,202,8.7,8.7,69,0.00,,,0.00,VWS V14.01,2013-04-27 02:20:00,
2013-04-26 21:21:00,55.7,46.1,30.31,SSW,202,6.2,6.2,70,0.00,,,0.00,VWS V14.01,2013-04-27 02:21:00,
2013-04-26 21:22:00,55.7,46.1,30.31,South,180,1.3,6.2,70,0.00,,,0.00,VWS V14.01,2013-04-27 02:22:00,
2013-04-26 21:23:00,55.5,45.9,30.31,South,180,1.3,1.3,70,0.00,,,0.00,VWS V14.01,2013-04-27 02:23:00,
2013-04-26 21:24:00,55.5,45.9,30.31,South,180,1.3,1.3,70,0.00,,,0.00,VWS V14.01,2013-04-27 02:24:00,
2013-04-26 21:25:00,55.5,45.9,30.31,South,180,1.3,1.3,70,0.00,,,0.00,VWS V14.01,2013-04-27 02:25:00,
2013-04-26 21:26:00,55.2,45.6,30.31,SSW,202,9.1,9.1,70,0.00,,,0.00,VWS V14.01,2013-04-27 02:26:00,
2013-04-26 21:27:00,55.2,46.0,30.31,SSW,202,6.2,9.1,71,0.00,,,0.00,VWS V14.01,2013-04-27 02:27:00,
2013-04-26 21:28:00,55.2,46.0,30.31,SSW,202,6.2,6.2,71,0.00,,,0.00,VWS V14.01,2013-04-27 02:28:00,
2013-04-26 21:29:00,55.0,45.8,30.31,SSW,202,5.3,6.2,71,0.00,,,0.00,VWS V14.01,2013-04-27 02:29:00,
2013-04-26 21:30:00,55.0,45.8,30.31,SSW,202,5.3,5.3,71,0.00,,,0.00,VWS V14.01,2013-04-27 02:30:00,
2013-04-26 21:31:00,54.6,45.8,30.31,SSW,202,7.1,7.1,72,0.00,,,0.00,VWS V14.01,2013-04-27 02:31:00,
2013-04-26 21:32:00,54.6,45.8,30.31,SSW,202,7.1,7.1,72,0.00,,,0.00,VWS V14.01,2013-04-27 02:32:00,
2013-04-26 21:33:00,54.6,45.8,30.32,SSW,202,9.1,9.1,72,0.00,,,0.00,VWS V14.01,2013-04-27 02:33:00,
2013-04-26 21:34:00,54.6,45.8,30.32,SSW,202,9.1,9.1,72,0.00,,,0.00,VWS V14.01,2013-04-27 02:34:00,
2013-04-26 21:35:00,54.6,45.8,30.32,SSW,202,9.1,9.1,72,0.00,,,0.00,VWS V14.01,2013-04-27 02:35:00,
2013-04-26 21:36:00,55.0,46.2,30.31,SSW,202,9.3,9.3,72,0.00,,,0.00,VWS V14.01,2013-04-27 02:36:00,
2013-04-26 21:37:00,55.0,46.2,30.32,SSW,202,9.8,9.8,72,0.00,,,0.00,VWS V14.01,2013-04-27 02:37:00,
2013-04-26 21:38:00,55.0,45.8,30.32,SSW,202,9.8,9.8,71,0.00,,,0.00,VWS V14.01,2013-04-27 02:38:00,
2013-04-26 21:39:00,55.0,45.8,30.32,SSW,202,9.8,9.8,71,0.00,,,0.00,VWS V14.01,2013-04-27 02:39:00,
2013-04-26 21:40:00,55.0,45.8,30.32,SSW,202,9.8,9.8,71,0.00,,,0.00,VWS V14.01,2013-04-27 02:40:00,
2013-04-26 21:41:00,55.0,45.8,30.32,SSW,202,7.6,7.6,71,0.00,,,0.00,VWS V14.01,2013-04-27 02:41:00,
2013-04-26 21:42:00,55.0,45.8,30.32,SSW,202,13.4,13.4,71,0.00,,,0.00,VWS V14.01,2013-04-27 02:42:00,
2013-04-26 21:43:00,55.0,45.8,30.32,SSW,202,13.4,13.4,71,0.00,,,0.00,VWS V14.01,2013-04-27 02:43:00,
2013-04-26 21:44:00,55.0,45.8,30.32,SSW,202,7.3,13.4,71,0.00,,,0.00,VWS V14.01,2013-04-27 02:44:00,
2013-04-26 21:45:00,55.0,45.8,30.32,SSW,202,7.3,7.3,71,0.00,,,0.00,VWS V14.01,2013-04-27 02:45:00,
2013-04-26 21:46:00,54.6,45.4,30.32,SSW,202,6.2,7.3,71,0.00,,,0.00,VWS V14.01,2013-04-27 02:46:00,
2013-04-26 21:47:00,54.6,45.4,30.32,SSW,202,6.2,6.2,71,0.00,,,0.00,VWS V14.01,2013-04-27 02:47:00,
2013-04-26 21:48:00,54.6,45.8,30.32,SSW,202,7.1,7.1,72,0.00,,,0.00,VWS V14.01,2013-04-27 02:48:00,
2013-04-26 21:49:00,54.6,45.8,30.32,SSW,202,7.1,7.1,72,0.00,,,0.00,VWS V14.01,2013-04-27 02:49:00,
2013-04-26 21:50:00,54.6,45.8,30.32,SSW,202,7.1,7.1,72,0.00,,,0.00,VWS V14.01,2013-04-27 02:50:00,
2013-04-26 21:51:00,54.6,45.8,30.32,SSW,202,8.9,8.9,72,0.00,,,0.00,VWS V14.01,2013-04-27 02:51:00,
2013-04-26 21:52:00,54.6,45.8,30.32,SSW,202,7.1,8.9,72,0.00,,,0.00,VWS V14.01,2013-04-27 02:52:00,
2013-04-26 21:53:00,54.6,45.8,30.32,SSW,202,7.1,7.1,72,0.00,,,0.00,VWS V14.01,2013-04-27 02:53:00,
2013-04-26 21:54:00,54.6,45.8,30.32,SSW,202,7.1,7.1,72,0.00,,,0.00,VWS V14.01,2013-04-27 02:54:00,
2013-04-26 21:55:00,54.6,45.8,30.32,SSW,202,7.1,7.1,72,0.00,,,0.00,VWS V14.01,2013-04-27 02:55:00,
2013-04-26 21:56:00,54.6,45.8,30.32,SSW,202,6.0,6.0,72,0.00,,,0.00,VWS V14.01,2013-04-27 02:56:00,
2013-04-26 21:57:00,54.5,45.7,30.33,SSW,202,6.4,6.4,72,0.00,,,0.00,VWS V14.01,2013-04-27 02:57:00,
2013-04-26 21:58:00,54.5,45.7,30.33,SSW,202,6.4,6.4,72,0.00,,,0.00,VWS V14.01,2013-04-27 02:58:00,
2013-04-26 21:59:00,54.3,45.5,30.33,SSW,202,2.2,6.4,72,0.00,,,0.00,VWS V14.01,2013-04-27 02:59:00,
2013-04-26 22:00:00,54.3,45.5,30.33,SSW,202,2.2,2.2,72,0.00,,,0.00,VWS V14.01,2013-04-27 03:00:00,
2013-04-26 22:01:00,54.1,45.3,30.33,SSW,202,6.2,6.2,72,0.00,,,0.00,VWS V14.01,2013-04-27 03:01:00,
2013-04-26 22:02:00,54.1,45.3,30.32,SSW,202,6.2,6.2,72,0.00,,,0.00,VWS V14.01,2013-04-27 03:02:00,
2013-04-26 22:03:00,53.7,44.9,30.32,SSW,202,4.2,6.2,72,0.00,,,0.00,VWS V14.01,2013-04-27 03:03:00,
2013-04-26 22:04:00,53.7,44.9,30.33,SSW,202,4.2,4.2,72,0.00,,,0.00,VWS V14.01,2013-04-27 03:04:00,
2013-04-26 22:05:00,53.7,44.9,30.33,SSW,202,4.2,4.2,72,0.00,,,0.00,VWS V14.01,2013-04-27 03:05:00,
2013-04-26 22:06:00,53.4,44.6,30.33,SSW,202,3.8,3.8,72,0.00,,,0.00,VWS V14.01,2013-04-27 03:06:00,
2013-04-26 22:07:00,53.4,45.0,30.32,SSW,202,5.5,5.5,73,0.00,,,0.00,VWS V14.01,2013-04-27 03:07:00,
2013-04-26 22:08:00,53.2,44.8,30.33,SSW,202,5.5,5.5,73,0.00,,,0.00,VWS V14.01,2013-04-27 03:08:00,
2013-04-26 22:09:00,53.2,44.8,30.33,SSW,202,5.5,5.5,73,0.00,,,0.00,VWS V14.01,2013-04-27 03:09:00,
2013-04-26 22:10:00,53.2,44.8,30.33,SSW,202,5.5,5.5,73,0.00,,,0.00,VWS V14.01,2013-04-27 03:10:00,
2013-04-26 22:11:00,52.8,44.4,30.33,South,180,6.4,6.4,73,0.00,,,0.00,VWS V14.01,2013-04-27 03:11:00,
2013-04-26 22:12:00,52.7,44.7,30.33,SSW,202,3.8,6.4,74,0.00,,,0.00,VWS V14.01,2013-04-27 03:12:00,
2013-04-26 22:13:00,52.7,44.7,30.33,SSW,202,3.8,3.8,74,0.00,,,0.00,VWS V14.01,2013-04-27 03:13:00,
2013-04-26 22:14:00,52.5,44.5,30.33,SSW,202,3.3,3.8,74,0.00,,,0.00,VWS V14.01,2013-04-27 03:14:00,
2013-04-26 22:15:00,52.5,44.5,30.33,SSW,202,3.3,3.3,74,0.00,,,0.00,VWS V14.01,2013-04-27 03:15:00,
2013-04-26 22:16:00,52.5,44.8,30.32,SSW,202,5.3,5.3,75,0.00,,,0.00,VWS V14.01,2013-04-27 03:16:00,
2013-04-26 22:17:00,52.5,44.8,30.33,SSW,202,5.3,5.3,75,0.00,,,0.00,VWS V14.01,2013-04-27 03:17:00,
2013-04-26 22:18:00,52.3,44.6,30.33,SSW,202,4.2,5.3,75,0.00,,,0.00,VWS V14.01,2013-04-27 03:18:00,
2013-04-26 22:19:00,52.3,44.6,30.33,SSW,202,4.2,4.2,75,0.00,,,0.00,VWS V14.01,2013-04-27 03:19:00,
2013-04-26 22:20:00,52.3,44.6,30.33,SSW,202,4.2,4.2,75,0.00,,,0.00,VWS V14.01,2013-04-27 03:20:00,
2013-04-26 22:21:00,52.3,44.6,30.33,SSW,202,5.3,5.3,75,0.00,,,0.00,VWS V14.01,2013-04-27 03:21:00,
2013-04-26 22:22:00,52.3,44.6,30.33,SSW,202,6.7,6.7,75,0.00,,,0.00,VWS V14.01,2013-04-27 03:22:00,
2013-04-26 22:23:00,52.3,44.6,30.33,SSW,202,6.7,6.7,75,0.00,,,0.00,VWS V14.01,2013-04-27 03:23:00,
2013-04-26 22:24:00,52.3,44.6,30.33,SSW,202,6.7,6.7,75,0.00,,,0.00,VWS V14.01,2013-04-27 03:24:00,
2013-04-26 22:25:00,52.3,44.6,30.33,SSW,202,6.7,6.7,75,0.00,,,0.00,VWS V14.01,2013-04-27 03:25:00,
2013-04-26 22:26:00,52.3,44.6,30.33,South,180,8.2,8.2,75,0.00,,,0.00,VWS V14.01,2013-04-27 03:26:00,
2013-04-26 22:27:00,52.5,44.8,30.33,South,180,8.5,8.5,75,0.00,,,0.00,VWS V14.01,2013-04-27 03:27:00,
2013-04-26 22:28:00,52.5,44.8,30.33,South,180,8.5,8.5,75,0.00,,,0.00,VWS V14.01,2013-04-27 03:28:00,
2013-04-26 22:29:00,52.8,45.1,30.32,SSW,202,8.5,8.5,75,0.00,,,0.00,VWS V14.01,2013-04-27 03:29:00,
2013-04-26 22:30:00,52.8,45.1,30.32,SSW,202,8.5,8.5,75,0.00,,,0.00,VWS V14.01,2013-04-27 03:30:00,
2013-04-26 22:31:00,52.8,45.1,30.33,SSW,202,7.8,8.5,75,0.00,,,0.00,VWS V14.01,2013-04-27 03:31:00,
2013-04-26 22:32:00,52.8,45.1,30.33,SSW,202,7.8,7.8,75,0.00,,,0.00,VWS V14.01,2013-04-27 03:32:00,
2013-04-26 22:33:00,53.0,45.3,30.33,SSW,202,8.2,8.2,75,0.00,,,0.00,VWS V14.01,2013-04-27 03:33:00,
2013-04-26 22:34:00,53.0,45.3,30.33,SSW,202,8.2,8.2,75,0.00,,,0.00,VWS V14.01,2013-04-27 03:34:00,
2013-04-26 22:35:00,53.0,45.3,30.33,SSW,202,8.2,8.2,75,0.00,,,0.00,VWS V14.01,2013-04-27 03:35:00,
2013-04-26 22:36:00,53.2,45.1,30.33,SSW,202,9.6,9.6,74,0.00,,,0.00,VWS V14.01,2013-04-27 03:36:00,
2013-04-26 22:37:00,53.2,45.1,30.33,SSW,202,8.5,9.6,74,0.00,,,0.00,VWS V14.01,2013-04-27 03:37:00,
2013-04-26 22:38:00,53.2,45.1,30.33,SSW,202,8.5,8.5,74,0.00,,,0.00,VWS V14.01,2013-04-27 03:38:00,
2013-04-26 22:39:00,53.2,45.1,30.33,SSW,202,8.5,8.5,74,0.00,,,0.00,VWS V14.01,2013-04-27 03:39:00,
2013-04-26 22:40:00,53.2,45.1,30.33,SSW,202,8.5,8.5,74,0.00,,,0.00,VWS V14.01,2013-04-27 03:40:00,
2013-04-26 22:41:00,53.2,45.1,30.33,SSW,202,9.1,9.1,74,0.00,,,0.00,VWS V14.01,2013-04-27 03:41:00,
2013-04-26 22:42:00,53.2,45.1,30.33,SSW,202,9.3,9.3,74,0.00,,,0.00,VWS V14.01,2013-04-27 03:42:00,
2013-04-26 22:43:00,53.2,45.1,30.33,SSW,202,9.3,9.3,74,0.00,,,0.00,VWS V14.01,2013-04-27 03:43:00,
2013-04-26 22:44:00,53.2,45.1,30.33,SSW,202,10.0,10.0,74,0.00,,,0.00,VWS V14.01,2013-04-27 03:44:00,
2013-04-26 22:45:00,53.2,45.1,30.33,SSW,202,10.0,10.0,74,0.00,,,0.00,VWS V14.01,2013-04-27 03:45:00,
2013-04-26 22:46:00,53.0,45.0,30.32,SSW,202,9.8,10.0,74,0.00,,,0.00,VWS V14.01,2013-04-27 03:46:00,
2013-04-26 22:47:00,53.0,45.0,30.33,SSW,202,9.8,9.8,74,0.00,,,0.00,VWS V14.01,2013-04-27 03:47:00,
2013-04-26 22:48:00,52.8,45.1,30.33,SSW,202,7.1,9.8,75,0.00,,,0.00,VWS V14.01,2013-04-27 03:48:00,
2013-04-26 22:49:00,52.8,45.1,30.33,SSW,202,7.1,7.1,75,0.00,,,0.00,VWS V14.01,2013-04-27 03:49:00,
2013-04-26 22:50:00,52.8,45.1,30.33,SSW,202,7.1,7.1,75,0.00,,,0.00,VWS V14.01,2013-04-27 03:50:00,
2013-04-26 22:51:00,52.8,45.1,30.33,SSW,202,7.6,7.6,75,0.00,,,0.00,VWS V14.01,2013-04-27 03:51:00,
2013-04-26 22:52:00,52.8,45.1,30.33,SSW,202,8.0,8.0,75,0.00,,,0.00,VWS V14.01,2013-04-27 03:52:00,
2013-04-26 22:53:00,52.8,45.1,30.33,SSW,202,8.0,8.0,75,0.00,,,0.00,VWS V14.01,2013-04-27 03:53:00,
2013-04-26 22:54:00,52.8,45.1,30.33,SSW,202,8.0,8.0,75,0.00,,,0.00,VWS V14.01,2013-04-27 03:54:00,
2013-04-26 22:55:00,52.8,45.1,30.33,SSW,202,8.0,8.0,75,0.00,,,0.00,VWS V14.01,2013-04-27 03:55:00,
2013-04-26 22:56:00,52.8,45.1,30.32,SSW,202,9.3,9.3,75,0.00,,,0.00,VWS V14.01,2013-04-27 03:56:00,
2013-04-26 22:57:00,52.8,45.1,30.33,SSW,202,10.7,10.7,75,0.00,,,0.00,VWS V14.01,2013-04-27 03:57:00,
2013-04-26 22:58:00,52.8,45.1,30.32,SSW,202,10.7,10.7,75,0.00,,,0.00,VWS V14.01,2013-04-27 03:58:00,
2013-04-26 22:59:00,52.7,45.0,30.32,SSW,202,9.6,10.7,75,0.00,,,0.00,VWS V14.01,2013-04-27 03:59:00,
2013-04-26 23:00:00,52.7,45.0,30.32,SSW,202,9.6,9.6,75,0.00,,,0.00,VWS V14.01,2013-04-27 04:00:00,
2013-04-26 23:01:00,52.7,45.0,30.32,SSW,202,9.6,9.6,75,0.00,,,0.00,VWS V14.01,2013-04-27 04:01:00,
2013-04-26 23:02:00,52.8,45.1,30.32,South,180,5.8,5.8,75,0.00,,,0.00,VWS V14.01,2013-04-27 04:02:00,
2013-04-26 23:03:00,52.7,45.0,30.32,SSW,202,11.1,11.1,75,0.00,,,0.00,VWS V14.01,2013-04-27 04:03:00,
2013-04-26 23:04:00,52.7,45.0,30.32,SSW,202,11.1,11.1,75,0.00,,,0.00,VWS V14.01,2013-04-27 04:04:00,
2013-04-26 23:05:00,52.7,45.0,30.32,SSW,202,6.4,11.1,75,0.00,,,0.00,VWS V14.01,2013-04-27 04:05:00,
2013-04-26 23:06:00,52.7,45.0,30.32,SSW,202,6.4,6.4,75,0.00,,,0.00,VWS V14.01,2013-04-27 04:06:00,
2013-04-26 23:07:00,52.3,44.6,30.32,SSW,202,7.1,7.1,75,0.00,,,0.00,VWS V14.01,2013-04-27 04:07:00,
2013-04-26 23:08:00,52.3,44.6,30.32,SSW,202,7.1,7.1,75,0.00,,,0.00,VWS V14.01,2013-04-27 04:08:00,
2013-04-26 23:09:00,52.3,44.6,30.32,SSW,202,7.1,7.1,75,0.00,,,0.00,VWS V14.01,2013-04-27 04:09:00,
2013-04-26 23:10:00,52.1,44.4,30.32,South,180,6.2,7.1,75,0.00,,,0.00,VWS V14.01,2013-04-27 04:10:00,
2013-04-26 23:11:00,52.1,44.4,30.32,South,180,6.2,6.2,75,0.00,,,0.00,VWS V14.01,2013-04-27 04:11:00,
2013-04-26 23:12:00,52.1,44.8,30.32,SSW,202,6.4,6.4,76,0.00,,,0.00,VWS V14.01,2013-04-27 04:12:00,
2013-04-26 23:13:00,52.1,44.8,30.33,SSW,202,6.4,6.4,76,0.00,,,0.00,VWS V14.01,2013-04-27 04:13:00,
2013-04-26 23:14:00,51.9,44.6,30.32,SSW,202,7.1,7.1,76,0.00,,,0.00,VWS V14.01,2013-04-27 04:14:00,
2013-04-26 23:15:00,51.9,44.6,30.32,SSW,202,7.1,7.1,76,0.00,,,0.00,VWS V14.01,2013-04-27 04:15:00,
2013-04-26 23:16:00,51.9,44.6,30.32,SSW,202,7.1,7.1,76,0.00,,,0.00,VWS V14.01,2013-04-27 04:16:00,
2013-04-26 23:17:00,51.8,44.5,30.32,South,180,4.9,4.9,76,0.00,,,0.00,VWS V14.01,2013-04-27 04:17:00,
2013-04-26 23:18:00,51.8,44.5,30.32,SSW,202,6.4,6.4,76,0.00,,,0.00,VWS V14.01,2013-04-27 04:18:00,
2013-04-26 23:19:00,51.8,44.5,30.32,SSW,202,6.4,6.4,76,0.00,,,0.00,VWS V14.01,2013-04-27 04:19:00,
2013-04-26 23:20:00,51.6,44.6,30.32,SSW,202,3.1,6.4,77,0.00,,,0.00,VWS V14.01,2013-04-27 04:20:00,
2013-04-26 23:21:00,51.6,44.6,30.32,SSW,202,3.1,3.1,77,0.00,,,0.00,VWS V14.01,2013-04-27 04:21:00,
2013-04-26 23:22:00,51.4,44.4,30.32,SSW,202,2.4,3.1,77,0.00,,,0.00,VWS V14.01,2013-04-27 04:22:00,
2013-04-26 23:23:00,51.4,44.4,30.32,SSW,202,2.4,2.4,77,0.00,,,0.00,VWS V14.01,2013-04-27 04:23:00,
2013-04-26 23:24:00,51.4,44.4,30.32,SSW,202,2.4,2.4,77,0.00,,,0.00,VWS V14.01,2013-04-27 04:24:00,
2013-04-26 23:25:00,51.4,44.4,30.32,SSW,202,2.4,2.4,77,0.00,,,0.00,VWS V14.01,2013-04-27 04:25:00,
2013-04-26 23:26:00,51.4,44.4,30.32,SSW,202,2.4,2.4,77,0.00,,,0.00,VWS V14.01,2013-04-27 04:26:00,
2013-04-26 23:27:00,51.2,44.2,30.32,SSW,202,1.1,2.4,77,0.00,,,0.00,VWS V14.01,2013-04-27 04:27:00,
2013-04-26 23:28:00,51.2,44.2,30.32,SSW,202,1.1,1.1,77,0.00,,,0.00,VWS V14.01,2013-04-27 04:28:00,
2013-04-26 23:29:00,51.0,44.0,30.32,SSW,202,0.0,1.1,77,0.00,,,0.00,VWS V14.01,2013-04-27 04:29:00,
2013-04-26 23:30:00,51.0,44.0,30.32,SSW,202,0.0,0.0,77,0.00,,,0.00,VWS V14.01,2013-04-27 04:30:00,
2013-04-26 23:31:00,51.0,44.0,30.32,SSW,202,0.0,0.0,77,0.00,,,0.00,VWS V14.01,2013-04-27 04:31:00,
2013-04-26 23:32:00,51.0,44.0,30.32,SSW,202,0.0,0.0,77,0.00,,,0.00,VWS V14.01,2013-04-27 04:32:00,
2013-04-26 23:33:00,50.7,43.8,30.32,SE,135,0.0,0.0,77,0.00,,,0.00,VWS V14.01,2013-04-27 04:33:00,
2013-04-26 23:34:00,50.7,43.8,30.32,SE,135,0.0,0.0,77,0.00,,,0.00,VWS V14.01,2013-04-27 04:34:00,
2013-04-26 23:35:00,50.7,43.8,30.33,SSW,202,0.0,0.0,77,0.00,,,0.00,VWS V14.01,2013-04-27 04:35:00,
2013-04-26 23:36:00,50.7,43.8,30.33,SSW,202,0.0,0.0,77,0.00,,,0.00,VWS V14.01,2013-04-27 04:36:00,
2013-04-26 23:37:00,50.7,43.8,30.32,SSW,202,0.0,0.0,77,0.00,,,0.00,VWS V14.01,2013-04-27 04:37:00,
2013-04-26 23:38:00,50.7,43.8,30.32,SSW,202,0.0,0.0,77,0.00,,,0.00,VWS V14.01,2013-04-27 04:38:00,
2013-04-26 23:39:00,50.7,43.8,30.32,SSW,202,0.0,0.0,77,0.00,,,0.00,VWS V14.01,2013-04-27 04:39:00,
2013-04-26 23:40:00,50.7,44.1,30.32,SSW,202,4.6,4.6,78,0.00,,,0.00,VWS V14.01,2013-04-27 04:40:00,
2013-04-26 23:41:00,50.7,44.1,30.32,SSW,202,4.6,4.6,78,0.00,,,0.00,VWS V14.01,2013-04-27 04:41:00,
2013-04-26 23:42:00,50.7,44.1,30.32,South,180,3.1,4.6,78,0.00,,,0.00,VWS V14.01,2013-04-27 04:42:00,
2013-04-26 23:43:00,50.7,44.1,30.32,South,180,3.1,3.1,78,0.00,,,0.00,VWS V14.01,2013-04-27 04:43:00,
2013-04-26 23:44:00,50.7,44.1,30.32,SSW,202,7.6,7.6,78,0.00,,,0.00,VWS V14.01,2013-04-27 04:44:00,
2013-04-26 23:45:00,50.7,44.1,30.32,SSW,202,7.6,7.6,78,0.00,,,0.00,VWS V14.01,2013-04-27 04:45:00,
2013-04-26 23:46:00,50.7,44.1,30.32,SSW,202,7.6,7.6,78,0.00,,,0.00,VWS V14.01,2013-04-27 04:46:00,
2013-04-26 23:47:00,50.5,43.9,30.32,South,180,3.1,3.1,78,0.00,,,0.00,VWS V14.01,2013-04-27 04:47:00,
2013-04-26 23:48:00,50.5,43.9,30.32,South,180,3.3,3.3,78,0.00,,,0.00,VWS V14.01,2013-04-27 04:48:00,
2013-04-26 23:49:00,50.5,43.9,30.32,South,180,3.3,3.3,78,0.00,,,0.00,VWS V14.01,2013-04-27 04:49:00,
2013-04-26 23:50:00,50.5,43.9,30.32,South,180,2.2,3.3,78,0.00,,,0.00,VWS V14.01,2013-04-27 04:50:00,
2013-04-26 23:51:00,50.5,43.9,30.32,South,180,2.2,2.2,78,0.00,,,0.00,VWS V14.01,2013-04-27 04:51:00,
2013-04-26 23:52:00,50.5,43.9,30.33,SSW,202,4.0,4.0,78,0.00,,,0.00,VWS V14.01,2013-04-27 04:52:00,
2013-04-26 23:53:00,50.5,43.9,30.33,SSW,202,4.0,4.0,78,0.00,,,0.00,VWS V14.01,2013-04-27 04:53:00,
2013-04-26 23:54:00,50.5,44.2,30.33,SSW,202,4.0,4.0,79,0.00,,,0.00,VWS V14.01,2013-04-27 04:54:00,
2013-04-26 23:55:00,50.5,44.2,30.33,South,180,0.0,4.0,79,0.00,,,0.00,VWS V14.01,2013-04-27 04:55:00,
2013-04-26 23:56:00,50.5,44.2,30.33,South,180,0.0,0.0,79,0.00,,,0.00,VWS V14.01,2013-04-27 04:56:00,
2013-04-26 23:57:00,50.5,44.2,30.32,South,180,1.5,1.5,79,0.00,,,0.00,VWS V14.01,2013-04-27 04:57:00,
2013-04-26 23:58:00,50.5,44.2,30.32,South,180,1.5,1.5,79,0.00,,,0.00,VWS V14.01,2013-04-27 04:58:00,
2013-04-26 23:59:00,50.5,44.2,30.32,SSW,202,4.2,4.2,79,0.00,,,0.00,VWS V14.01,2013-04-27 04:59:00,